<?xml version="1.0" encoding="UTF-8" standalone="no" ?>
<gpx xmlns="http://www.topografix.com/GPX/1/1" xmlns:xsi="http://www.w3.org/2001/XMLSchema-instance" xsi:schemaLocation="http://www.topografix.com/GPX/1/1 http://www.topografix.com/GPX/1/1/gpx.xsd" version="1.1" creator="VisuGPX - https://www.visugpx.com">
  <metadata>
    <name>83-CD-la Croix Valmer</name>
    <desc><![CDATA[83-CD-la Croix Valmer : cap Taillat - Collebasse ]]></desc>
  </metadata>
  <trk>
    <name><![CDATA[2013-12-01-la croix valmer modifie]]></name>
    <trkseg>
      <trkpt lat="43.18537" lon="6.59901">
        <ele>8.8</ele>
        <time>2013-12-01T08:42:30Z</time>
      </trkpt>
      <trkpt lat="43.18531" lon="6.5991">
        <ele>5.4</ele>
        <time>2013-12-01T08:43:08Z</time>
      </trkpt>
      <trkpt lat="43.1853" lon="6.59912">
        <ele>5.4</ele>
        <time>2013-12-01T08:43:09Z</time>
      </trkpt>
      <trkpt lat="43.18534" lon="6.5991">
        <ele>5.4</ele>
        <time>2013-12-01T08:43:44Z</time>
      </trkpt>
      <trkpt lat="43.18538" lon="6.599">
        <ele>7.2</ele>
        <time>2013-12-01T08:45:16Z</time>
      </trkpt>
      <trkpt lat="43.18538" lon="6.599">
        <ele>7.2</ele>
        <time>2013-12-01T08:45:17Z</time>
      </trkpt>
      <trkpt lat="43.18541" lon="6.59888">
        <ele>10</ele>
        <time>2013-12-01T08:49:49Z</time>
      </trkpt>
      <trkpt lat="43.18529" lon="6.59873">
        <ele>9</ele>
        <time>2013-12-01T08:50:10Z</time>
      </trkpt>
      <trkpt lat="43.18522" lon="6.59866">
        <ele>9.3</ele>
        <time>2013-12-01T08:50:23Z</time>
      </trkpt>
      <trkpt lat="43.18517" lon="6.59856">
        <ele>12.5</ele>
        <time>2013-12-01T08:50:47Z</time>
      </trkpt>
      <trkpt lat="43.18509" lon="6.59852">
        <ele>12.9</ele>
        <time>2013-12-01T08:50:54Z</time>
      </trkpt>
      <trkpt lat="43.18507" lon="6.59851">
        <ele>13.4</ele>
        <time>2013-12-01T08:50:55Z</time>
      </trkpt>
      <trkpt lat="43.18494" lon="6.59841">
        <ele>13</ele>
        <time>2013-12-01T08:51:03Z</time>
      </trkpt>
      <trkpt lat="43.18485" lon="6.59841">
        <ele>13.7</ele>
        <time>2013-12-01T08:51:11Z</time>
      </trkpt>
      <trkpt lat="43.18476" lon="6.59844">
        <ele>12.5</ele>
        <time>2013-12-01T08:51:18Z</time>
      </trkpt>
      <trkpt lat="43.18468" lon="6.59845">
        <ele>12.4</ele>
        <time>2013-12-01T08:51:23Z</time>
      </trkpt>
      <trkpt lat="43.18459" lon="6.59843">
        <ele>11.8</ele>
        <time>2013-12-01T08:51:31Z</time>
      </trkpt>
      <trkpt lat="43.18451" lon="6.59842">
        <ele>10.9</ele>
        <time>2013-12-01T08:51:36Z</time>
      </trkpt>
      <trkpt lat="43.18443" lon="6.59841">
        <ele>9.6</ele>
        <time>2013-12-01T08:51:41Z</time>
      </trkpt>
      <trkpt lat="43.18435" lon="6.5984">
        <ele>9</ele>
        <time>2013-12-01T08:51:48Z</time>
      </trkpt>
      <trkpt lat="43.18428" lon="6.59845">
        <ele>7.5</ele>
        <time>2013-12-01T08:51:54Z</time>
      </trkpt>
      <trkpt lat="43.18424" lon="6.59855">
        <ele>7.1</ele>
        <time>2013-12-01T08:52:00Z</time>
      </trkpt>
      <trkpt lat="43.18424" lon="6.59857">
        <ele>7.1</ele>
        <time>2013-12-01T08:52:01Z</time>
      </trkpt>
      <trkpt lat="43.18423" lon="6.59877">
        <ele>5.8</ele>
        <time>2013-12-01T08:52:12Z</time>
      </trkpt>
      <trkpt lat="43.18421" lon="6.59889">
        <ele>5.3</ele>
        <time>2013-12-01T08:52:19Z</time>
      </trkpt>
      <trkpt lat="43.1842" lon="6.59901">
        <ele>4.5</ele>
        <time>2013-12-01T08:52:28Z</time>
      </trkpt>
      <trkpt lat="43.18418" lon="6.59912">
        <ele>5</ele>
        <time>2013-12-01T08:52:33Z</time>
      </trkpt>
      <trkpt lat="43.18418" lon="6.59924">
        <ele>5.1</ele>
        <time>2013-12-01T08:52:39Z</time>
      </trkpt>
      <trkpt lat="43.18415" lon="6.59934">
        <ele>4.8</ele>
        <time>2013-12-01T08:52:47Z</time>
      </trkpt>
      <trkpt lat="43.18411" lon="6.59945">
        <ele>4.7</ele>
        <time>2013-12-01T08:52:55Z</time>
      </trkpt>
      <trkpt lat="43.18407" lon="6.59955">
        <ele>5</ele>
        <time>2013-12-01T08:53:02Z</time>
      </trkpt>
      <trkpt lat="43.18407" lon="6.59957">
        <ele>5.3</ele>
        <time>2013-12-01T08:53:03Z</time>
      </trkpt>
      <trkpt lat="43.18399" lon="6.59974">
        <ele>5.5</ele>
        <time>2013-12-01T08:53:17Z</time>
      </trkpt>
      <trkpt lat="43.18397" lon="6.59985">
        <ele>5.8</ele>
        <time>2013-12-01T08:53:24Z</time>
      </trkpt>
      <trkpt lat="43.18395" lon="6.59996">
        <ele>5.2</ele>
        <time>2013-12-01T08:53:31Z</time>
      </trkpt>
      <trkpt lat="43.18392" lon="6.60007">
        <ele>5.6</ele>
        <time>2013-12-01T08:53:40Z</time>
      </trkpt>
      <trkpt lat="43.18388" lon="6.60018">
        <ele>6.1</ele>
        <time>2013-12-01T08:53:48Z</time>
      </trkpt>
      <trkpt lat="43.18388" lon="6.60029">
        <ele>6</ele>
        <time>2013-12-01T08:53:53Z</time>
      </trkpt>
      <trkpt lat="43.18384" lon="6.60038">
        <ele>5.8</ele>
        <time>2013-12-01T08:53:59Z</time>
      </trkpt>
      <trkpt lat="43.18379" lon="6.60048">
        <ele>6</ele>
        <time>2013-12-01T08:54:06Z</time>
      </trkpt>
      <trkpt lat="43.18379" lon="6.60048">
        <ele>6.2</ele>
        <time>2013-12-01T08:54:07Z</time>
      </trkpt>
      <trkpt lat="43.18366" lon="6.60061">
        <ele>6.5</ele>
        <time>2013-12-01T08:54:42Z</time>
      </trkpt>
      <trkpt lat="43.18374" lon="6.60066">
        <ele>6.2</ele>
        <time>2013-12-01T08:54:57Z</time>
      </trkpt>
      <trkpt lat="43.18366" lon="6.60064">
        <ele>5.3</ele>
        <time>2013-12-01T08:56:36Z</time>
      </trkpt>
      <trkpt lat="43.18365" lon="6.60063">
        <ele>5.3</ele>
        <time>2013-12-01T08:56:37Z</time>
      </trkpt>
      <trkpt lat="43.18358" lon="6.60063">
        <ele>7.2</ele>
        <time>2013-12-01T08:57:46Z</time>
      </trkpt>
      <trkpt lat="43.18357" lon="6.60063">
        <ele>7.1</ele>
        <time>2013-12-01T08:57:47Z</time>
      </trkpt>
      <trkpt lat="43.18343" lon="6.60066">
        <ele>6.3</ele>
        <time>2013-12-01T08:58:29Z</time>
      </trkpt>
      <trkpt lat="43.18334" lon="6.60068">
        <ele>6.7</ele>
        <time>2013-12-01T08:58:36Z</time>
      </trkpt>
      <trkpt lat="43.18326" lon="6.60071">
        <ele>5.9</ele>
        <time>2013-12-01T08:58:44Z</time>
      </trkpt>
      <trkpt lat="43.18318" lon="6.60068">
        <ele>5.4</ele>
        <time>2013-12-01T08:58:53Z</time>
      </trkpt>
      <trkpt lat="43.18317" lon="6.60068">
        <ele>5.5</ele>
        <time>2013-12-01T08:58:54Z</time>
      </trkpt>
      <trkpt lat="43.18301" lon="6.60067">
        <ele>5.1</ele>
        <time>2013-12-01T08:59:48Z</time>
      </trkpt>
      <trkpt lat="43.18293" lon="6.60074">
        <ele>4.5</ele>
        <time>2013-12-01T09:00:19Z</time>
      </trkpt>
      <trkpt lat="43.18292" lon="6.60075">
        <ele>4.7</ele>
        <time>2013-12-01T09:00:20Z</time>
      </trkpt>
      <trkpt lat="43.18282" lon="6.60091">
        <ele>4</ele>
        <time>2013-12-01T09:00:32Z</time>
      </trkpt>
      <trkpt lat="43.18277" lon="6.601">
        <ele>4.3</ele>
        <time>2013-12-01T09:00:39Z</time>
      </trkpt>
      <trkpt lat="43.18271" lon="6.60108">
        <ele>3.9</ele>
        <time>2013-12-01T09:00:46Z</time>
      </trkpt>
      <trkpt lat="43.18265" lon="6.60116">
        <ele>4.1</ele>
        <time>2013-12-01T09:00:52Z</time>
      </trkpt>
      <trkpt lat="43.1826" lon="6.60124">
        <ele>3.9</ele>
        <time>2013-12-01T09:01:00Z</time>
      </trkpt>
      <trkpt lat="43.18257" lon="6.60135">
        <ele>4</ele>
        <time>2013-12-01T09:01:09Z</time>
      </trkpt>
      <trkpt lat="43.18252" lon="6.60145">
        <ele>4.7</ele>
        <time>2013-12-01T09:01:17Z</time>
      </trkpt>
      <trkpt lat="43.18248" lon="6.60156">
        <ele>5</ele>
        <time>2013-12-01T09:01:25Z</time>
      </trkpt>
      <trkpt lat="43.18248" lon="6.60157">
        <ele>5</ele>
        <time>2013-12-01T09:01:26Z</time>
      </trkpt>
      <trkpt lat="43.18237" lon="6.60173">
        <ele>5.1</ele>
        <time>2013-12-01T09:01:45Z</time>
      </trkpt>
      <trkpt lat="43.18232" lon="6.60182">
        <ele>4.7</ele>
        <time>2013-12-01T09:01:54Z</time>
      </trkpt>
      <trkpt lat="43.18226" lon="6.60191">
        <ele>4.7</ele>
        <time>2013-12-01T09:02:02Z</time>
      </trkpt>
      <trkpt lat="43.1822" lon="6.60199">
        <ele>4.1</ele>
        <time>2013-12-01T09:02:11Z</time>
      </trkpt>
      <trkpt lat="43.18214" lon="6.60208">
        <ele>4.2</ele>
        <time>2013-12-01T09:02:20Z</time>
      </trkpt>
      <trkpt lat="43.18207" lon="6.60215">
        <ele>6.1</ele>
        <time>2013-12-01T09:02:48Z</time>
      </trkpt>
      <trkpt lat="43.18207" lon="6.60215">
        <ele>6.5</ele>
        <time>2013-12-01T09:02:49Z</time>
      </trkpt>
      <trkpt lat="43.18192" lon="6.60222">
        <ele>7.9</ele>
        <time>2013-12-01T09:03:14Z</time>
      </trkpt>
      <trkpt lat="43.18186" lon="6.60231">
        <ele>9.2</ele>
        <time>2013-12-01T09:03:26Z</time>
      </trkpt>
      <trkpt lat="43.1818" lon="6.6024">
        <ele>8.9</ele>
        <time>2013-12-01T09:03:46Z</time>
      </trkpt>
      <trkpt lat="43.18173" lon="6.60247">
        <ele>9.1</ele>
        <time>2013-12-01T09:04:08Z</time>
      </trkpt>
      <trkpt lat="43.18172" lon="6.60247">
        <ele>9.6</ele>
        <time>2013-12-01T09:04:09Z</time>
      </trkpt>
      <trkpt lat="43.18158" lon="6.60236">
        <ele>9.5</ele>
        <time>2013-12-01T09:04:40Z</time>
      </trkpt>
      <trkpt lat="43.1815" lon="6.60239">
        <ele>10.1</ele>
        <time>2013-12-01T09:04:49Z</time>
      </trkpt>
      <trkpt lat="43.18143" lon="6.60245">
        <ele>10.3</ele>
        <time>2013-12-01T09:05:00Z</time>
      </trkpt>
      <trkpt lat="43.18136" lon="6.60251">
        <ele>10</ele>
        <time>2013-12-01T09:05:07Z</time>
      </trkpt>
      <trkpt lat="43.18129" lon="6.60257">
        <ele>10.9</ele>
        <time>2013-12-01T09:05:19Z</time>
      </trkpt>
      <trkpt lat="43.18128" lon="6.60258">
        <ele>11</ele>
        <time>2013-12-01T09:05:20Z</time>
      </trkpt>
      <trkpt lat="43.18114" lon="6.60267">
        <ele>10.3</ele>
        <time>2013-12-01T09:05:35Z</time>
      </trkpt>
      <trkpt lat="43.18106" lon="6.60272">
        <ele>10.1</ele>
        <time>2013-12-01T09:05:41Z</time>
      </trkpt>
      <trkpt lat="43.18098" lon="6.60272">
        <ele>10</ele>
        <time>2013-12-01T09:05:51Z</time>
      </trkpt>
      <trkpt lat="43.1809" lon="6.60278">
        <ele>9.3</ele>
        <time>2013-12-01T09:05:58Z</time>
      </trkpt>
      <trkpt lat="43.18085" lon="6.60286">
        <ele>10.4</ele>
        <time>2013-12-01T09:06:08Z</time>
      </trkpt>
      <trkpt lat="43.18077" lon="6.60291">
        <ele>7.5</ele>
        <time>2013-12-01T09:06:28Z</time>
      </trkpt>
      <trkpt lat="43.18076" lon="6.60292">
        <ele>7.3</ele>
        <time>2013-12-01T09:06:29Z</time>
      </trkpt>
      <trkpt lat="43.18059" lon="6.60295">
        <ele>4.5</ele>
        <time>2013-12-01T09:06:55Z</time>
      </trkpt>
      <trkpt lat="43.18053" lon="6.60304">
        <ele>5.1</ele>
        <time>2013-12-01T09:07:02Z</time>
      </trkpt>
      <trkpt lat="43.18045" lon="6.60308">
        <ele>8.7</ele>
        <time>2013-12-01T09:07:20Z</time>
      </trkpt>
      <trkpt lat="43.18038" lon="6.60302">
        <ele>10.2</ele>
        <time>2013-12-01T09:07:35Z</time>
      </trkpt>
      <trkpt lat="43.18037" lon="6.60302">
        <ele>10.1</ele>
        <time>2013-12-01T09:07:36Z</time>
      </trkpt>
      <trkpt lat="43.18022" lon="6.60297">
        <ele>13.6</ele>
        <time>2013-12-01T09:07:59Z</time>
      </trkpt>
      <trkpt lat="43.18016" lon="6.60289">
        <ele>14.4</ele>
        <time>2013-12-01T09:08:07Z</time>
      </trkpt>
      <trkpt lat="43.18008" lon="6.60286">
        <ele>14.7</ele>
        <time>2013-12-01T09:08:15Z</time>
      </trkpt>
      <trkpt lat="43.17999" lon="6.60283">
        <ele>15.2</ele>
        <time>2013-12-01T09:08:23Z</time>
      </trkpt>
      <trkpt lat="43.17991" lon="6.6028">
        <ele>15.6</ele>
        <time>2013-12-01T09:08:32Z</time>
      </trkpt>
      <trkpt lat="43.17983" lon="6.60284">
        <ele>17.7</ele>
        <time>2013-12-01T09:08:47Z</time>
      </trkpt>
      <trkpt lat="43.17982" lon="6.60284">
        <ele>18</ele>
        <time>2013-12-01T09:08:48Z</time>
      </trkpt>
      <trkpt lat="43.17966" lon="6.60285">
        <ele>18.2</ele>
        <time>2013-12-01T09:09:01Z</time>
      </trkpt>
      <trkpt lat="43.17958" lon="6.60284">
        <ele>18.5</ele>
        <time>2013-12-01T09:09:09Z</time>
      </trkpt>
      <trkpt lat="43.17949" lon="6.60283">
        <ele>18.1</ele>
        <time>2013-12-01T09:09:19Z</time>
      </trkpt>
      <trkpt lat="43.1794" lon="6.60286">
        <ele>18.8</ele>
        <time>2013-12-01T09:09:29Z</time>
      </trkpt>
      <trkpt lat="43.17933" lon="6.60287">
        <ele>19.1</ele>
        <time>2013-12-01T09:09:35Z</time>
      </trkpt>
      <trkpt lat="43.17925" lon="6.60289">
        <ele>19.4</ele>
        <time>2013-12-01T09:09:41Z</time>
      </trkpt>
      <trkpt lat="43.17918" lon="6.60296">
        <ele>19.3</ele>
        <time>2013-12-01T09:10:03Z</time>
      </trkpt>
      <trkpt lat="43.17918" lon="6.60296">
        <ele>19.2</ele>
        <time>2013-12-01T09:10:04Z</time>
      </trkpt>
      <trkpt lat="43.17901" lon="6.60297">
        <ele>18.7</ele>
        <time>2013-12-01T09:10:19Z</time>
      </trkpt>
      <trkpt lat="43.17895" lon="6.60305">
        <ele>19.8</ele>
        <time>2013-12-01T09:10:28Z</time>
      </trkpt>
      <trkpt lat="43.1789" lon="6.60314">
        <ele>20.4</ele>
        <time>2013-12-01T09:10:37Z</time>
      </trkpt>
      <trkpt lat="43.17883" lon="6.60322">
        <ele>22.3</ele>
        <time>2013-12-01T09:10:50Z</time>
      </trkpt>
      <trkpt lat="43.17875" lon="6.60328">
        <ele>23.3</ele>
        <time>2013-12-01T09:11:01Z</time>
      </trkpt>
      <trkpt lat="43.17868" lon="6.60333">
        <ele>23.8</ele>
        <time>2013-12-01T09:11:14Z</time>
      </trkpt>
      <trkpt lat="43.17867" lon="6.60333">
        <ele>23.8</ele>
        <time>2013-12-01T09:11:15Z</time>
      </trkpt>
      <trkpt lat="43.17854" lon="6.60347">
        <ele>24.7</ele>
        <time>2013-12-01T09:11:34Z</time>
      </trkpt>
      <trkpt lat="43.17848" lon="6.60357">
        <ele>23.6</ele>
        <time>2013-12-01T09:11:49Z</time>
      </trkpt>
      <trkpt lat="43.17842" lon="6.60364">
        <ele>23.1</ele>
        <time>2013-12-01T09:11:58Z</time>
      </trkpt>
      <trkpt lat="43.17836" lon="6.60373">
        <ele>22.2</ele>
        <time>2013-12-01T09:12:09Z</time>
      </trkpt>
      <trkpt lat="43.17828" lon="6.60373">
        <ele>22.2</ele>
        <time>2013-12-01T09:12:20Z</time>
      </trkpt>
      <trkpt lat="43.17827" lon="6.60374">
        <ele>22.2</ele>
        <time>2013-12-01T09:12:21Z</time>
      </trkpt>
      <trkpt lat="43.17811" lon="6.60375">
        <ele>20.1</ele>
        <time>2013-12-01T09:12:43Z</time>
      </trkpt>
      <trkpt lat="43.17802" lon="6.60377">
        <ele>19.6</ele>
        <time>2013-12-01T09:12:52Z</time>
      </trkpt>
      <trkpt lat="43.17794" lon="6.60379">
        <ele>19.2</ele>
        <time>2013-12-01T09:13:02Z</time>
      </trkpt>
      <trkpt lat="43.17786" lon="6.60383">
        <ele>18.1</ele>
        <time>2013-12-01T09:13:09Z</time>
      </trkpt>
      <trkpt lat="43.17778" lon="6.60389">
        <ele>18.3</ele>
        <time>2013-12-01T09:13:17Z</time>
      </trkpt>
      <trkpt lat="43.1777" lon="6.6039">
        <ele>17.7</ele>
        <time>2013-12-01T09:13:26Z</time>
      </trkpt>
      <trkpt lat="43.17769" lon="6.60391">
        <ele>17.6</ele>
        <time>2013-12-01T09:13:27Z</time>
      </trkpt>
      <trkpt lat="43.17755" lon="6.604">
        <ele>16.2</ele>
        <time>2013-12-01T09:13:44Z</time>
      </trkpt>
      <trkpt lat="43.1775" lon="6.60409">
        <ele>16.5</ele>
        <time>2013-12-01T09:13:51Z</time>
      </trkpt>
      <trkpt lat="43.17744" lon="6.60417">
        <ele>16.8</ele>
        <time>2013-12-01T09:13:58Z</time>
      </trkpt>
      <trkpt lat="43.17736" lon="6.6042">
        <ele>17.9</ele>
        <time>2013-12-01T09:14:10Z</time>
      </trkpt>
      <trkpt lat="43.17729" lon="6.60413">
        <ele>16.9</ele>
        <time>2013-12-01T09:14:21Z</time>
      </trkpt>
      <trkpt lat="43.17722" lon="6.60409">
        <ele>16.5</ele>
        <time>2013-12-01T09:14:29Z</time>
      </trkpt>
      <trkpt lat="43.17721" lon="6.60409">
        <ele>16.5</ele>
        <time>2013-12-01T09:14:30Z</time>
      </trkpt>
      <trkpt lat="43.17707" lon="6.60408">
        <ele>15.6</ele>
        <time>2013-12-01T09:14:43Z</time>
      </trkpt>
      <trkpt lat="43.17698" lon="6.6041">
        <ele>15.3</ele>
        <time>2013-12-01T09:14:50Z</time>
      </trkpt>
      <trkpt lat="43.1769" lon="6.60414">
        <ele>14.5</ele>
        <time>2013-12-01T09:15:00Z</time>
      </trkpt>
      <trkpt lat="43.17685" lon="6.60423">
        <ele>14.3</ele>
        <time>2013-12-01T09:15:09Z</time>
      </trkpt>
      <trkpt lat="43.17681" lon="6.60434">
        <ele>13.7</ele>
        <time>2013-12-01T09:15:20Z</time>
      </trkpt>
      <trkpt lat="43.17674" lon="6.60442">
        <ele>11.9</ele>
        <time>2013-12-01T09:15:35Z</time>
      </trkpt>
      <trkpt lat="43.17674" lon="6.60442">
        <ele>11.8</ele>
        <time>2013-12-01T09:15:36Z</time>
      </trkpt>
      <trkpt lat="43.17661" lon="6.60453">
        <ele>7.4</ele>
        <time>2013-12-01T09:16:20Z</time>
      </trkpt>
      <trkpt lat="43.17653" lon="6.60452">
        <ele>7.8</ele>
        <time>2013-12-01T09:19:36Z</time>
      </trkpt>
      <trkpt lat="43.17651" lon="6.60452">
        <ele>7.5</ele>
        <time>2013-12-01T09:19:37Z</time>
      </trkpt>
      <trkpt lat="43.17637" lon="6.60445">
        <ele>9.5</ele>
        <time>2013-12-01T09:20:06Z</time>
      </trkpt>
      <trkpt lat="43.17628" lon="6.60445">
        <ele>10</ele>
        <time>2013-12-01T09:20:15Z</time>
      </trkpt>
      <trkpt lat="43.17621" lon="6.60445">
        <ele>10.1</ele>
        <time>2013-12-01T09:20:21Z</time>
      </trkpt>
      <trkpt lat="43.17612" lon="6.60448">
        <ele>10.4</ele>
        <time>2013-12-01T09:20:31Z</time>
      </trkpt>
      <trkpt lat="43.17605" lon="6.6045">
        <ele>11.9</ele>
        <time>2013-12-01T09:20:45Z</time>
      </trkpt>
      <trkpt lat="43.17603" lon="6.6045">
        <ele>12.3</ele>
        <time>2013-12-01T09:20:46Z</time>
      </trkpt>
      <trkpt lat="43.17588" lon="6.6045">
        <ele>11</ele>
        <time>2013-12-01T09:21:11Z</time>
      </trkpt>
      <trkpt lat="43.17579" lon="6.60451">
        <ele>10</ele>
        <time>2013-12-01T09:21:23Z</time>
      </trkpt>
      <trkpt lat="43.1757" lon="6.60452">
        <ele>10</ele>
        <time>2013-12-01T09:21:35Z</time>
      </trkpt>
      <trkpt lat="43.17562" lon="6.60454">
        <ele>10.6</ele>
        <time>2013-12-01T09:21:48Z</time>
      </trkpt>
      <trkpt lat="43.17561" lon="6.60455">
        <ele>10.4</ele>
        <time>2013-12-01T09:21:49Z</time>
      </trkpt>
      <trkpt lat="43.1755" lon="6.60469">
        <ele>8.6</ele>
        <time>2013-12-01T09:22:28Z</time>
      </trkpt>
      <trkpt lat="43.17542" lon="6.60466">
        <ele>8.3</ele>
        <time>2013-12-01T09:22:36Z</time>
      </trkpt>
      <trkpt lat="43.17538" lon="6.60455">
        <ele>8.3</ele>
        <time>2013-12-01T09:22:45Z</time>
      </trkpt>
      <trkpt lat="43.17532" lon="6.60446">
        <ele>6.7</ele>
        <time>2013-12-01T09:22:58Z</time>
      </trkpt>
      <trkpt lat="43.17532" lon="6.60445">
        <ele>6.7</ele>
        <time>2013-12-01T09:22:59Z</time>
      </trkpt>
      <trkpt lat="43.17521" lon="6.6043">
        <ele>9</ele>
        <time>2013-12-01T09:23:19Z</time>
      </trkpt>
      <trkpt lat="43.17513" lon="6.60425">
        <ele>9.6</ele>
        <time>2013-12-01T09:23:29Z</time>
      </trkpt>
      <trkpt lat="43.17506" lon="6.60418">
        <ele>9.6</ele>
        <time>2013-12-01T09:23:39Z</time>
      </trkpt>
      <trkpt lat="43.17501" lon="6.60408">
        <ele>7.8</ele>
        <time>2013-12-01T09:23:51Z</time>
      </trkpt>
      <trkpt lat="43.17501" lon="6.60397">
        <ele>7</ele>
        <time>2013-12-01T09:23:59Z</time>
      </trkpt>
      <trkpt lat="43.175" lon="6.60395">
        <ele>7.2</ele>
        <time>2013-12-01T09:24:00Z</time>
      </trkpt>
      <trkpt lat="43.17495" lon="6.60374">
        <ele>6.7</ele>
        <time>2013-12-01T09:24:23Z</time>
      </trkpt>
      <trkpt lat="43.17493" lon="6.60362">
        <ele>7.7</ele>
        <time>2013-12-01T09:24:31Z</time>
      </trkpt>
      <trkpt lat="43.17491" lon="6.6035">
        <ele>7.5</ele>
        <time>2013-12-01T09:24:41Z</time>
      </trkpt>
      <trkpt lat="43.17486" lon="6.60341">
        <ele>7.7</ele>
        <time>2013-12-01T09:24:49Z</time>
      </trkpt>
      <trkpt lat="43.17484" lon="6.6033">
        <ele>8.4</ele>
        <time>2013-12-01T09:25:03Z</time>
      </trkpt>
      <trkpt lat="43.17486" lon="6.60329">
        <ele>8.6</ele>
        <time>2013-12-01T09:25:04Z</time>
      </trkpt>
      <trkpt lat="43.17478" lon="6.60307">
        <ele>8.5</ele>
        <time>2013-12-01T09:25:42Z</time>
      </trkpt>
      <trkpt lat="43.1747" lon="6.60305">
        <ele>8.4</ele>
        <time>2013-12-01T09:26:02Z</time>
      </trkpt>
      <trkpt lat="43.17462" lon="6.60301">
        <ele>9.9</ele>
        <time>2013-12-01T09:26:13Z</time>
      </trkpt>
      <trkpt lat="43.17461" lon="6.60301">
        <ele>10.1</ele>
        <time>2013-12-01T09:26:14Z</time>
      </trkpt>
      <trkpt lat="43.17446" lon="6.60306">
        <ele>14</ele>
        <time>2013-12-01T09:26:36Z</time>
      </trkpt>
      <trkpt lat="43.17438" lon="6.60309">
        <ele>16.5</ele>
        <time>2013-12-01T09:26:48Z</time>
      </trkpt>
      <trkpt lat="43.17431" lon="6.60312">
        <ele>17.2</ele>
        <time>2013-12-01T09:26:57Z</time>
      </trkpt>
      <trkpt lat="43.17423" lon="6.60318">
        <ele>17.5</ele>
        <time>2013-12-01T09:27:04Z</time>
      </trkpt>
      <trkpt lat="43.17417" lon="6.60324">
        <ele>17.6</ele>
        <time>2013-12-01T09:27:11Z</time>
      </trkpt>
      <trkpt lat="43.1741" lon="6.60331">
        <ele>18.6</ele>
        <time>2013-12-01T09:27:19Z</time>
      </trkpt>
      <trkpt lat="43.1741" lon="6.60332">
        <ele>18.8</ele>
        <time>2013-12-01T09:27:20Z</time>
      </trkpt>
      <trkpt lat="43.17404" lon="6.60352">
        <ele>16.8</ele>
        <time>2013-12-01T09:27:38Z</time>
      </trkpt>
      <trkpt lat="43.17401" lon="6.60363">
        <ele>16.5</ele>
        <time>2013-12-01T09:27:49Z</time>
      </trkpt>
      <trkpt lat="43.17397" lon="6.60373">
        <ele>17.4</ele>
        <time>2013-12-01T09:27:58Z</time>
      </trkpt>
      <trkpt lat="43.17397" lon="6.60385">
        <ele>16.9</ele>
        <time>2013-12-01T09:28:07Z</time>
      </trkpt>
      <trkpt lat="43.17395" lon="6.60395">
        <ele>17.1</ele>
        <time>2013-12-01T09:28:16Z</time>
      </trkpt>
      <trkpt lat="43.17388" lon="6.60403">
        <ele>19.6</ele>
        <time>2013-12-01T09:28:33Z</time>
      </trkpt>
      <trkpt lat="43.17388" lon="6.60404">
        <ele>19.7</ele>
        <time>2013-12-01T09:28:34Z</time>
      </trkpt>
      <trkpt lat="43.17387" lon="6.60426">
        <ele>20.3</ele>
        <time>2013-12-01T09:29:09Z</time>
      </trkpt>
      <trkpt lat="43.17388" lon="6.60437">
        <ele>16.8</ele>
        <time>2013-12-01T09:31:02Z</time>
      </trkpt>
      <trkpt lat="43.17387" lon="6.60439">
        <ele>16.7</ele>
        <time>2013-12-01T09:31:03Z</time>
      </trkpt>
      <trkpt lat="43.17383" lon="6.6046">
        <ele>12.2</ele>
        <time>2013-12-01T09:31:21Z</time>
      </trkpt>
      <trkpt lat="43.17381" lon="6.6047">
        <ele>11.5</ele>
        <time>2013-12-01T09:31:30Z</time>
      </trkpt>
      <trkpt lat="43.17379" lon="6.60481">
        <ele>11</ele>
        <time>2013-12-01T09:31:35Z</time>
      </trkpt>
      <trkpt lat="43.17383" lon="6.60491">
        <ele>11.7</ele>
        <time>2013-12-01T09:31:42Z</time>
      </trkpt>
      <trkpt lat="43.17385" lon="6.60502">
        <ele>13.1</ele>
        <time>2013-12-01T09:31:49Z</time>
      </trkpt>
      <trkpt lat="43.17381" lon="6.60512">
        <ele>12.2</ele>
        <time>2013-12-01T09:32:03Z</time>
      </trkpt>
      <trkpt lat="43.17381" lon="6.60513">
        <ele>12.1</ele>
        <time>2013-12-01T09:32:04Z</time>
      </trkpt>
      <trkpt lat="43.17375" lon="6.60534">
        <ele>12.3</ele>
        <time>2013-12-01T09:32:16Z</time>
      </trkpt>
      <trkpt lat="43.17371" lon="6.60544">
        <ele>12.7</ele>
        <time>2013-12-01T09:32:28Z</time>
      </trkpt>
      <trkpt lat="43.17368" lon="6.60554">
        <ele>10.8</ele>
        <time>2013-12-01T09:32:40Z</time>
      </trkpt>
      <trkpt lat="43.17367" lon="6.60565">
        <ele>10.3</ele>
        <time>2013-12-01T09:32:47Z</time>
      </trkpt>
      <trkpt lat="43.17365" lon="6.60577">
        <ele>10.1</ele>
        <time>2013-12-01T09:32:58Z</time>
      </trkpt>
      <trkpt lat="43.17365" lon="6.60589">
        <ele>9.8</ele>
        <time>2013-12-01T09:33:11Z</time>
      </trkpt>
      <trkpt lat="43.17366" lon="6.60591">
        <ele>9.5</ele>
        <time>2013-12-01T09:33:12Z</time>
      </trkpt>
      <trkpt lat="43.17372" lon="6.6061">
        <ele>13.7</ele>
        <time>2013-12-01T09:33:45Z</time>
      </trkpt>
      <trkpt lat="43.17373" lon="6.60622">
        <ele>19.5</ele>
        <time>2013-12-01T09:34:30Z</time>
      </trkpt>
      <trkpt lat="43.17373" lon="6.60623">
        <ele>19.3</ele>
        <time>2013-12-01T09:34:31Z</time>
      </trkpt>
      <trkpt lat="43.17367" lon="6.60633">
        <ele>13.5</ele>
        <time>2013-12-01T09:35:34Z</time>
      </trkpt>
      <trkpt lat="43.1736" lon="6.60649">
        <ele>12.9</ele>
        <time>2013-12-01T09:35:48Z</time>
      </trkpt>
      <trkpt lat="43.17361" lon="6.60661">
        <ele>12.8</ele>
        <time>2013-12-01T09:35:59Z</time>
      </trkpt>
      <trkpt lat="43.17357" lon="6.60672">
        <ele>10.9</ele>
        <time>2013-12-01T09:36:05Z</time>
      </trkpt>
      <trkpt lat="43.17356" lon="6.60682">
        <ele>10.9</ele>
        <time>2013-12-01T09:36:08Z</time>
      </trkpt>
      <trkpt lat="43.17356" lon="6.60693">
        <ele>11</ele>
        <time>2013-12-01T09:36:14Z</time>
      </trkpt>
      <trkpt lat="43.17354" lon="6.60704">
        <ele>10.6</ele>
        <time>2013-12-01T09:36:25Z</time>
      </trkpt>
      <trkpt lat="43.17352" lon="6.60715">
        <ele>10.8</ele>
        <time>2013-12-01T09:36:32Z</time>
      </trkpt>
      <trkpt lat="43.17347" lon="6.60725">
        <ele>10.6</ele>
        <time>2013-12-01T09:36:40Z</time>
      </trkpt>
      <trkpt lat="43.17346" lon="6.60726">
        <ele>10.4</ele>
        <time>2013-12-01T09:36:41Z</time>
      </trkpt>
      <trkpt lat="43.17339" lon="6.60745">
        <ele>10.2</ele>
        <time>2013-12-01T09:36:57Z</time>
      </trkpt>
      <trkpt lat="43.17333" lon="6.60753">
        <ele>8.6</ele>
        <time>2013-12-01T09:37:06Z</time>
      </trkpt>
      <trkpt lat="43.17333" lon="6.60765">
        <ele>5.7</ele>
        <time>2013-12-01T09:41:10Z</time>
      </trkpt>
      <trkpt lat="43.17333" lon="6.60765">
        <ele>5.9</ele>
        <time>2013-12-01T09:41:11Z</time>
      </trkpt>
      <trkpt lat="43.17329" lon="6.60776">
        <ele>8.6</ele>
        <time>2013-12-01T09:43:00Z</time>
      </trkpt>
      <trkpt lat="43.17324" lon="6.60798">
        <ele>11.8</ele>
        <time>2013-12-01T09:43:25Z</time>
      </trkpt>
      <trkpt lat="43.17317" lon="6.60805">
        <ele>10</ele>
        <time>2013-12-01T09:43:39Z</time>
      </trkpt>
      <trkpt lat="43.17309" lon="6.60809">
        <ele>9.5</ele>
        <time>2013-12-01T09:43:51Z</time>
      </trkpt>
      <trkpt lat="43.17305" lon="6.60819">
        <ele>8.4</ele>
        <time>2013-12-01T09:43:59Z</time>
      </trkpt>
      <trkpt lat="43.17301" lon="6.60829">
        <ele>8.9</ele>
        <time>2013-12-01T09:44:09Z</time>
      </trkpt>
      <trkpt lat="43.173" lon="6.6083">
        <ele>8.8</ele>
        <time>2013-12-01T09:44:10Z</time>
      </trkpt>
      <trkpt lat="43.17287" lon="6.60838">
        <ele>7.2</ele>
        <time>2013-12-01T09:44:33Z</time>
      </trkpt>
      <trkpt lat="43.17279" lon="6.6084">
        <ele>7.1</ele>
        <time>2013-12-01T09:44:41Z</time>
      </trkpt>
      <trkpt lat="43.17271" lon="6.60843">
        <ele>5.8</ele>
        <time>2013-12-01T09:44:49Z</time>
      </trkpt>
      <trkpt lat="43.17263" lon="6.60848">
        <ele>5.7</ele>
        <time>2013-12-01T09:44:59Z</time>
      </trkpt>
      <trkpt lat="43.17255" lon="6.60852">
        <ele>5.8</ele>
        <time>2013-12-01T09:45:10Z</time>
      </trkpt>
      <trkpt lat="43.17254" lon="6.60852">
        <ele>6</ele>
        <time>2013-12-01T09:45:11Z</time>
      </trkpt>
      <trkpt lat="43.17238" lon="6.60857">
        <ele>6</ele>
        <time>2013-12-01T09:45:31Z</time>
      </trkpt>
      <trkpt lat="43.1723" lon="6.60862">
        <ele>5.2</ele>
        <time>2013-12-01T09:45:42Z</time>
      </trkpt>
      <trkpt lat="43.17225" lon="6.60871">
        <ele>6.4</ele>
        <time>2013-12-01T09:46:00Z</time>
      </trkpt>
      <trkpt lat="43.17216" lon="6.60873">
        <ele>7.4</ele>
        <time>2013-12-01T09:46:13Z</time>
      </trkpt>
      <trkpt lat="43.17215" lon="6.60873">
        <ele>7.6</ele>
        <time>2013-12-01T09:46:14Z</time>
      </trkpt>
      <trkpt lat="43.17199" lon="6.60874">
        <ele>8.3</ele>
        <time>2013-12-01T09:46:35Z</time>
      </trkpt>
      <trkpt lat="43.1719" lon="6.60875">
        <ele>7.9</ele>
        <time>2013-12-01T09:46:49Z</time>
      </trkpt>
      <trkpt lat="43.17182" lon="6.60873">
        <ele>7.6</ele>
        <time>2013-12-01T09:46:58Z</time>
      </trkpt>
      <trkpt lat="43.17173" lon="6.60871">
        <ele>8.3</ele>
        <time>2013-12-01T09:47:08Z</time>
      </trkpt>
      <trkpt lat="43.17169" lon="6.60861">
        <ele>8.8</ele>
        <time>2013-12-01T09:47:27Z</time>
      </trkpt>
      <trkpt lat="43.17168" lon="6.6086">
        <ele>8.9</ele>
        <time>2013-12-01T09:47:28Z</time>
      </trkpt>
      <trkpt lat="43.17156" lon="6.60847">
        <ele>10.4</ele>
        <time>2013-12-01T09:47:47Z</time>
      </trkpt>
      <trkpt lat="43.17148" lon="6.60842">
        <ele>11.9</ele>
        <time>2013-12-01T09:47:57Z</time>
      </trkpt>
      <trkpt lat="43.1714" lon="6.6084">
        <ele>14.2</ele>
        <time>2013-12-01T09:48:10Z</time>
      </trkpt>
      <trkpt lat="43.17132" lon="6.60846">
        <ele>17.3</ele>
        <time>2013-12-01T09:48:29Z</time>
      </trkpt>
      <trkpt lat="43.17131" lon="6.60847">
        <ele>17.4</ele>
        <time>2013-12-01T09:48:30Z</time>
      </trkpt>
      <trkpt lat="43.17114" lon="6.60852">
        <ele>23.8</ele>
        <time>2013-12-01T09:49:08Z</time>
      </trkpt>
      <trkpt lat="43.17106" lon="6.60855">
        <ele>29.3</ele>
        <time>2013-12-01T09:49:49Z</time>
      </trkpt>
      <trkpt lat="43.17105" lon="6.60856">
        <ele>29.5</ele>
        <time>2013-12-01T09:49:50Z</time>
      </trkpt>
      <trkpt lat="43.1709" lon="6.60862">
        <ele>35.1</ele>
        <time>2013-12-01T09:50:27Z</time>
      </trkpt>
      <trkpt lat="43.17082" lon="6.60863">
        <ele>36.7</ele>
        <time>2013-12-01T09:50:35Z</time>
      </trkpt>
      <trkpt lat="43.17074" lon="6.60867">
        <ele>38.7</ele>
        <time>2013-12-01T09:50:49Z</time>
      </trkpt>
      <trkpt lat="43.17068" lon="6.60875">
        <ele>43.3</ele>
        <time>2013-12-01T09:51:22Z</time>
      </trkpt>
      <trkpt lat="43.17068" lon="6.60875">
        <ele>43.3</ele>
        <time>2013-12-01T09:51:23Z</time>
      </trkpt>
      <trkpt lat="43.17053" lon="6.60886">
        <ele>46.5</ele>
        <time>2013-12-01T09:52:11Z</time>
      </trkpt>
      <trkpt lat="43.17046" lon="6.60892">
        <ele>48.2</ele>
        <time>2013-12-01T09:52:21Z</time>
      </trkpt>
      <trkpt lat="43.1704" lon="6.609">
        <ele>48.7</ele>
        <time>2013-12-01T09:52:30Z</time>
      </trkpt>
      <trkpt lat="43.17039" lon="6.60901">
        <ele>48.8</ele>
        <time>2013-12-01T09:52:31Z</time>
      </trkpt>
      <trkpt lat="43.17029" lon="6.60919">
        <ele>51.2</ele>
        <time>2013-12-01T09:52:51Z</time>
      </trkpt>
      <trkpt lat="43.17026" lon="6.60931">
        <ele>52.7</ele>
        <time>2013-12-01T09:53:00Z</time>
      </trkpt>
      <trkpt lat="43.17019" lon="6.60939">
        <ele>54.1</ele>
        <time>2013-12-01T09:53:12Z</time>
      </trkpt>
      <trkpt lat="43.17011" lon="6.60941">
        <ele>54.7</ele>
        <time>2013-12-01T09:53:26Z</time>
      </trkpt>
      <trkpt lat="43.17004" lon="6.60947">
        <ele>56.7</ele>
        <time>2013-12-01T09:53:39Z</time>
      </trkpt>
      <trkpt lat="43.17004" lon="6.60948">
        <ele>56.8</ele>
        <time>2013-12-01T09:53:40Z</time>
      </trkpt>
      <trkpt lat="43.16994" lon="6.60964">
        <ele>57.2</ele>
        <time>2013-12-01T09:53:56Z</time>
      </trkpt>
      <trkpt lat="43.16988" lon="6.60971">
        <ele>58</ele>
        <time>2013-12-01T09:54:04Z</time>
      </trkpt>
      <trkpt lat="43.16981" lon="6.60975">
        <ele>57.7</ele>
        <time>2013-12-01T09:54:09Z</time>
      </trkpt>
      <trkpt lat="43.16973" lon="6.6098">
        <ele>59.6</ele>
        <time>2013-12-01T09:54:23Z</time>
      </trkpt>
      <trkpt lat="43.16964" lon="6.60984">
        <ele>60.6</ele>
        <time>2013-12-01T09:54:31Z</time>
      </trkpt>
      <trkpt lat="43.16961" lon="6.60994">
        <ele>61.2</ele>
        <time>2013-12-01T09:54:40Z</time>
      </trkpt>
      <trkpt lat="43.16961" lon="6.60995">
        <ele>61.4</ele>
        <time>2013-12-01T09:54:41Z</time>
      </trkpt>
      <trkpt lat="43.16946" lon="6.61005">
        <ele>63.8</ele>
        <time>2013-12-01T09:55:03Z</time>
      </trkpt>
      <trkpt lat="43.16944" lon="6.61017">
        <ele>68.1</ele>
        <time>2013-12-01T09:55:28Z</time>
      </trkpt>
      <trkpt lat="43.16942" lon="6.61029">
        <ele>71.6</ele>
        <time>2013-12-01T09:55:52Z</time>
      </trkpt>
      <trkpt lat="43.16942" lon="6.6103">
        <ele>71.9</ele>
        <time>2013-12-01T09:55:53Z</time>
      </trkpt>
      <trkpt lat="43.16934" lon="6.61049">
        <ele>74.4</ele>
        <time>2013-12-01T09:56:52Z</time>
      </trkpt>
      <trkpt lat="43.16931" lon="6.6106">
        <ele>77.1</ele>
        <time>2013-12-01T09:57:26Z</time>
      </trkpt>
      <trkpt lat="43.16931" lon="6.61061">
        <ele>77.3</ele>
        <time>2013-12-01T09:57:27Z</time>
      </trkpt>
      <trkpt lat="43.16923" lon="6.61082">
        <ele>84.4</ele>
        <time>2013-12-01T09:58:18Z</time>
      </trkpt>
      <trkpt lat="43.16924" lon="6.61093">
        <ele>88.3</ele>
        <time>2013-12-01T09:59:11Z</time>
      </trkpt>
      <trkpt lat="43.16924" lon="6.61094">
        <ele>88.7</ele>
        <time>2013-12-01T09:59:12Z</time>
      </trkpt>
      <trkpt lat="43.16928" lon="6.61116">
        <ele>95.4</ele>
        <time>2013-12-01T09:59:51Z</time>
      </trkpt>
      <trkpt lat="43.16929" lon="6.61128">
        <ele>98.8</ele>
        <time>2013-12-01T10:00:11Z</time>
      </trkpt>
      <trkpt lat="43.16932" lon="6.61138">
        <ele>101.1</ele>
        <time>2013-12-01T10:00:28Z</time>
      </trkpt>
      <trkpt lat="43.16932" lon="6.6114">
        <ele>101.1</ele>
        <time>2013-12-01T10:00:29Z</time>
      </trkpt>
      <trkpt lat="43.16941" lon="6.61159">
        <ele>104.7</ele>
        <time>2013-12-01T10:00:54Z</time>
      </trkpt>
      <trkpt lat="43.16946" lon="6.61169">
        <ele>105.8</ele>
        <time>2013-12-01T10:01:26Z</time>
      </trkpt>
      <trkpt lat="43.16943" lon="6.61177">
        <ele>106.7</ele>
        <time>2013-12-01T10:04:47Z</time>
      </trkpt>
      <trkpt lat="43.16942" lon="6.61179">
        <ele>106.4</ele>
        <time>2013-12-01T10:04:48Z</time>
      </trkpt>
      <trkpt lat="43.16931" lon="6.61192">
        <ele>104.3</ele>
        <time>2013-12-01T10:05:00Z</time>
      </trkpt>
      <trkpt lat="43.16925" lon="6.612">
        <ele>103.5</ele>
        <time>2013-12-01T10:05:08Z</time>
      </trkpt>
      <trkpt lat="43.16918" lon="6.61209">
        <ele>103.5</ele>
        <time>2013-12-01T10:05:19Z</time>
      </trkpt>
      <trkpt lat="43.16915" lon="6.61219">
        <ele>104.3</ele>
        <time>2013-12-01T10:05:26Z</time>
      </trkpt>
      <trkpt lat="43.1691" lon="6.61229">
        <ele>104.5</ele>
        <time>2013-12-01T10:05:33Z</time>
      </trkpt>
      <trkpt lat="43.16908" lon="6.61239">
        <ele>104</ele>
        <time>2013-12-01T10:05:39Z</time>
      </trkpt>
      <trkpt lat="43.16906" lon="6.61251">
        <ele>103.3</ele>
        <time>2013-12-01T10:05:47Z</time>
      </trkpt>
      <trkpt lat="43.16902" lon="6.61261">
        <ele>103.2</ele>
        <time>2013-12-01T10:05:54Z</time>
      </trkpt>
      <trkpt lat="43.16901" lon="6.61262">
        <ele>103.3</ele>
        <time>2013-12-01T10:05:55Z</time>
      </trkpt>
      <trkpt lat="43.16887" lon="6.61274">
        <ele>102.6</ele>
        <time>2013-12-01T10:06:12Z</time>
      </trkpt>
      <trkpt lat="43.16881" lon="6.61281">
        <ele>101.5</ele>
        <time>2013-12-01T10:06:21Z</time>
      </trkpt>
      <trkpt lat="43.16875" lon="6.61289">
        <ele>101.3</ele>
        <time>2013-12-01T10:06:28Z</time>
      </trkpt>
      <trkpt lat="43.16868" lon="6.61296">
        <ele>101.6</ele>
        <time>2013-12-01T10:06:36Z</time>
      </trkpt>
      <trkpt lat="43.16863" lon="6.61305">
        <ele>102.4</ele>
        <time>2013-12-01T10:06:43Z</time>
      </trkpt>
      <trkpt lat="43.16857" lon="6.61313">
        <ele>103</ele>
        <time>2013-12-01T10:06:50Z</time>
      </trkpt>
      <trkpt lat="43.16851" lon="6.61322">
        <ele>103.6</ele>
        <time>2013-12-01T10:06:57Z</time>
      </trkpt>
      <trkpt lat="43.1685" lon="6.61322">
        <ele>103.8</ele>
        <time>2013-12-01T10:06:58Z</time>
      </trkpt>
      <trkpt lat="43.16836" lon="6.61334">
        <ele>103.2</ele>
        <time>2013-12-01T10:07:21Z</time>
      </trkpt>
      <trkpt lat="43.16829" lon="6.61339">
        <ele>103.7</ele>
        <time>2013-12-01T10:07:30Z</time>
      </trkpt>
      <trkpt lat="43.16822" lon="6.61347">
        <ele>103.9</ele>
        <time>2013-12-01T10:07:39Z</time>
      </trkpt>
      <trkpt lat="43.16816" lon="6.61353">
        <ele>103.6</ele>
        <time>2013-12-01T10:07:46Z</time>
      </trkpt>
      <trkpt lat="43.1681" lon="6.61361">
        <ele>103.6</ele>
        <time>2013-12-01T10:07:53Z</time>
      </trkpt>
      <trkpt lat="43.16802" lon="6.61366">
        <ele>103.4</ele>
        <time>2013-12-01T10:08:02Z</time>
      </trkpt>
      <trkpt lat="43.16801" lon="6.61367">
        <ele>103.1</ele>
        <time>2013-12-01T10:08:03Z</time>
      </trkpt>
      <trkpt lat="43.1679" lon="6.61384">
        <ele>103</ele>
        <time>2013-12-01T10:08:18Z</time>
      </trkpt>
      <trkpt lat="43.16787" lon="6.61395">
        <ele>102.9</ele>
        <time>2013-12-01T10:08:25Z</time>
      </trkpt>
      <trkpt lat="43.16783" lon="6.61405">
        <ele>103.4</ele>
        <time>2013-12-01T10:08:32Z</time>
      </trkpt>
      <trkpt lat="43.1678" lon="6.61416">
        <ele>103.5</ele>
        <time>2013-12-01T10:08:41Z</time>
      </trkpt>
      <trkpt lat="43.16775" lon="6.61426">
        <ele>104.1</ele>
        <time>2013-12-01T10:08:51Z</time>
      </trkpt>
      <trkpt lat="43.16771" lon="6.61435">
        <ele>103.3</ele>
        <time>2013-12-01T10:09:00Z</time>
      </trkpt>
      <trkpt lat="43.16767" lon="6.61445">
        <ele>102.5</ele>
        <time>2013-12-01T10:09:08Z</time>
      </trkpt>
      <trkpt lat="43.16766" lon="6.61446">
        <ele>102.7</ele>
        <time>2013-12-01T10:09:09Z</time>
      </trkpt>
      <trkpt lat="43.16763" lon="6.61467">
        <ele>103.1</ele>
        <time>2013-12-01T10:09:24Z</time>
      </trkpt>
      <trkpt lat="43.16758" lon="6.61478">
        <ele>103.4</ele>
        <time>2013-12-01T10:09:34Z</time>
      </trkpt>
      <trkpt lat="43.16755" lon="6.61489">
        <ele>103.9</ele>
        <time>2013-12-01T10:09:43Z</time>
      </trkpt>
      <trkpt lat="43.16752" lon="6.615">
        <ele>105.3</ele>
        <time>2013-12-01T10:09:54Z</time>
      </trkpt>
      <trkpt lat="43.16749" lon="6.61511">
        <ele>105.6</ele>
        <time>2013-12-01T10:10:02Z</time>
      </trkpt>
      <trkpt lat="43.16749" lon="6.61523">
        <ele>106.7</ele>
        <time>2013-12-01T10:10:12Z</time>
      </trkpt>
      <trkpt lat="43.16749" lon="6.61523">
        <ele>106.7</ele>
        <time>2013-12-01T10:10:13Z</time>
      </trkpt>
      <trkpt lat="43.16746" lon="6.61544">
        <ele>107.4</ele>
        <time>2013-12-01T10:10:34Z</time>
      </trkpt>
      <trkpt lat="43.16739" lon="6.61552">
        <ele>106.5</ele>
        <time>2013-12-01T10:10:44Z</time>
      </trkpt>
      <trkpt lat="43.16736" lon="6.61563">
        <ele>106.9</ele>
        <time>2013-12-01T10:11:03Z</time>
      </trkpt>
      <trkpt lat="43.16734" lon="6.61575">
        <ele>108.1</ele>
        <time>2013-12-01T10:11:21Z</time>
      </trkpt>
      <trkpt lat="43.16733" lon="6.61575">
        <ele>108</ele>
        <time>2013-12-01T10:11:22Z</time>
      </trkpt>
      <trkpt lat="43.16723" lon="6.61593">
        <ele>108.8</ele>
        <time>2013-12-01T10:11:46Z</time>
      </trkpt>
      <trkpt lat="43.16716" lon="6.61598">
        <ele>107.1</ele>
        <time>2013-12-01T10:11:55Z</time>
      </trkpt>
      <trkpt lat="43.1671" lon="6.61607">
        <ele>107</ele>
        <time>2013-12-01T10:12:04Z</time>
      </trkpt>
      <trkpt lat="43.16704" lon="6.61615">
        <ele>105.6</ele>
        <time>2013-12-01T10:12:14Z</time>
      </trkpt>
      <trkpt lat="43.16697" lon="6.61622">
        <ele>105.1</ele>
        <time>2013-12-01T10:12:22Z</time>
      </trkpt>
      <trkpt lat="43.16697" lon="6.61623">
        <ele>105.2</ele>
        <time>2013-12-01T10:12:23Z</time>
      </trkpt>
      <trkpt lat="43.16685" lon="6.61638">
        <ele>105.3</ele>
        <time>2013-12-01T10:12:43Z</time>
      </trkpt>
      <trkpt lat="43.16678" lon="6.61644">
        <ele>104.6</ele>
        <time>2013-12-01T10:12:53Z</time>
      </trkpt>
      <trkpt lat="43.16671" lon="6.61652">
        <ele>103.7</ele>
        <time>2013-12-01T10:13:03Z</time>
      </trkpt>
      <trkpt lat="43.16664" lon="6.61649">
        <ele>103.2</ele>
        <time>2013-12-01T10:13:08Z</time>
      </trkpt>
      <trkpt lat="43.16656" lon="6.61652">
        <ele>103.2</ele>
        <time>2013-12-01T10:13:16Z</time>
      </trkpt>
      <trkpt lat="43.16649" lon="6.61656">
        <ele>103.3</ele>
        <time>2013-12-01T10:13:24Z</time>
      </trkpt>
      <trkpt lat="43.16648" lon="6.61657">
        <ele>103.3</ele>
        <time>2013-12-01T10:13:25Z</time>
      </trkpt>
      <trkpt lat="43.16635" lon="6.61668">
        <ele>104.7</ele>
        <time>2013-12-01T10:13:40Z</time>
      </trkpt>
      <trkpt lat="43.16629" lon="6.61676">
        <ele>105.7</ele>
        <time>2013-12-01T10:13:47Z</time>
      </trkpt>
      <trkpt lat="43.16623" lon="6.61684">
        <ele>105.7</ele>
        <time>2013-12-01T10:13:55Z</time>
      </trkpt>
      <trkpt lat="43.16618" lon="6.61692">
        <ele>104.3</ele>
        <time>2013-12-01T10:14:04Z</time>
      </trkpt>
      <trkpt lat="43.16611" lon="6.617">
        <ele>103</ele>
        <time>2013-12-01T10:14:13Z</time>
      </trkpt>
      <trkpt lat="43.16605" lon="6.61708">
        <ele>101.2</ele>
        <time>2013-12-01T10:14:21Z</time>
      </trkpt>
      <trkpt lat="43.16601" lon="6.61719">
        <ele>99.5</ele>
        <time>2013-12-01T10:14:31Z</time>
      </trkpt>
      <trkpt lat="43.166" lon="6.61719">
        <ele>99.1</ele>
        <time>2013-12-01T10:14:32Z</time>
      </trkpt>
      <trkpt lat="43.16589" lon="6.61734">
        <ele>95.8</ele>
        <time>2013-12-01T10:14:48Z</time>
      </trkpt>
      <trkpt lat="43.16585" lon="6.61745">
        <ele>94</ele>
        <time>2013-12-01T10:15:03Z</time>
      </trkpt>
      <trkpt lat="43.16578" lon="6.6175">
        <ele>93.9</ele>
        <time>2013-12-01T10:15:13Z</time>
      </trkpt>
      <trkpt lat="43.16571" lon="6.61756">
        <ele>91.2</ele>
        <time>2013-12-01T10:15:24Z</time>
      </trkpt>
      <trkpt lat="43.16564" lon="6.61763">
        <ele>91.2</ele>
        <time>2013-12-01T10:15:37Z</time>
      </trkpt>
      <trkpt lat="43.16563" lon="6.61765">
        <ele>91.1</ele>
        <time>2013-12-01T10:15:38Z</time>
      </trkpt>
      <trkpt lat="43.16549" lon="6.61775">
        <ele>87.7</ele>
        <time>2013-12-01T10:16:02Z</time>
      </trkpt>
      <trkpt lat="43.1654" lon="6.61776">
        <ele>86.9</ele>
        <time>2013-12-01T10:16:10Z</time>
      </trkpt>
      <trkpt lat="43.16533" lon="6.61783">
        <ele>86.3</ele>
        <time>2013-12-01T10:16:18Z</time>
      </trkpt>
      <trkpt lat="43.16526" lon="6.61789">
        <ele>85.5</ele>
        <time>2013-12-01T10:16:24Z</time>
      </trkpt>
      <trkpt lat="43.16519" lon="6.61796">
        <ele>83.7</ele>
        <time>2013-12-01T10:16:50Z</time>
      </trkpt>
      <trkpt lat="43.16518" lon="6.61797">
        <ele>83.5</ele>
        <time>2013-12-01T10:16:51Z</time>
      </trkpt>
      <trkpt lat="43.16503" lon="6.61805">
        <ele>82</ele>
        <time>2013-12-01T10:17:11Z</time>
      </trkpt>
      <trkpt lat="43.16496" lon="6.61812">
        <ele>81.9</ele>
        <time>2013-12-01T10:17:18Z</time>
      </trkpt>
      <trkpt lat="43.16489" lon="6.61815">
        <ele>81.6</ele>
        <time>2013-12-01T10:17:27Z</time>
      </trkpt>
      <trkpt lat="43.16481" lon="6.61818">
        <ele>82.3</ele>
        <time>2013-12-01T10:17:34Z</time>
      </trkpt>
      <trkpt lat="43.16472" lon="6.6182">
        <ele>82.9</ele>
        <time>2013-12-01T10:17:42Z</time>
      </trkpt>
      <trkpt lat="43.16464" lon="6.61822">
        <ele>82.5</ele>
        <time>2013-12-01T10:17:50Z</time>
      </trkpt>
      <trkpt lat="43.16456" lon="6.61826">
        <ele>82.5</ele>
        <time>2013-12-01T10:17:56Z</time>
      </trkpt>
      <trkpt lat="43.16455" lon="6.61827">
        <ele>82.3</ele>
        <time>2013-12-01T10:17:57Z</time>
      </trkpt>
      <trkpt lat="43.16441" lon="6.61838">
        <ele>81.2</ele>
        <time>2013-12-01T10:18:12Z</time>
      </trkpt>
      <trkpt lat="43.16434" lon="6.61843">
        <ele>80.5</ele>
        <time>2013-12-01T10:18:19Z</time>
      </trkpt>
      <trkpt lat="43.16427" lon="6.6185">
        <ele>80</ele>
        <time>2013-12-01T10:18:26Z</time>
      </trkpt>
      <trkpt lat="43.16419" lon="6.61855">
        <ele>80.1</ele>
        <time>2013-12-01T10:18:35Z</time>
      </trkpt>
      <trkpt lat="43.16412" lon="6.6186">
        <ele>80.3</ele>
        <time>2013-12-01T10:18:43Z</time>
      </trkpt>
      <trkpt lat="43.16404" lon="6.61861">
        <ele>80</ele>
        <time>2013-12-01T10:18:50Z</time>
      </trkpt>
      <trkpt lat="43.16395" lon="6.61862">
        <ele>79.4</ele>
        <time>2013-12-01T10:18:57Z</time>
      </trkpt>
      <trkpt lat="43.16394" lon="6.61862">
        <ele>79.4</ele>
        <time>2013-12-01T10:18:58Z</time>
      </trkpt>
      <trkpt lat="43.16379" lon="6.61869">
        <ele>78</ele>
        <time>2013-12-01T10:19:12Z</time>
      </trkpt>
      <trkpt lat="43.16372" lon="6.61875">
        <ele>77</ele>
        <time>2013-12-01T10:19:19Z</time>
      </trkpt>
      <trkpt lat="43.16363" lon="6.61877">
        <ele>76.3</ele>
        <time>2013-12-01T10:19:26Z</time>
      </trkpt>
      <trkpt lat="43.16355" lon="6.6188">
        <ele>76</ele>
        <time>2013-12-01T10:19:33Z</time>
      </trkpt>
      <trkpt lat="43.16349" lon="6.61888">
        <ele>75.4</ele>
        <time>2013-12-01T10:19:41Z</time>
      </trkpt>
      <trkpt lat="43.16341" lon="6.61892">
        <ele>74.8</ele>
        <time>2013-12-01T10:19:48Z</time>
      </trkpt>
      <trkpt lat="43.16332" lon="6.61895">
        <ele>74.3</ele>
        <time>2013-12-01T10:19:55Z</time>
      </trkpt>
      <trkpt lat="43.16325" lon="6.61898">
        <ele>73.7</ele>
        <time>2013-12-01T10:20:01Z</time>
      </trkpt>
      <trkpt lat="43.16323" lon="6.61898">
        <ele>73.7</ele>
        <time>2013-12-01T10:20:02Z</time>
      </trkpt>
      <trkpt lat="43.16309" lon="6.61899">
        <ele>73.8</ele>
        <time>2013-12-01T10:20:14Z</time>
      </trkpt>
      <trkpt lat="43.163" lon="6.61897">
        <ele>74.7</ele>
        <time>2013-12-01T10:20:22Z</time>
      </trkpt>
      <trkpt lat="43.16293" lon="6.61894">
        <ele>75.5</ele>
        <time>2013-12-01T10:20:28Z</time>
      </trkpt>
      <trkpt lat="43.16284" lon="6.61893">
        <ele>75.4</ele>
        <time>2013-12-01T10:20:36Z</time>
      </trkpt>
      <trkpt lat="43.16278" lon="6.61898">
        <ele>74.6</ele>
        <time>2013-12-01T10:20:43Z</time>
      </trkpt>
      <trkpt lat="43.16272" lon="6.61907">
        <ele>73.2</ele>
        <time>2013-12-01T10:20:52Z</time>
      </trkpt>
      <trkpt lat="43.16264" lon="6.61913">
        <ele>71.3</ele>
        <time>2013-12-01T10:21:01Z</time>
      </trkpt>
      <trkpt lat="43.16257" lon="6.6192">
        <ele>69.8</ele>
        <time>2013-12-01T10:21:09Z</time>
      </trkpt>
      <trkpt lat="43.16257" lon="6.61921">
        <ele>69.7</ele>
        <time>2013-12-01T10:21:10Z</time>
      </trkpt>
      <trkpt lat="43.16244" lon="6.61936">
        <ele>69.5</ele>
        <time>2013-12-01T10:21:26Z</time>
      </trkpt>
      <trkpt lat="43.16237" lon="6.61944">
        <ele>69.9</ele>
        <time>2013-12-01T10:22:05Z</time>
      </trkpt>
      <trkpt lat="43.16229" lon="6.61945">
        <ele>72.2</ele>
        <time>2013-12-01T10:24:09Z</time>
      </trkpt>
      <trkpt lat="43.16228" lon="6.61944">
        <ele>72.3</ele>
        <time>2013-12-01T10:24:10Z</time>
      </trkpt>
      <trkpt lat="43.16211" lon="6.61943">
        <ele>75.1</ele>
        <time>2013-12-01T10:24:35Z</time>
      </trkpt>
      <trkpt lat="43.16203" lon="6.61947">
        <ele>75.7</ele>
        <time>2013-12-01T10:24:49Z</time>
      </trkpt>
      <trkpt lat="43.16195" lon="6.61948">
        <ele>76.3</ele>
        <time>2013-12-01T10:24:56Z</time>
      </trkpt>
      <trkpt lat="43.16186" lon="6.61946">
        <ele>76.9</ele>
        <time>2013-12-01T10:25:03Z</time>
      </trkpt>
      <trkpt lat="43.16179" lon="6.61944">
        <ele>78.1</ele>
        <time>2013-12-01T10:25:10Z</time>
      </trkpt>
      <trkpt lat="43.16177" lon="6.61943">
        <ele>77.9</ele>
        <time>2013-12-01T10:25:11Z</time>
      </trkpt>
      <trkpt lat="43.16163" lon="6.61938">
        <ele>78.1</ele>
        <time>2013-12-01T10:25:23Z</time>
      </trkpt>
      <trkpt lat="43.16154" lon="6.61936">
        <ele>79</ele>
        <time>2013-12-01T10:25:31Z</time>
      </trkpt>
      <trkpt lat="43.16146" lon="6.61941">
        <ele>79.5</ele>
        <time>2013-12-01T10:25:38Z</time>
      </trkpt>
      <trkpt lat="43.1614" lon="6.61946">
        <ele>79.5</ele>
        <time>2013-12-01T10:25:43Z</time>
      </trkpt>
      <trkpt lat="43.16132" lon="6.61951">
        <ele>79.8</ele>
        <time>2013-12-01T10:25:49Z</time>
      </trkpt>
      <trkpt lat="43.16127" lon="6.61959">
        <ele>80.5</ele>
        <time>2013-12-01T10:25:55Z</time>
      </trkpt>
      <trkpt lat="43.16124" lon="6.6197">
        <ele>80.5</ele>
        <time>2013-12-01T10:26:00Z</time>
      </trkpt>
      <trkpt lat="43.16122" lon="6.61981">
        <ele>80.3</ele>
        <time>2013-12-01T10:26:05Z</time>
      </trkpt>
      <trkpt lat="43.16114" lon="6.61983">
        <ele>79.7</ele>
        <time>2013-12-01T10:26:14Z</time>
      </trkpt>
      <trkpt lat="43.16113" lon="6.61982">
        <ele>79.7</ele>
        <time>2013-12-01T10:26:15Z</time>
      </trkpt>
      <trkpt lat="43.16099" lon="6.61973">
        <ele>79.6</ele>
        <time>2013-12-01T10:26:25Z</time>
      </trkpt>
      <trkpt lat="43.16091" lon="6.61974">
        <ele>78.6</ele>
        <time>2013-12-01T10:26:33Z</time>
      </trkpt>
      <trkpt lat="43.16083" lon="6.61976">
        <ele>78.3</ele>
        <time>2013-12-01T10:26:39Z</time>
      </trkpt>
      <trkpt lat="43.16074" lon="6.61977">
        <ele>77.4</ele>
        <time>2013-12-01T10:26:47Z</time>
      </trkpt>
      <trkpt lat="43.16066" lon="6.61974">
        <ele>77.2</ele>
        <time>2013-12-01T10:26:52Z</time>
      </trkpt>
      <trkpt lat="43.16057" lon="6.61974">
        <ele>75.7</ele>
        <time>2013-12-01T10:27:14Z</time>
      </trkpt>
      <trkpt lat="43.16049" lon="6.61974">
        <ele>75.1</ele>
        <time>2013-12-01T10:28:15Z</time>
      </trkpt>
      <trkpt lat="43.16048" lon="6.61975">
        <ele>75.2</ele>
        <time>2013-12-01T10:28:16Z</time>
      </trkpt>
      <trkpt lat="43.16037" lon="6.6199">
        <ele>74</ele>
        <time>2013-12-01T10:28:38Z</time>
      </trkpt>
      <trkpt lat="43.16029" lon="6.61995">
        <ele>74</ele>
        <time>2013-12-01T10:28:55Z</time>
      </trkpt>
      <trkpt lat="43.1602" lon="6.61991">
        <ele>74.6</ele>
        <time>2013-12-01T10:29:15Z</time>
      </trkpt>
      <trkpt lat="43.16012" lon="6.61993">
        <ele>73.3</ele>
        <time>2013-12-01T10:31:49Z</time>
      </trkpt>
      <trkpt lat="43.16011" lon="6.61993">
        <ele>73.1</ele>
        <time>2013-12-01T10:31:50Z</time>
      </trkpt>
      <trkpt lat="43.16009" lon="6.6201">
        <ele>69.7</ele>
        <time>2013-12-01T10:32:52Z</time>
      </trkpt>
      <trkpt lat="43.16009" lon="6.62011">
        <ele>69.8</ele>
        <time>2013-12-01T10:32:53Z</time>
      </trkpt>
      <trkpt lat="43.16021" lon="6.62026">
        <ele>70.1</ele>
        <time>2013-12-01T10:33:13Z</time>
      </trkpt>
      <trkpt lat="43.16028" lon="6.62031">
        <ele>69.2</ele>
        <time>2013-12-01T10:33:22Z</time>
      </trkpt>
      <trkpt lat="43.16034" lon="6.6204">
        <ele>65.8</ele>
        <time>2013-12-01T10:33:37Z</time>
      </trkpt>
      <trkpt lat="43.16038" lon="6.62051">
        <ele>60.7</ele>
        <time>2013-12-01T10:33:57Z</time>
      </trkpt>
      <trkpt lat="43.16038" lon="6.62052">
        <ele>60.6</ele>
        <time>2013-12-01T10:33:58Z</time>
      </trkpt>
      <trkpt lat="43.16048" lon="6.6207">
        <ele>56</ele>
        <time>2013-12-01T10:34:42Z</time>
      </trkpt>
      <trkpt lat="43.16051" lon="6.62081">
        <ele>54.4</ele>
        <time>2013-12-01T10:34:59Z</time>
      </trkpt>
      <trkpt lat="43.16052" lon="6.62082">
        <ele>54</ele>
        <time>2013-12-01T10:35:00Z</time>
      </trkpt>
      <trkpt lat="43.16061" lon="6.62099">
        <ele>49.7</ele>
        <time>2013-12-01T10:35:18Z</time>
      </trkpt>
      <trkpt lat="43.16064" lon="6.62111">
        <ele>46.9</ele>
        <time>2013-12-01T10:35:29Z</time>
      </trkpt>
      <trkpt lat="43.16068" lon="6.62121">
        <ele>44.4</ele>
        <time>2013-12-01T10:35:41Z</time>
      </trkpt>
      <trkpt lat="43.16069" lon="6.62132">
        <ele>41</ele>
        <time>2013-12-01T10:35:55Z</time>
      </trkpt>
      <trkpt lat="43.16068" lon="6.62144">
        <ele>37.3</ele>
        <time>2013-12-01T10:36:10Z</time>
      </trkpt>
      <trkpt lat="43.16068" lon="6.62145">
        <ele>37.3</ele>
        <time>2013-12-01T10:36:11Z</time>
      </trkpt>
      <trkpt lat="43.16075" lon="6.62165">
        <ele>36.1</ele>
        <time>2013-12-01T10:36:28Z</time>
      </trkpt>
      <trkpt lat="43.16079" lon="6.62176">
        <ele>33.7</ele>
        <time>2013-12-01T10:36:41Z</time>
      </trkpt>
      <trkpt lat="43.16086" lon="6.62183">
        <ele>34.9</ele>
        <time>2013-12-01T10:36:50Z</time>
      </trkpt>
      <trkpt lat="43.16093" lon="6.6219">
        <ele>35</ele>
        <time>2013-12-01T10:36:59Z</time>
      </trkpt>
      <trkpt lat="43.161" lon="6.62198">
        <ele>35.4</ele>
        <time>2013-12-01T10:37:05Z</time>
      </trkpt>
      <trkpt lat="43.16107" lon="6.62204">
        <ele>34</ele>
        <time>2013-12-01T10:37:16Z</time>
      </trkpt>
      <trkpt lat="43.16108" lon="6.62204">
        <ele>33.9</ele>
        <time>2013-12-01T10:37:17Z</time>
      </trkpt>
      <trkpt lat="43.16123" lon="6.62211">
        <ele>32.1</ele>
        <time>2013-12-01T10:37:34Z</time>
      </trkpt>
      <trkpt lat="43.16131" lon="6.62215">
        <ele>31.5</ele>
        <time>2013-12-01T10:37:43Z</time>
      </trkpt>
      <trkpt lat="43.16139" lon="6.62211">
        <ele>30.6</ele>
        <time>2013-12-01T10:37:50Z</time>
      </trkpt>
      <trkpt lat="43.16145" lon="6.62205">
        <ele>30.3</ele>
        <time>2013-12-01T10:37:55Z</time>
      </trkpt>
      <trkpt lat="43.16153" lon="6.622">
        <ele>29.8</ele>
        <time>2013-12-01T10:38:03Z</time>
      </trkpt>
      <trkpt lat="43.1616" lon="6.62206">
        <ele>29.4</ele>
        <time>2013-12-01T10:38:09Z</time>
      </trkpt>
      <trkpt lat="43.16168" lon="6.62208">
        <ele>28</ele>
        <time>2013-12-01T10:38:17Z</time>
      </trkpt>
      <trkpt lat="43.16169" lon="6.62207">
        <ele>27.8</ele>
        <time>2013-12-01T10:38:18Z</time>
      </trkpt>
      <trkpt lat="43.16182" lon="6.62197">
        <ele>26.2</ele>
        <time>2013-12-01T10:38:44Z</time>
      </trkpt>
      <trkpt lat="43.16189" lon="6.62191">
        <ele>25.8</ele>
        <time>2013-12-01T10:38:50Z</time>
      </trkpt>
      <trkpt lat="43.16195" lon="6.62182">
        <ele>25</ele>
        <time>2013-12-01T10:38:59Z</time>
      </trkpt>
      <trkpt lat="43.16197" lon="6.6217">
        <ele>22.6</ele>
        <time>2013-12-01T10:39:09Z</time>
      </trkpt>
      <trkpt lat="43.16204" lon="6.62162">
        <ele>18.7</ele>
        <time>2013-12-01T10:39:30Z</time>
      </trkpt>
      <trkpt lat="43.16204" lon="6.62162">
        <ele>18.8</ele>
        <time>2013-12-01T10:39:31Z</time>
      </trkpt>
      <trkpt lat="43.1622" lon="6.62162">
        <ele>18</ele>
        <time>2013-12-01T10:39:46Z</time>
      </trkpt>
      <trkpt lat="43.16226" lon="6.62154">
        <ele>18.8</ele>
        <time>2013-12-01T10:39:56Z</time>
      </trkpt>
      <trkpt lat="43.16232" lon="6.62145">
        <ele>19.8</ele>
        <time>2013-12-01T10:40:24Z</time>
      </trkpt>
      <trkpt lat="43.16241" lon="6.62141">
        <ele>17.9</ele>
        <time>2013-12-01T10:40:36Z</time>
      </trkpt>
      <trkpt lat="43.16242" lon="6.62141">
        <ele>18</ele>
        <time>2013-12-01T10:40:37Z</time>
      </trkpt>
      <trkpt lat="43.16256" lon="6.62131">
        <ele>16.6</ele>
        <time>2013-12-01T10:41:00Z</time>
      </trkpt>
      <trkpt lat="43.16265" lon="6.62132">
        <ele>14.9</ele>
        <time>2013-12-01T10:41:07Z</time>
      </trkpt>
      <trkpt lat="43.16273" lon="6.62129">
        <ele>13.7</ele>
        <time>2013-12-01T10:41:14Z</time>
      </trkpt>
      <trkpt lat="43.16282" lon="6.62128">
        <ele>15</ele>
        <time>2013-12-01T10:41:25Z</time>
      </trkpt>
      <trkpt lat="43.1629" lon="6.62131">
        <ele>11.9</ele>
        <time>2013-12-01T10:41:48Z</time>
      </trkpt>
      <trkpt lat="43.16291" lon="6.62132">
        <ele>12.1</ele>
        <time>2013-12-01T10:41:49Z</time>
      </trkpt>
      <trkpt lat="43.16306" lon="6.62135">
        <ele>12.2</ele>
        <time>2013-12-01T10:42:02Z</time>
      </trkpt>
      <trkpt lat="43.16315" lon="6.62136">
        <ele>11.6</ele>
        <time>2013-12-01T10:42:09Z</time>
      </trkpt>
      <trkpt lat="43.1632" lon="6.62146">
        <ele>13.1</ele>
        <time>2013-12-01T10:42:19Z</time>
      </trkpt>
      <trkpt lat="43.16328" lon="6.6215">
        <ele>14</ele>
        <time>2013-12-01T10:42:29Z</time>
      </trkpt>
      <trkpt lat="43.16335" lon="6.62154">
        <ele>15.1</ele>
        <time>2013-12-01T10:42:36Z</time>
      </trkpt>
      <trkpt lat="43.16343" lon="6.62149">
        <ele>16.2</ele>
        <time>2013-12-01T10:42:43Z</time>
      </trkpt>
      <trkpt lat="43.16352" lon="6.62152">
        <ele>16.8</ele>
        <time>2013-12-01T10:42:51Z</time>
      </trkpt>
      <trkpt lat="43.16353" lon="6.62152">
        <ele>16.7</ele>
        <time>2013-12-01T10:42:52Z</time>
      </trkpt>
      <trkpt lat="43.16367" lon="6.6216">
        <ele>16.1</ele>
        <time>2013-12-01T10:43:07Z</time>
      </trkpt>
      <trkpt lat="43.16374" lon="6.62167">
        <ele>13.9</ele>
        <time>2013-12-01T10:43:17Z</time>
      </trkpt>
      <trkpt lat="43.16379" lon="6.62176">
        <ele>12.6</ele>
        <time>2013-12-01T10:43:26Z</time>
      </trkpt>
      <trkpt lat="43.16386" lon="6.62181">
        <ele>13.2</ele>
        <time>2013-12-01T10:43:38Z</time>
      </trkpt>
      <trkpt lat="43.16395" lon="6.62181">
        <ele>14.2</ele>
        <time>2013-12-01T10:43:54Z</time>
      </trkpt>
      <trkpt lat="43.16396" lon="6.6218">
        <ele>14.1</ele>
        <time>2013-12-01T10:43:55Z</time>
      </trkpt>
      <trkpt lat="43.16411" lon="6.62187">
        <ele>15.2</ele>
        <time>2013-12-01T10:44:15Z</time>
      </trkpt>
      <trkpt lat="43.16419" lon="6.62186">
        <ele>14.1</ele>
        <time>2013-12-01T10:44:24Z</time>
      </trkpt>
      <trkpt lat="43.16428" lon="6.62188">
        <ele>15.1</ele>
        <time>2013-12-01T10:44:37Z</time>
      </trkpt>
      <trkpt lat="43.16434" lon="6.62196">
        <ele>15</ele>
        <time>2013-12-01T10:44:48Z</time>
      </trkpt>
      <trkpt lat="43.16441" lon="6.62203">
        <ele>14.3</ele>
        <time>2013-12-01T10:44:55Z</time>
      </trkpt>
      <trkpt lat="43.16442" lon="6.62203">
        <ele>14.3</ele>
        <time>2013-12-01T10:44:56Z</time>
      </trkpt>
      <trkpt lat="43.16455" lon="6.62209">
        <ele>14.2</ele>
        <time>2013-12-01T10:45:22Z</time>
      </trkpt>
      <trkpt lat="43.16463" lon="6.62216">
        <ele>14.4</ele>
        <time>2013-12-01T10:45:31Z</time>
      </trkpt>
      <trkpt lat="43.16468" lon="6.62224">
        <ele>14.6</ele>
        <time>2013-12-01T10:45:38Z</time>
      </trkpt>
      <trkpt lat="43.16475" lon="6.62232">
        <ele>14.5</ele>
        <time>2013-12-01T10:45:47Z</time>
      </trkpt>
      <trkpt lat="43.16482" lon="6.62238">
        <ele>16.2</ele>
        <time>2013-12-01T10:46:40Z</time>
      </trkpt>
      <trkpt lat="43.16483" lon="6.62238">
        <ele>15.9</ele>
        <time>2013-12-01T10:46:41Z</time>
      </trkpt>
      <trkpt lat="43.16497" lon="6.62247">
        <ele>15.5</ele>
        <time>2013-12-01T10:47:11Z</time>
      </trkpt>
      <trkpt lat="43.16502" lon="6.62255">
        <ele>16</ele>
        <time>2013-12-01T10:47:21Z</time>
      </trkpt>
      <trkpt lat="43.16509" lon="6.62262">
        <ele>16.3</ele>
        <time>2013-12-01T10:47:30Z</time>
      </trkpt>
      <trkpt lat="43.16513" lon="6.62273">
        <ele>17.5</ele>
        <time>2013-12-01T10:47:39Z</time>
      </trkpt>
      <trkpt lat="43.1652" lon="6.62279">
        <ele>18.5</ele>
        <time>2013-12-01T10:47:49Z</time>
      </trkpt>
      <trkpt lat="43.16521" lon="6.6228">
        <ele>18.7</ele>
        <time>2013-12-01T10:47:50Z</time>
      </trkpt>
      <trkpt lat="43.16534" lon="6.62292">
        <ele>15.6</ele>
        <time>2013-12-01T10:48:10Z</time>
      </trkpt>
      <trkpt lat="43.16542" lon="6.62297">
        <ele>14.9</ele>
        <time>2013-12-01T10:48:17Z</time>
      </trkpt>
      <trkpt lat="43.16548" lon="6.62306">
        <ele>15.4</ele>
        <time>2013-12-01T10:48:23Z</time>
      </trkpt>
      <trkpt lat="43.16555" lon="6.62313">
        <ele>16.5</ele>
        <time>2013-12-01T10:48:33Z</time>
      </trkpt>
      <trkpt lat="43.1656" lon="6.62323">
        <ele>15.5</ele>
        <time>2013-12-01T10:48:43Z</time>
      </trkpt>
      <trkpt lat="43.16567" lon="6.62328">
        <ele>14.4</ele>
        <time>2013-12-01T10:48:53Z</time>
      </trkpt>
      <trkpt lat="43.16568" lon="6.6233">
        <ele>14.3</ele>
        <time>2013-12-01T10:48:54Z</time>
      </trkpt>
      <trkpt lat="43.16574" lon="6.6235">
        <ele>13.6</ele>
        <time>2013-12-01T10:49:07Z</time>
      </trkpt>
      <trkpt lat="43.1658" lon="6.62357">
        <ele>14</ele>
        <time>2013-12-01T10:49:13Z</time>
      </trkpt>
      <trkpt lat="43.16587" lon="6.62362">
        <ele>13.4</ele>
        <time>2013-12-01T10:49:20Z</time>
      </trkpt>
      <trkpt lat="43.16594" lon="6.62368">
        <ele>13.1</ele>
        <time>2013-12-01T10:49:28Z</time>
      </trkpt>
      <trkpt lat="43.166" lon="6.62377">
        <ele>11.5</ele>
        <time>2013-12-01T10:49:44Z</time>
      </trkpt>
      <trkpt lat="43.16599" lon="6.62389">
        <ele>11.8</ele>
        <time>2013-12-01T10:51:09Z</time>
      </trkpt>
      <trkpt lat="43.16599" lon="6.6239">
        <ele>11.6</ele>
        <time>2013-12-01T10:51:10Z</time>
      </trkpt>
      <trkpt lat="43.16603" lon="6.62401">
        <ele>14.9</ele>
        <time>2013-12-01T10:52:35Z</time>
      </trkpt>
      <trkpt lat="43.16609" lon="6.62422">
        <ele>21.1</ele>
        <time>2013-12-01T10:53:11Z</time>
      </trkpt>
      <trkpt lat="43.16613" lon="6.62433">
        <ele>23.4</ele>
        <time>2013-12-01T10:53:25Z</time>
      </trkpt>
      <trkpt lat="43.16618" lon="6.62443">
        <ele>26.4</ele>
        <time>2013-12-01T10:53:43Z</time>
      </trkpt>
      <trkpt lat="43.16619" lon="6.62444">
        <ele>26.1</ele>
        <time>2013-12-01T10:53:44Z</time>
      </trkpt>
      <trkpt lat="43.16629" lon="6.62461">
        <ele>30.1</ele>
        <time>2013-12-01T10:54:10Z</time>
      </trkpt>
      <trkpt lat="43.16634" lon="6.62471">
        <ele>31.1</ele>
        <time>2013-12-01T10:54:18Z</time>
      </trkpt>
      <trkpt lat="43.16636" lon="6.62482">
        <ele>30.5</ele>
        <time>2013-12-01T10:54:26Z</time>
      </trkpt>
      <trkpt lat="43.16638" lon="6.62494">
        <ele>29.8</ele>
        <time>2013-12-01T10:54:33Z</time>
      </trkpt>
      <trkpt lat="43.16641" lon="6.62505">
        <ele>29.5</ele>
        <time>2013-12-01T10:54:39Z</time>
      </trkpt>
      <trkpt lat="43.16638" lon="6.62516">
        <ele>29.9</ele>
        <time>2013-12-01T10:54:47Z</time>
      </trkpt>
      <trkpt lat="43.16636" lon="6.62518">
        <ele>29.9</ele>
        <time>2013-12-01T10:54:48Z</time>
      </trkpt>
      <trkpt lat="43.16629" lon="6.62537">
        <ele>29.4</ele>
        <time>2013-12-01T10:55:04Z</time>
      </trkpt>
      <trkpt lat="43.16634" lon="6.62548">
        <ele>30.7</ele>
        <time>2013-12-01T10:55:15Z</time>
      </trkpt>
      <trkpt lat="43.16635" lon="6.62559">
        <ele>31.3</ele>
        <time>2013-12-01T10:55:23Z</time>
      </trkpt>
      <trkpt lat="43.16642" lon="6.62567">
        <ele>33.1</ele>
        <time>2013-12-01T10:55:34Z</time>
      </trkpt>
      <trkpt lat="43.16649" lon="6.62574">
        <ele>36</ele>
        <time>2013-12-01T10:55:49Z</time>
      </trkpt>
      <trkpt lat="43.16649" lon="6.62575">
        <ele>36.2</ele>
        <time>2013-12-01T10:55:50Z</time>
      </trkpt>
      <trkpt lat="43.16661" lon="6.62589">
        <ele>38.1</ele>
        <time>2013-12-01T10:56:06Z</time>
      </trkpt>
      <trkpt lat="43.16668" lon="6.62596">
        <ele>39.1</ele>
        <time>2013-12-01T10:56:15Z</time>
      </trkpt>
      <trkpt lat="43.16671" lon="6.62607">
        <ele>38.8</ele>
        <time>2013-12-01T10:56:28Z</time>
      </trkpt>
      <trkpt lat="43.16677" lon="6.62617">
        <ele>37.8</ele>
        <time>2013-12-01T10:56:41Z</time>
      </trkpt>
      <trkpt lat="43.16685" lon="6.62619">
        <ele>38.2</ele>
        <time>2013-12-01T10:56:50Z</time>
      </trkpt>
      <trkpt lat="43.16686" lon="6.6262">
        <ele>38.3</ele>
        <time>2013-12-01T10:56:51Z</time>
      </trkpt>
      <trkpt lat="43.16701" lon="6.62625">
        <ele>40</ele>
        <time>2013-12-01T10:57:14Z</time>
      </trkpt>
      <trkpt lat="43.16709" lon="6.62629">
        <ele>41.5</ele>
        <time>2013-12-01T10:57:27Z</time>
      </trkpt>
      <trkpt lat="43.16717" lon="6.62633">
        <ele>43.2</ele>
        <time>2013-12-01T10:57:39Z</time>
      </trkpt>
      <trkpt lat="43.16725" lon="6.62633">
        <ele>42.7</ele>
        <time>2013-12-01T10:57:49Z</time>
      </trkpt>
      <trkpt lat="43.16733" lon="6.62633">
        <ele>43.3</ele>
        <time>2013-12-01T10:58:03Z</time>
      </trkpt>
      <trkpt lat="43.16734" lon="6.62633">
        <ele>43.4</ele>
        <time>2013-12-01T10:58:04Z</time>
      </trkpt>
      <trkpt lat="43.16751" lon="6.62632">
        <ele>43.4</ele>
        <time>2013-12-01T10:58:24Z</time>
      </trkpt>
      <trkpt lat="43.16759" lon="6.62629">
        <ele>45.1</ele>
        <time>2013-12-01T10:58:38Z</time>
      </trkpt>
      <trkpt lat="43.16768" lon="6.62632">
        <ele>44.8</ele>
        <time>2013-12-01T10:58:52Z</time>
      </trkpt>
      <trkpt lat="43.16772" lon="6.62643">
        <ele>43.3</ele>
        <time>2013-12-01T10:59:08Z</time>
      </trkpt>
      <trkpt lat="43.16772" lon="6.62643">
        <ele>43.1</ele>
        <time>2013-12-01T10:59:09Z</time>
      </trkpt>
      <trkpt lat="43.16783" lon="6.62661">
        <ele>38.2</ele>
        <time>2013-12-01T10:59:38Z</time>
      </trkpt>
      <trkpt lat="43.1679" lon="6.62668">
        <ele>37.8</ele>
        <time>2013-12-01T10:59:50Z</time>
      </trkpt>
      <trkpt lat="43.16796" lon="6.62676">
        <ele>36.3</ele>
        <time>2013-12-01T10:59:59Z</time>
      </trkpt>
      <trkpt lat="43.16801" lon="6.62683">
        <ele>34.7</ele>
        <time>2013-12-01T11:00:05Z</time>
      </trkpt>
      <trkpt lat="43.16806" lon="6.62694">
        <ele>32.7</ele>
        <time>2013-12-01T11:00:16Z</time>
      </trkpt>
      <trkpt lat="43.16807" lon="6.62694">
        <ele>32.4</ele>
        <time>2013-12-01T11:00:17Z</time>
      </trkpt>
      <trkpt lat="43.16819" lon="6.62709">
        <ele>26.4</ele>
        <time>2013-12-01T11:01:17Z</time>
      </trkpt>
      <trkpt lat="43.1682" lon="6.6271">
        <ele>26.1</ele>
        <time>2013-12-01T11:01:18Z</time>
      </trkpt>
      <trkpt lat="43.16834" lon="6.62719">
        <ele>24.5</ele>
        <time>2013-12-01T11:01:32Z</time>
      </trkpt>
      <trkpt lat="43.16842" lon="6.62724">
        <ele>22.3</ele>
        <time>2013-12-01T11:01:55Z</time>
      </trkpt>
      <trkpt lat="43.16849" lon="6.6273">
        <ele>20.1</ele>
        <time>2013-12-01T11:02:07Z</time>
      </trkpt>
      <trkpt lat="43.16858" lon="6.62729">
        <ele>19.6</ele>
        <time>2013-12-01T11:02:13Z</time>
      </trkpt>
      <trkpt lat="43.16864" lon="6.62734">
        <ele>20.6</ele>
        <time>2013-12-01T11:02:22Z</time>
      </trkpt>
      <trkpt lat="43.16866" lon="6.62736">
        <ele>20.9</ele>
        <time>2013-12-01T11:02:23Z</time>
      </trkpt>
      <trkpt lat="43.16877" lon="6.62748">
        <ele>19.7</ele>
        <time>2013-12-01T11:02:37Z</time>
      </trkpt>
      <trkpt lat="43.16885" lon="6.62753">
        <ele>18.6</ele>
        <time>2013-12-01T11:02:46Z</time>
      </trkpt>
      <trkpt lat="43.16891" lon="6.62761">
        <ele>19.6</ele>
        <time>2013-12-01T11:02:52Z</time>
      </trkpt>
      <trkpt lat="43.16898" lon="6.62767">
        <ele>20.7</ele>
        <time>2013-12-01T11:03:01Z</time>
      </trkpt>
      <trkpt lat="43.16905" lon="6.62774">
        <ele>23.5</ele>
        <time>2013-12-01T11:03:17Z</time>
      </trkpt>
      <trkpt lat="43.16913" lon="6.6278">
        <ele>23.8</ele>
        <time>2013-12-01T11:03:40Z</time>
      </trkpt>
      <trkpt lat="43.16913" lon="6.62781">
        <ele>23.8</ele>
        <time>2013-12-01T11:03:41Z</time>
      </trkpt>
      <trkpt lat="43.16922" lon="6.62799">
        <ele>24.4</ele>
        <time>2013-12-01T11:04:00Z</time>
      </trkpt>
      <trkpt lat="43.16926" lon="6.6281">
        <ele>28.1</ele>
        <time>2013-12-01T11:04:20Z</time>
      </trkpt>
      <trkpt lat="43.16934" lon="6.6281">
        <ele>34</ele>
        <time>2013-12-01T11:05:00Z</time>
      </trkpt>
      <trkpt lat="43.16935" lon="6.6281">
        <ele>33.9</ele>
        <time>2013-12-01T11:05:01Z</time>
      </trkpt>
      <trkpt lat="43.16949" lon="6.62797">
        <ele>39.9</ele>
        <time>2013-12-01T11:06:03Z</time>
      </trkpt>
      <trkpt lat="43.16949" lon="6.62796">
        <ele>39.7</ele>
        <time>2013-12-01T11:06:04Z</time>
      </trkpt>
      <trkpt lat="43.16961" lon="6.6281">
        <ele>50.2</ele>
        <time>2013-12-01T11:07:19Z</time>
      </trkpt>
      <trkpt lat="43.16962" lon="6.62811">
        <ele>50.6</ele>
        <time>2013-12-01T11:07:20Z</time>
      </trkpt>
      <trkpt lat="43.16969" lon="6.62832">
        <ele>54.4</ele>
        <time>2013-12-01T11:07:48Z</time>
      </trkpt>
      <trkpt lat="43.16974" lon="6.62841">
        <ele>55.6</ele>
        <time>2013-12-01T11:07:57Z</time>
      </trkpt>
      <trkpt lat="43.16977" lon="6.62852">
        <ele>55.3</ele>
        <time>2013-12-01T11:08:12Z</time>
      </trkpt>
      <trkpt lat="43.1698" lon="6.62863">
        <ele>53</ele>
        <time>2013-12-01T11:08:23Z</time>
      </trkpt>
      <trkpt lat="43.1698" lon="6.62864">
        <ele>52.7</ele>
        <time>2013-12-01T11:08:24Z</time>
      </trkpt>
      <trkpt lat="43.16984" lon="6.62886">
        <ele>48.6</ele>
        <time>2013-12-01T11:09:02Z</time>
      </trkpt>
      <trkpt lat="43.16987" lon="6.62897">
        <ele>46</ele>
        <time>2013-12-01T11:09:33Z</time>
      </trkpt>
      <trkpt lat="43.16987" lon="6.62898">
        <ele>46</ele>
        <time>2013-12-01T11:09:34Z</time>
      </trkpt>
      <trkpt lat="43.17001" lon="6.62909">
        <ele>48.5</ele>
        <time>2013-12-01T11:09:57Z</time>
      </trkpt>
      <trkpt lat="43.17008" lon="6.62918">
        <ele>49.5</ele>
        <time>2013-12-01T11:10:07Z</time>
      </trkpt>
      <trkpt lat="43.17012" lon="6.62928">
        <ele>46.7</ele>
        <time>2013-12-01T11:10:28Z</time>
      </trkpt>
      <trkpt lat="43.17008" lon="6.62939">
        <ele>40</ele>
        <time>2013-12-01T11:11:04Z</time>
      </trkpt>
      <trkpt lat="43.17008" lon="6.6294">
        <ele>39.9</ele>
        <time>2013-12-01T11:11:05Z</time>
      </trkpt>
      <trkpt lat="43.16993" lon="6.62948">
        <ele>31</ele>
        <time>2013-12-01T11:11:51Z</time>
      </trkpt>
      <trkpt lat="43.16987" lon="6.62956">
        <ele>27.5</ele>
        <time>2013-12-01T11:12:11Z</time>
      </trkpt>
      <trkpt lat="43.16987" lon="6.62957">
        <ele>27.1</ele>
        <time>2013-12-01T11:12:12Z</time>
      </trkpt>
      <trkpt lat="43.16993" lon="6.62978">
        <ele>24</ele>
        <time>2013-12-01T11:12:35Z</time>
      </trkpt>
      <trkpt lat="43.17" lon="6.62985">
        <ele>22.5</ele>
        <time>2013-12-01T11:12:45Z</time>
      </trkpt>
      <trkpt lat="43.17008" lon="6.62991">
        <ele>22</ele>
        <time>2013-12-01T11:12:52Z</time>
      </trkpt>
      <trkpt lat="43.17016" lon="6.6299">
        <ele>22.7</ele>
        <time>2013-12-01T11:12:59Z</time>
      </trkpt>
      <trkpt lat="43.17024" lon="6.62992">
        <ele>21.6</ele>
        <time>2013-12-01T11:13:06Z</time>
      </trkpt>
      <trkpt lat="43.17032" lon="6.62996">
        <ele>21.9</ele>
        <time>2013-12-01T11:13:14Z</time>
      </trkpt>
      <trkpt lat="43.17033" lon="6.62996">
        <ele>21.9</ele>
        <time>2013-12-01T11:13:15Z</time>
      </trkpt>
      <trkpt lat="43.17049" lon="6.62998">
        <ele>21.1</ele>
        <time>2013-12-01T11:13:39Z</time>
      </trkpt>
      <trkpt lat="43.17056" lon="6.63004">
        <ele>21</ele>
        <time>2013-12-01T11:13:48Z</time>
      </trkpt>
      <trkpt lat="43.17062" lon="6.63012">
        <ele>21.9</ele>
        <time>2013-12-01T11:14:08Z</time>
      </trkpt>
      <trkpt lat="43.17068" lon="6.63018">
        <ele>21.4</ele>
        <time>2013-12-01T11:14:14Z</time>
      </trkpt>
      <trkpt lat="43.17076" lon="6.63024">
        <ele>20.9</ele>
        <time>2013-12-01T11:14:23Z</time>
      </trkpt>
      <trkpt lat="43.17077" lon="6.63025">
        <ele>20.9</ele>
        <time>2013-12-01T11:14:24Z</time>
      </trkpt>
      <trkpt lat="43.17091" lon="6.63033">
        <ele>22</ele>
        <time>2013-12-01T11:14:55Z</time>
      </trkpt>
      <trkpt lat="43.17099" lon="6.63039">
        <ele>23.6</ele>
        <time>2013-12-01T11:15:06Z</time>
      </trkpt>
      <trkpt lat="43.17105" lon="6.63047">
        <ele>23.7</ele>
        <time>2013-12-01T11:15:12Z</time>
      </trkpt>
      <trkpt lat="43.1711" lon="6.63057">
        <ele>25.6</ele>
        <time>2013-12-01T11:15:22Z</time>
      </trkpt>
      <trkpt lat="43.17115" lon="6.63065">
        <ele>26.3</ele>
        <time>2013-12-01T11:15:42Z</time>
      </trkpt>
      <trkpt lat="43.17116" lon="6.63066">
        <ele>26.8</ele>
        <time>2013-12-01T11:15:43Z</time>
      </trkpt>
      <trkpt lat="43.17124" lon="6.63085">
        <ele>26.1</ele>
        <time>2013-12-01T11:16:00Z</time>
      </trkpt>
      <trkpt lat="43.17121" lon="6.63097">
        <ele>23.5</ele>
        <time>2013-12-01T11:16:31Z</time>
      </trkpt>
      <trkpt lat="43.1712" lon="6.63108">
        <ele>22.3</ele>
        <time>2013-12-01T11:16:39Z</time>
      </trkpt>
      <trkpt lat="43.17119" lon="6.63119">
        <ele>23.6</ele>
        <time>2013-12-01T11:16:46Z</time>
      </trkpt>
      <trkpt lat="43.17119" lon="6.63121">
        <ele>23.8</ele>
        <time>2013-12-01T11:16:47Z</time>
      </trkpt>
      <trkpt lat="43.17118" lon="6.63142">
        <ele>23.3</ele>
        <time>2013-12-01T11:17:03Z</time>
      </trkpt>
      <trkpt lat="43.17114" lon="6.63152">
        <ele>22.9</ele>
        <time>2013-12-01T11:17:18Z</time>
      </trkpt>
      <trkpt lat="43.17108" lon="6.63159">
        <ele>21.8</ele>
        <time>2013-12-01T11:17:26Z</time>
      </trkpt>
      <trkpt lat="43.17102" lon="6.63168">
        <ele>20.8</ele>
        <time>2013-12-01T11:17:34Z</time>
      </trkpt>
      <trkpt lat="43.17103" lon="6.6318">
        <ele>19.8</ele>
        <time>2013-12-01T11:17:40Z</time>
      </trkpt>
      <trkpt lat="43.17106" lon="6.63191">
        <ele>20.1</ele>
        <time>2013-12-01T11:17:48Z</time>
      </trkpt>
      <trkpt lat="43.17106" lon="6.63192">
        <ele>20.3</ele>
        <time>2013-12-01T11:17:49Z</time>
      </trkpt>
      <trkpt lat="43.17118" lon="6.63207">
        <ele>20.4</ele>
        <time>2013-12-01T11:18:07Z</time>
      </trkpt>
      <trkpt lat="43.17127" lon="6.63206">
        <ele>20.5</ele>
        <time>2013-12-01T11:18:17Z</time>
      </trkpt>
      <trkpt lat="43.17135" lon="6.63205">
        <ele>21.4</ele>
        <time>2013-12-01T11:18:55Z</time>
      </trkpt>
      <trkpt lat="43.17136" lon="6.63204">
        <ele>21.2</ele>
        <time>2013-12-01T11:18:56Z</time>
      </trkpt>
      <trkpt lat="43.17152" lon="6.632">
        <ele>19.5</ele>
        <time>2013-12-01T11:19:27Z</time>
      </trkpt>
      <trkpt lat="43.1716" lon="6.63203">
        <ele>18.9</ele>
        <time>2013-12-01T11:19:39Z</time>
      </trkpt>
      <trkpt lat="43.17165" lon="6.63211">
        <ele>19.1</ele>
        <time>2013-12-01T11:19:49Z</time>
      </trkpt>
      <trkpt lat="43.17173" lon="6.63215">
        <ele>18</ele>
        <time>2013-12-01T11:19:57Z</time>
      </trkpt>
      <trkpt lat="43.17174" lon="6.63215">
        <ele>18.2</ele>
        <time>2013-12-01T11:19:58Z</time>
      </trkpt>
      <trkpt lat="43.17189" lon="6.63223">
        <ele>20</ele>
        <time>2013-12-01T11:20:19Z</time>
      </trkpt>
      <trkpt lat="43.17195" lon="6.63231">
        <ele>19.7</ele>
        <time>2013-12-01T11:20:30Z</time>
      </trkpt>
      <trkpt lat="43.17203" lon="6.63236">
        <ele>18.5</ele>
        <time>2013-12-01T11:20:57Z</time>
      </trkpt>
      <trkpt lat="43.1721" lon="6.63242">
        <ele>16.4</ele>
        <time>2013-12-01T11:22:01Z</time>
      </trkpt>
      <trkpt lat="43.1721" lon="6.63244">
        <ele>16.5</ele>
        <time>2013-12-01T11:22:02Z</time>
      </trkpt>
      <trkpt lat="43.17219" lon="6.63261">
        <ele>16.8</ele>
        <time>2013-12-01T11:22:18Z</time>
      </trkpt>
      <trkpt lat="43.17224" lon="6.63269">
        <ele>17</ele>
        <time>2013-12-01T11:22:25Z</time>
      </trkpt>
      <trkpt lat="43.17229" lon="6.63278">
        <ele>16.2</ele>
        <time>2013-12-01T11:22:33Z</time>
      </trkpt>
      <trkpt lat="43.17232" lon="6.63288">
        <ele>16.4</ele>
        <time>2013-12-01T11:22:39Z</time>
      </trkpt>
      <trkpt lat="43.17238" lon="6.63297">
        <ele>16.2</ele>
        <time>2013-12-01T11:22:47Z</time>
      </trkpt>
      <trkpt lat="43.1724" lon="6.63308">
        <ele>15.6</ele>
        <time>2013-12-01T11:22:54Z</time>
      </trkpt>
      <trkpt lat="43.17243" lon="6.63319">
        <ele>15.7</ele>
        <time>2013-12-01T11:23:01Z</time>
      </trkpt>
      <trkpt lat="43.17247" lon="6.63329">
        <ele>15.6</ele>
        <time>2013-12-01T11:23:08Z</time>
      </trkpt>
      <trkpt lat="43.17247" lon="6.63331">
        <ele>15</ele>
        <time>2013-12-01T11:23:09Z</time>
      </trkpt>
      <trkpt lat="43.17253" lon="6.63351">
        <ele>17</ele>
        <time>2013-12-01T11:23:25Z</time>
      </trkpt>
      <trkpt lat="43.17257" lon="6.63361">
        <ele>16.2</ele>
        <time>2013-12-01T11:23:32Z</time>
      </trkpt>
      <trkpt lat="43.17258" lon="6.63371">
        <ele>16.4</ele>
        <time>2013-12-01T11:23:38Z</time>
      </trkpt>
      <trkpt lat="43.1726" lon="6.63383">
        <ele>16.9</ele>
        <time>2013-12-01T11:23:45Z</time>
      </trkpt>
      <trkpt lat="43.17262" lon="6.63395">
        <ele>16.6</ele>
        <time>2013-12-01T11:23:53Z</time>
      </trkpt>
      <trkpt lat="43.17263" lon="6.63407">
        <ele>16.6</ele>
        <time>2013-12-01T11:24:01Z</time>
      </trkpt>
      <trkpt lat="43.17266" lon="6.63418">
        <ele>16.5</ele>
        <time>2013-12-01T11:24:09Z</time>
      </trkpt>
      <trkpt lat="43.17266" lon="6.6342">
        <ele>16.2</ele>
        <time>2013-12-01T11:24:10Z</time>
      </trkpt>
      <trkpt lat="43.17269" lon="6.63442">
        <ele>15.9</ele>
        <time>2013-12-01T11:24:24Z</time>
      </trkpt>
      <trkpt lat="43.17271" lon="6.63452">
        <ele>15.9</ele>
        <time>2013-12-01T11:24:31Z</time>
      </trkpt>
      <trkpt lat="43.17272" lon="6.63464">
        <ele>16</ele>
        <time>2013-12-01T11:24:38Z</time>
      </trkpt>
      <trkpt lat="43.17273" lon="6.63475">
        <ele>16.8</ele>
        <time>2013-12-01T11:24:45Z</time>
      </trkpt>
      <trkpt lat="43.17274" lon="6.63486">
        <ele>17.2</ele>
        <time>2013-12-01T11:24:52Z</time>
      </trkpt>
      <trkpt lat="43.17275" lon="6.63497">
        <ele>16</ele>
        <time>2013-12-01T11:24:59Z</time>
      </trkpt>
      <trkpt lat="43.17277" lon="6.63509">
        <ele>15.8</ele>
        <time>2013-12-01T11:25:07Z</time>
      </trkpt>
      <trkpt lat="43.17277" lon="6.63519">
        <ele>16.4</ele>
        <time>2013-12-01T11:25:13Z</time>
      </trkpt>
      <trkpt lat="43.17277" lon="6.63521">
        <ele>16.1</ele>
        <time>2013-12-01T11:25:14Z</time>
      </trkpt>
      <trkpt lat="43.17279" lon="6.63542">
        <ele>17</ele>
        <time>2013-12-01T11:25:27Z</time>
      </trkpt>
      <trkpt lat="43.17279" lon="6.63554">
        <ele>16.7</ele>
        <time>2013-12-01T11:25:35Z</time>
      </trkpt>
      <trkpt lat="43.17281" lon="6.63566">
        <ele>17.2</ele>
        <time>2013-12-01T11:25:44Z</time>
      </trkpt>
      <trkpt lat="43.17279" lon="6.63577">
        <ele>16.8</ele>
        <time>2013-12-01T11:25:54Z</time>
      </trkpt>
      <trkpt lat="43.17278" lon="6.63589">
        <ele>15.8</ele>
        <time>2013-12-01T11:26:04Z</time>
      </trkpt>
      <trkpt lat="43.17276" lon="6.63601">
        <ele>16.7</ele>
        <time>2013-12-01T11:26:16Z</time>
      </trkpt>
      <trkpt lat="43.17276" lon="6.63602">
        <ele>16.8</ele>
        <time>2013-12-01T11:26:17Z</time>
      </trkpt>
      <trkpt lat="43.17273" lon="6.63624">
        <ele>15</ele>
        <time>2013-12-01T11:26:35Z</time>
      </trkpt>
      <trkpt lat="43.17273" lon="6.63635">
        <ele>16</ele>
        <time>2013-12-01T11:26:44Z</time>
      </trkpt>
      <trkpt lat="43.17272" lon="6.63647">
        <ele>14.9</ele>
        <time>2013-12-01T11:26:55Z</time>
      </trkpt>
      <trkpt lat="43.1727" lon="6.63659">
        <ele>14.2</ele>
        <time>2013-12-01T11:27:05Z</time>
      </trkpt>
      <trkpt lat="43.1727" lon="6.63669">
        <ele>13.9</ele>
        <time>2013-12-01T11:27:15Z</time>
      </trkpt>
      <trkpt lat="43.17267" lon="6.6368">
        <ele>14.3</ele>
        <time>2013-12-01T11:27:28Z</time>
      </trkpt>
      <trkpt lat="43.17267" lon="6.63681">
        <ele>14.2</ele>
        <time>2013-12-01T11:27:29Z</time>
      </trkpt>
      <trkpt lat="43.17264" lon="6.63704">
        <ele>16.3</ele>
        <time>2013-12-01T11:28:04Z</time>
      </trkpt>
      <trkpt lat="43.17259" lon="6.63714">
        <ele>16.9</ele>
        <time>2013-12-01T11:28:31Z</time>
      </trkpt>
      <trkpt lat="43.17259" lon="6.63715">
        <ele>17.1</ele>
        <time>2013-12-01T11:28:32Z</time>
      </trkpt>
      <trkpt lat="43.1725" lon="6.63733">
        <ele>18.1</ele>
        <time>2013-12-01T11:28:54Z</time>
      </trkpt>
      <trkpt lat="43.17244" lon="6.63742">
        <ele>19.6</ele>
        <time>2013-12-01T11:29:09Z</time>
      </trkpt>
      <trkpt lat="43.17246" lon="6.63754">
        <ele>20.1</ele>
        <time>2013-12-01T11:29:26Z</time>
      </trkpt>
      <trkpt lat="43.17246" lon="6.63766">
        <ele>22.3</ele>
        <time>2013-12-01T11:30:00Z</time>
      </trkpt>
      <trkpt lat="43.17246" lon="6.63767">
        <ele>22.2</ele>
        <time>2013-12-01T11:30:01Z</time>
      </trkpt>
      <trkpt lat="43.17242" lon="6.63789">
        <ele>22.6</ele>
        <time>2013-12-01T11:30:30Z</time>
      </trkpt>
      <trkpt lat="43.17249" lon="6.63798">
        <ele>22.8</ele>
        <time>2013-12-01T11:30:58Z</time>
      </trkpt>
      <trkpt lat="43.17249" lon="6.6381">
        <ele>22.2</ele>
        <time>2013-12-01T11:31:13Z</time>
      </trkpt>
      <trkpt lat="43.17249" lon="6.6381">
        <ele>22.3</ele>
        <time>2013-12-01T11:31:14Z</time>
      </trkpt>
      <trkpt lat="43.1725" lon="6.63833">
        <ele>26.2</ele>
        <time>2013-12-01T11:31:40Z</time>
      </trkpt>
      <trkpt lat="43.17253" lon="6.63844">
        <ele>24.1</ele>
        <time>2013-12-01T11:32:11Z</time>
      </trkpt>
      <trkpt lat="43.17259" lon="6.63853">
        <ele>23.1</ele>
        <time>2013-12-01T11:32:20Z</time>
      </trkpt>
      <trkpt lat="43.17259" lon="6.63855">
        <ele>23.2</ele>
        <time>2013-12-01T11:32:21Z</time>
      </trkpt>
      <trkpt lat="43.17264" lon="6.63874">
        <ele>22.6</ele>
        <time>2013-12-01T11:32:36Z</time>
      </trkpt>
      <trkpt lat="43.17269" lon="6.63883">
        <ele>21.8</ele>
        <time>2013-12-01T11:32:47Z</time>
      </trkpt>
      <trkpt lat="43.1727" lon="6.63895">
        <ele>19</ele>
        <time>2013-12-01T11:33:01Z</time>
      </trkpt>
      <trkpt lat="43.1727" lon="6.63907">
        <ele>19.9</ele>
        <time>2013-12-01T11:33:10Z</time>
      </trkpt>
      <trkpt lat="43.17274" lon="6.63917">
        <ele>19.2</ele>
        <time>2013-12-01T11:33:18Z</time>
      </trkpt>
      <trkpt lat="43.17279" lon="6.63926">
        <ele>18.8</ele>
        <time>2013-12-01T11:33:26Z</time>
      </trkpt>
      <trkpt lat="43.1728" lon="6.63927">
        <ele>18.7</ele>
        <time>2013-12-01T11:33:27Z</time>
      </trkpt>
      <trkpt lat="43.17294" lon="6.63932">
        <ele>18.9</ele>
        <time>2013-12-01T11:34:04Z</time>
      </trkpt>
      <trkpt lat="43.17289" lon="6.6394">
        <ele>17.9</ele>
        <time>2013-12-01T11:34:22Z</time>
      </trkpt>
      <trkpt lat="43.17281" lon="6.63945">
        <ele>16.9</ele>
        <time>2013-12-01T11:34:30Z</time>
      </trkpt>
      <trkpt lat="43.1728" lon="6.63946">
        <ele>17.1</ele>
        <time>2013-12-01T11:34:31Z</time>
      </trkpt>
      <trkpt lat="43.17267" lon="6.63958">
        <ele>16.7</ele>
        <time>2013-12-01T11:34:46Z</time>
      </trkpt>
      <trkpt lat="43.17259" lon="6.63962">
        <ele>17.2</ele>
        <time>2013-12-01T11:34:54Z</time>
      </trkpt>
      <trkpt lat="43.17253" lon="6.63968">
        <ele>16.7</ele>
        <time>2013-12-01T11:35:01Z</time>
      </trkpt>
      <trkpt lat="43.17246" lon="6.63974">
        <ele>16.9</ele>
        <time>2013-12-01T11:35:09Z</time>
      </trkpt>
      <trkpt lat="43.17241" lon="6.63983">
        <ele>17</ele>
        <time>2013-12-01T11:35:18Z</time>
      </trkpt>
      <trkpt lat="43.17234" lon="6.6399">
        <ele>16.3</ele>
        <time>2013-12-01T11:35:27Z</time>
      </trkpt>
      <trkpt lat="43.17227" lon="6.63997">
        <ele>17.4</ele>
        <time>2013-12-01T11:35:36Z</time>
      </trkpt>
      <trkpt lat="43.17227" lon="6.63998">
        <ele>17.4</ele>
        <time>2013-12-01T11:35:37Z</time>
      </trkpt>
      <trkpt lat="43.17217" lon="6.64015">
        <ele>19.7</ele>
        <time>2013-12-01T11:36:13Z</time>
      </trkpt>
      <trkpt lat="43.17214" lon="6.64025">
        <ele>19</ele>
        <time>2013-12-01T11:36:21Z</time>
      </trkpt>
      <trkpt lat="43.17212" lon="6.64035">
        <ele>20</ele>
        <time>2013-12-01T11:36:28Z</time>
      </trkpt>
      <trkpt lat="43.17212" lon="6.64046">
        <ele>19.7</ele>
        <time>2013-12-01T11:36:35Z</time>
      </trkpt>
      <trkpt lat="43.17213" lon="6.64058">
        <ele>20.3</ele>
        <time>2013-12-01T11:36:43Z</time>
      </trkpt>
      <trkpt lat="43.17214" lon="6.64059">
        <ele>20.4</ele>
        <time>2013-12-01T11:36:44Z</time>
      </trkpt>
      <trkpt lat="43.1721" lon="6.64081">
        <ele>20.1</ele>
        <time>2013-12-01T11:37:06Z</time>
      </trkpt>
      <trkpt lat="43.17202" lon="6.64087">
        <ele>20.9</ele>
        <time>2013-12-01T11:37:16Z</time>
      </trkpt>
      <trkpt lat="43.17196" lon="6.6408">
        <ele>20.7</ele>
        <time>2013-12-01T11:37:28Z</time>
      </trkpt>
      <trkpt lat="43.17193" lon="6.64068">
        <ele>18.8</ele>
        <time>2013-12-01T11:37:41Z</time>
      </trkpt>
      <trkpt lat="43.17185" lon="6.64073">
        <ele>18.3</ele>
        <time>2013-12-01T11:37:50Z</time>
      </trkpt>
      <trkpt lat="43.17184" lon="6.64074">
        <ele>18.1</ele>
        <time>2013-12-01T11:37:51Z</time>
      </trkpt>
      <trkpt lat="43.17172" lon="6.64088">
        <ele>18</ele>
        <time>2013-12-01T11:38:07Z</time>
      </trkpt>
      <trkpt lat="43.17164" lon="6.64093">
        <ele>16.9</ele>
        <time>2013-12-01T11:43:49Z</time>
      </trkpt>
      <trkpt lat="43.17164" lon="6.64094">
        <ele>17.1</ele>
        <time>2013-12-01T11:43:50Z</time>
      </trkpt>
      <trkpt lat="43.17173" lon="6.64093">
        <ele>13.1</ele>
        <time>2013-12-01T12:08:14Z</time>
      </trkpt>
      <trkpt lat="43.17167" lon="6.64102">
        <ele>5</ele>
        <time>2013-12-01T12:23:21Z</time>
      </trkpt>
      <trkpt lat="43.17162" lon="6.6409">
        <ele>4.6</ele>
        <time>2013-12-01T12:26:56Z</time>
      </trkpt>
      <trkpt lat="43.17171" lon="6.64088">
        <ele>5.7</ele>
        <time>2013-12-01T12:35:17Z</time>
      </trkpt>
      <trkpt lat="43.17179" lon="6.64096">
        <ele>8</ele>
        <time>2013-12-01T12:41:26Z</time>
      </trkpt>
      <trkpt lat="43.17196" lon="6.64092">
        <ele>9.7</ele>
        <time>2013-12-01T12:41:47Z</time>
      </trkpt>
      <trkpt lat="43.17204" lon="6.64095">
        <ele>10.1</ele>
        <time>2013-12-01T12:42:03Z</time>
      </trkpt>
      <trkpt lat="43.17212" lon="6.64101">
        <ele>10.5</ele>
        <time>2013-12-01T12:42:16Z</time>
      </trkpt>
      <trkpt lat="43.17218" lon="6.64092">
        <ele>11.1</ele>
        <time>2013-12-01T12:42:36Z</time>
      </trkpt>
      <trkpt lat="43.17218" lon="6.64091">
        <ele>11</ele>
        <time>2013-12-01T12:42:37Z</time>
      </trkpt>
      <trkpt lat="43.17227" lon="6.64071">
        <ele>9.1</ele>
        <time>2013-12-01T12:42:58Z</time>
      </trkpt>
      <trkpt lat="43.17228" lon="6.6406">
        <ele>8.4</ele>
        <time>2013-12-01T12:43:08Z</time>
      </trkpt>
      <trkpt lat="43.17234" lon="6.64052">
        <ele>5.6</ele>
        <time>2013-12-01T12:43:36Z</time>
      </trkpt>
      <trkpt lat="43.17231" lon="6.64041">
        <ele>4.7</ele>
        <time>2013-12-01T12:43:53Z</time>
      </trkpt>
      <trkpt lat="43.17231" lon="6.64039">
        <ele>4.8</ele>
        <time>2013-12-01T12:43:54Z</time>
      </trkpt>
      <trkpt lat="43.17233" lon="6.64019">
        <ele>4.7</ele>
        <time>2013-12-01T12:44:12Z</time>
      </trkpt>
      <trkpt lat="43.17237" lon="6.64008">
        <ele>4.8</ele>
        <time>2013-12-01T12:44:20Z</time>
      </trkpt>
      <trkpt lat="43.17238" lon="6.63996">
        <ele>5.1</ele>
        <time>2013-12-01T12:44:33Z</time>
      </trkpt>
      <trkpt lat="43.17245" lon="6.63988">
        <ele>5.1</ele>
        <time>2013-12-01T12:44:44Z</time>
      </trkpt>
      <trkpt lat="43.1725" lon="6.6398">
        <ele>5.2</ele>
        <time>2013-12-01T12:45:16Z</time>
      </trkpt>
      <trkpt lat="43.17251" lon="6.63978">
        <ele>5.1</ele>
        <time>2013-12-01T12:45:17Z</time>
      </trkpt>
      <trkpt lat="43.17264" lon="6.63965">
        <ele>5.1</ele>
        <time>2013-12-01T12:45:34Z</time>
      </trkpt>
      <trkpt lat="43.17272" lon="6.63961">
        <ele>5.1</ele>
        <time>2013-12-01T12:45:44Z</time>
      </trkpt>
      <trkpt lat="43.17279" lon="6.63955">
        <ele>4.8</ele>
        <time>2013-12-01T12:45:53Z</time>
      </trkpt>
      <trkpt lat="43.17285" lon="6.63946">
        <ele>5.2</ele>
        <time>2013-12-01T12:46:01Z</time>
      </trkpt>
      <trkpt lat="43.17293" lon="6.63943">
        <ele>7</ele>
        <time>2013-12-01T12:46:11Z</time>
      </trkpt>
      <trkpt lat="43.17299" lon="6.63937">
        <ele>8</ele>
        <time>2013-12-01T12:46:26Z</time>
      </trkpt>
      <trkpt lat="43.173" lon="6.63935">
        <ele>8</ele>
        <time>2013-12-01T12:46:27Z</time>
      </trkpt>
      <trkpt lat="43.17313" lon="6.63926">
        <ele>9</ele>
        <time>2013-12-01T12:46:45Z</time>
      </trkpt>
      <trkpt lat="43.1732" lon="6.6392">
        <ele>10.7</ele>
        <time>2013-12-01T12:46:51Z</time>
      </trkpt>
      <trkpt lat="43.17328" lon="6.63913">
        <ele>11.6</ele>
        <time>2013-12-01T12:47:01Z</time>
      </trkpt>
      <trkpt lat="43.17335" lon="6.63917">
        <ele>12.2</ele>
        <time>2013-12-01T12:47:12Z</time>
      </trkpt>
      <trkpt lat="43.17342" lon="6.63923">
        <ele>12.1</ele>
        <time>2013-12-01T12:47:19Z</time>
      </trkpt>
      <trkpt lat="43.1735" lon="6.63923">
        <ele>11.3</ele>
        <time>2013-12-01T12:47:26Z</time>
      </trkpt>
      <trkpt lat="43.17357" lon="6.63926">
        <ele>11.1</ele>
        <time>2013-12-01T12:47:33Z</time>
      </trkpt>
      <trkpt lat="43.17358" lon="6.63928">
        <ele>11</ele>
        <time>2013-12-01T12:47:34Z</time>
      </trkpt>
      <trkpt lat="43.17373" lon="6.63938">
        <ele>10</ele>
        <time>2013-12-01T12:47:50Z</time>
      </trkpt>
      <trkpt lat="43.17381" lon="6.63941">
        <ele>10.8</ele>
        <time>2013-12-01T12:47:59Z</time>
      </trkpt>
      <trkpt lat="43.17388" lon="6.63947">
        <ele>9.3</ele>
        <time>2013-12-01T12:48:08Z</time>
      </trkpt>
      <trkpt lat="43.17393" lon="6.63957">
        <ele>10.1</ele>
        <time>2013-12-01T12:48:16Z</time>
      </trkpt>
      <trkpt lat="43.17401" lon="6.63962">
        <ele>9.4</ele>
        <time>2013-12-01T12:48:36Z</time>
      </trkpt>
      <trkpt lat="43.17402" lon="6.63962">
        <ele>9.4</ele>
        <time>2013-12-01T12:48:37Z</time>
      </trkpt>
      <trkpt lat="43.17414" lon="6.63971">
        <ele>10.7</ele>
        <time>2013-12-01T12:48:51Z</time>
      </trkpt>
      <trkpt lat="43.17421" lon="6.63978">
        <ele>10.7</ele>
        <time>2013-12-01T12:48:59Z</time>
      </trkpt>
      <trkpt lat="43.17428" lon="6.63982">
        <ele>12.1</ele>
        <time>2013-12-01T12:49:07Z</time>
      </trkpt>
      <trkpt lat="43.17435" lon="6.63989">
        <ele>12.9</ele>
        <time>2013-12-01T12:49:12Z</time>
      </trkpt>
      <trkpt lat="43.17443" lon="6.63991">
        <ele>12</ele>
        <time>2013-12-01T12:50:49Z</time>
      </trkpt>
      <trkpt lat="43.17444" lon="6.63992">
        <ele>11.9</ele>
        <time>2013-12-01T12:50:50Z</time>
      </trkpt>
      <trkpt lat="43.17459" lon="6.63987">
        <ele>11.9</ele>
        <time>2013-12-01T12:51:05Z</time>
      </trkpt>
      <trkpt lat="43.17467" lon="6.63986">
        <ele>12</ele>
        <time>2013-12-01T12:51:11Z</time>
      </trkpt>
      <trkpt lat="43.17475" lon="6.63984">
        <ele>11.3</ele>
        <time>2013-12-01T12:51:19Z</time>
      </trkpt>
      <trkpt lat="43.17484" lon="6.63983">
        <ele>11.1</ele>
        <time>2013-12-01T12:51:25Z</time>
      </trkpt>
      <trkpt lat="43.17492" lon="6.63982">
        <ele>10.7</ele>
        <time>2013-12-01T12:51:31Z</time>
      </trkpt>
      <trkpt lat="43.175" lon="6.63984">
        <ele>11.4</ele>
        <time>2013-12-01T12:51:39Z</time>
      </trkpt>
      <trkpt lat="43.17508" lon="6.63988">
        <ele>11.1</ele>
        <time>2013-12-01T12:51:46Z</time>
      </trkpt>
      <trkpt lat="43.17515" lon="6.63993">
        <ele>12.1</ele>
        <time>2013-12-01T12:51:52Z</time>
      </trkpt>
      <trkpt lat="43.17517" lon="6.63993">
        <ele>12.2</ele>
        <time>2013-12-01T12:51:53Z</time>
      </trkpt>
      <trkpt lat="43.17532" lon="6.63993">
        <ele>13.2</ele>
        <time>2013-12-01T12:52:13Z</time>
      </trkpt>
      <trkpt lat="43.1754" lon="6.63999">
        <ele>13.6</ele>
        <time>2013-12-01T12:52:22Z</time>
      </trkpt>
      <trkpt lat="43.17548" lon="6.63996">
        <ele>14.1</ele>
        <time>2013-12-01T12:52:32Z</time>
      </trkpt>
      <trkpt lat="43.17554" lon="6.63987">
        <ele>15</ele>
        <time>2013-12-01T12:52:40Z</time>
      </trkpt>
      <trkpt lat="43.17557" lon="6.63977">
        <ele>14.9</ele>
        <time>2013-12-01T12:52:50Z</time>
      </trkpt>
      <trkpt lat="43.17562" lon="6.63966">
        <ele>16.9</ele>
        <time>2013-12-01T12:52:59Z</time>
      </trkpt>
      <trkpt lat="43.17562" lon="6.63966">
        <ele>17.2</ele>
        <time>2013-12-01T12:53:00Z</time>
      </trkpt>
      <trkpt lat="43.17573" lon="6.63947">
        <ele>20.6</ele>
        <time>2013-12-01T12:53:19Z</time>
      </trkpt>
      <trkpt lat="43.17578" lon="6.6394">
        <ele>21.9</ele>
        <time>2013-12-01T12:53:28Z</time>
      </trkpt>
      <trkpt lat="43.17584" lon="6.63931">
        <ele>23.5</ele>
        <time>2013-12-01T12:53:35Z</time>
      </trkpt>
      <trkpt lat="43.1759" lon="6.63924">
        <ele>24.2</ele>
        <time>2013-12-01T12:53:44Z</time>
      </trkpt>
      <trkpt lat="43.17596" lon="6.63915">
        <ele>25.6</ele>
        <time>2013-12-01T12:53:53Z</time>
      </trkpt>
      <trkpt lat="43.17603" lon="6.63907">
        <ele>27.2</ele>
        <time>2013-12-01T12:54:02Z</time>
      </trkpt>
      <trkpt lat="43.17603" lon="6.63906">
        <ele>27.3</ele>
        <time>2013-12-01T12:54:03Z</time>
      </trkpt>
      <trkpt lat="43.17613" lon="6.63887">
        <ele>29</ele>
        <time>2013-12-01T12:54:21Z</time>
      </trkpt>
      <trkpt lat="43.17617" lon="6.63876">
        <ele>30.2</ele>
        <time>2013-12-01T12:54:31Z</time>
      </trkpt>
      <trkpt lat="43.17622" lon="6.63866">
        <ele>32.6</ele>
        <time>2013-12-01T12:54:40Z</time>
      </trkpt>
      <trkpt lat="43.17627" lon="6.63856">
        <ele>33.2</ele>
        <time>2013-12-01T12:54:46Z</time>
      </trkpt>
      <trkpt lat="43.17629" lon="6.63846">
        <ele>33.4</ele>
        <time>2013-12-01T12:54:56Z</time>
      </trkpt>
      <trkpt lat="43.17631" lon="6.63835">
        <ele>34.6</ele>
        <time>2013-12-01T12:55:06Z</time>
      </trkpt>
      <trkpt lat="43.1763" lon="6.63833">
        <ele>34.8</ele>
        <time>2013-12-01T12:55:07Z</time>
      </trkpt>
      <trkpt lat="43.17635" lon="6.63813">
        <ele>35.9</ele>
        <time>2013-12-01T12:55:41Z</time>
      </trkpt>
      <trkpt lat="43.17638" lon="6.63802">
        <ele>37.3</ele>
        <time>2013-12-01T12:55:50Z</time>
      </trkpt>
      <trkpt lat="43.1764" lon="6.63791">
        <ele>37.8</ele>
        <time>2013-12-01T12:55:57Z</time>
      </trkpt>
      <trkpt lat="43.17642" lon="6.6378">
        <ele>37.9</ele>
        <time>2013-12-01T12:56:03Z</time>
      </trkpt>
      <trkpt lat="43.17645" lon="6.63768">
        <ele>38</ele>
        <time>2013-12-01T12:56:10Z</time>
      </trkpt>
      <trkpt lat="43.17645" lon="6.63767">
        <ele>38</ele>
        <time>2013-12-01T12:56:11Z</time>
      </trkpt>
      <trkpt lat="43.17648" lon="6.63747">
        <ele>37.4</ele>
        <time>2013-12-01T12:56:23Z</time>
      </trkpt>
      <trkpt lat="43.17649" lon="6.63735">
        <ele>38.4</ele>
        <time>2013-12-01T12:56:28Z</time>
      </trkpt>
      <trkpt lat="43.17651" lon="6.63723">
        <ele>38.4</ele>
        <time>2013-12-01T12:56:35Z</time>
      </trkpt>
      <trkpt lat="43.17653" lon="6.63714">
        <ele>38.4</ele>
        <time>2013-12-01T12:56:41Z</time>
      </trkpt>
      <trkpt lat="43.17656" lon="6.63702">
        <ele>38.8</ele>
        <time>2013-12-01T12:56:49Z</time>
      </trkpt>
      <trkpt lat="43.17659" lon="6.63692">
        <ele>39.8</ele>
        <time>2013-12-01T12:56:55Z</time>
      </trkpt>
      <trkpt lat="43.17663" lon="6.6368">
        <ele>40.9</ele>
        <time>2013-12-01T12:57:04Z</time>
      </trkpt>
      <trkpt lat="43.17667" lon="6.6367">
        <ele>41.9</ele>
        <time>2013-12-01T12:57:14Z</time>
      </trkpt>
      <trkpt lat="43.17668" lon="6.63668">
        <ele>41.6</ele>
        <time>2013-12-01T12:57:15Z</time>
      </trkpt>
      <trkpt lat="43.17676" lon="6.63652">
        <ele>42.5</ele>
        <time>2013-12-01T12:57:28Z</time>
      </trkpt>
      <trkpt lat="43.1768" lon="6.63644">
        <ele>44.4</ele>
        <time>2013-12-01T12:57:37Z</time>
      </trkpt>
      <trkpt lat="43.17686" lon="6.63635">
        <ele>45.5</ele>
        <time>2013-12-01T12:57:47Z</time>
      </trkpt>
      <trkpt lat="43.17689" lon="6.63624">
        <ele>46.1</ele>
        <time>2013-12-01T12:57:55Z</time>
      </trkpt>
      <trkpt lat="43.17694" lon="6.63615">
        <ele>46.5</ele>
        <time>2013-12-01T12:58:01Z</time>
      </trkpt>
      <trkpt lat="43.17698" lon="6.63606">
        <ele>47.2</ele>
        <time>2013-12-01T12:58:09Z</time>
      </trkpt>
      <trkpt lat="43.17703" lon="6.63596">
        <ele>49.3</ele>
        <time>2013-12-01T12:58:18Z</time>
      </trkpt>
      <trkpt lat="43.17704" lon="6.63595">
        <ele>49.5</ele>
        <time>2013-12-01T12:58:19Z</time>
      </trkpt>
      <trkpt lat="43.17713" lon="6.63577">
        <ele>50.2</ele>
        <time>2013-12-01T12:58:37Z</time>
      </trkpt>
      <trkpt lat="43.17719" lon="6.63568">
        <ele>50.3</ele>
        <time>2013-12-01T12:58:46Z</time>
      </trkpt>
      <trkpt lat="43.17723" lon="6.63558">
        <ele>51.2</ele>
        <time>2013-12-01T12:58:55Z</time>
      </trkpt>
      <trkpt lat="43.17727" lon="6.63547">
        <ele>52.3</ele>
        <time>2013-12-01T12:59:02Z</time>
      </trkpt>
      <trkpt lat="43.1773" lon="6.63536">
        <ele>52.4</ele>
        <time>2013-12-01T12:59:09Z</time>
      </trkpt>
      <trkpt lat="43.17733" lon="6.63525">
        <ele>52.2</ele>
        <time>2013-12-01T12:59:20Z</time>
      </trkpt>
      <trkpt lat="43.17734" lon="6.63524">
        <ele>52.2</ele>
        <time>2013-12-01T12:59:21Z</time>
      </trkpt>
      <trkpt lat="43.17743" lon="6.6351">
        <ele>53</ele>
        <time>2013-12-01T12:59:33Z</time>
      </trkpt>
      <trkpt lat="43.17749" lon="6.63501">
        <ele>53.4</ele>
        <time>2013-12-01T12:59:39Z</time>
      </trkpt>
      <trkpt lat="43.17755" lon="6.63494">
        <ele>53.4</ele>
        <time>2013-12-01T12:59:46Z</time>
      </trkpt>
      <trkpt lat="43.17763" lon="6.63489">
        <ele>54.2</ele>
        <time>2013-12-01T12:59:54Z</time>
      </trkpt>
      <trkpt lat="43.1777" lon="6.63482">
        <ele>54.4</ele>
        <time>2013-12-01T13:00:02Z</time>
      </trkpt>
      <trkpt lat="43.17777" lon="6.63476">
        <ele>54.2</ele>
        <time>2013-12-01T13:00:11Z</time>
      </trkpt>
      <trkpt lat="43.17785" lon="6.63479">
        <ele>54.3</ele>
        <time>2013-12-01T13:00:19Z</time>
      </trkpt>
      <trkpt lat="43.17793" lon="6.6348">
        <ele>54.4</ele>
        <time>2013-12-01T13:00:26Z</time>
      </trkpt>
      <trkpt lat="43.17795" lon="6.63479">
        <ele>54.5</ele>
        <time>2013-12-01T13:00:27Z</time>
      </trkpt>
      <trkpt lat="43.17793" lon="6.63479">
        <ele>57</ele>
        <time>2013-12-01T13:01:21Z</time>
      </trkpt>
      <trkpt lat="43.17799" lon="6.6347">
        <ele>55.9</ele>
        <time>2013-12-01T13:01:41Z</time>
      </trkpt>
      <trkpt lat="43.17799" lon="6.63469">
        <ele>55.7</ele>
        <time>2013-12-01T13:01:42Z</time>
      </trkpt>
      <trkpt lat="43.17808" lon="6.6347">
        <ele>55.9</ele>
        <time>2013-12-01T13:04:07Z</time>
      </trkpt>
      <trkpt lat="43.17821" lon="6.63457">
        <ele>55.8</ele>
        <time>2013-12-01T13:04:22Z</time>
      </trkpt>
      <trkpt lat="43.17826" lon="6.6345">
        <ele>55.5</ele>
        <time>2013-12-01T13:04:31Z</time>
      </trkpt>
      <trkpt lat="43.17831" lon="6.6344">
        <ele>55.7</ele>
        <time>2013-12-01T13:04:38Z</time>
      </trkpt>
      <trkpt lat="43.17836" lon="6.63431">
        <ele>56.2</ele>
        <time>2013-12-01T13:04:46Z</time>
      </trkpt>
      <trkpt lat="43.1784" lon="6.63421">
        <ele>55.8</ele>
        <time>2013-12-01T13:04:53Z</time>
      </trkpt>
      <trkpt lat="43.17844" lon="6.63411">
        <ele>54.8</ele>
        <time>2013-12-01T13:04:58Z</time>
      </trkpt>
      <trkpt lat="43.17846" lon="6.63401">
        <ele>54.9</ele>
        <time>2013-12-01T13:05:02Z</time>
      </trkpt>
      <trkpt lat="43.17855" lon="6.63396">
        <ele>54.8</ele>
        <time>2013-12-01T13:05:09Z</time>
      </trkpt>
      <trkpt lat="43.17856" lon="6.63395">
        <ele>55</ele>
        <time>2013-12-01T13:05:10Z</time>
      </trkpt>
      <trkpt lat="43.17871" lon="6.63395">
        <ele>56.1</ele>
        <time>2013-12-01T13:05:31Z</time>
      </trkpt>
      <trkpt lat="43.17878" lon="6.63388">
        <ele>56.6</ele>
        <time>2013-12-01T13:05:36Z</time>
      </trkpt>
      <trkpt lat="43.17884" lon="6.63381">
        <ele>56.6</ele>
        <time>2013-12-01T13:05:44Z</time>
      </trkpt>
      <trkpt lat="43.17891" lon="6.63374">
        <ele>56.9</ele>
        <time>2013-12-01T13:05:52Z</time>
      </trkpt>
      <trkpt lat="43.17898" lon="6.63367">
        <ele>55.9</ele>
        <time>2013-12-01T13:06:01Z</time>
      </trkpt>
      <trkpt lat="43.17903" lon="6.63358">
        <ele>55.4</ele>
        <time>2013-12-01T13:06:08Z</time>
      </trkpt>
      <trkpt lat="43.17909" lon="6.6335">
        <ele>55.2</ele>
        <time>2013-12-01T13:06:14Z</time>
      </trkpt>
      <trkpt lat="43.1791" lon="6.63349">
        <ele>53.8</ele>
        <time>2013-12-01T13:06:15Z</time>
      </trkpt>
      <trkpt lat="43.17922" lon="6.63335">
        <ele>55.1</ele>
        <time>2013-12-01T13:06:30Z</time>
      </trkpt>
      <trkpt lat="43.17928" lon="6.63327">
        <ele>54.1</ele>
        <time>2013-12-01T13:06:36Z</time>
      </trkpt>
      <trkpt lat="43.17935" lon="6.6332">
        <ele>53.4</ele>
        <time>2013-12-01T13:06:44Z</time>
      </trkpt>
      <trkpt lat="43.17941" lon="6.63312">
        <ele>54.2</ele>
        <time>2013-12-01T13:06:52Z</time>
      </trkpt>
      <trkpt lat="43.17948" lon="6.63306">
        <ele>54.9</ele>
        <time>2013-12-01T13:06:57Z</time>
      </trkpt>
      <trkpt lat="43.17953" lon="6.63297">
        <ele>55.5</ele>
        <time>2013-12-01T13:07:07Z</time>
      </trkpt>
      <trkpt lat="43.17959" lon="6.63288">
        <ele>55.9</ele>
        <time>2013-12-01T13:07:16Z</time>
      </trkpt>
      <trkpt lat="43.1796" lon="6.63288">
        <ele>56.1</ele>
        <time>2013-12-01T13:07:17Z</time>
      </trkpt>
      <trkpt lat="43.17976" lon="6.6328">
        <ele>58.1</ele>
        <time>2013-12-01T13:07:38Z</time>
      </trkpt>
      <trkpt lat="43.17984" lon="6.63276">
        <ele>60.5</ele>
        <time>2013-12-01T13:07:48Z</time>
      </trkpt>
      <trkpt lat="43.17992" lon="6.63275">
        <ele>60.7</ele>
        <time>2013-12-01T13:07:56Z</time>
      </trkpt>
      <trkpt lat="43.18" lon="6.63272">
        <ele>61.3</ele>
        <time>2013-12-01T13:08:03Z</time>
      </trkpt>
      <trkpt lat="43.18006" lon="6.63263">
        <ele>61.6</ele>
        <time>2013-12-01T13:08:11Z</time>
      </trkpt>
      <trkpt lat="43.18013" lon="6.63255">
        <ele>60.6</ele>
        <time>2013-12-01T13:08:30Z</time>
      </trkpt>
      <trkpt lat="43.18013" lon="6.63255">
        <ele>61.2</ele>
        <time>2013-12-01T13:08:31Z</time>
      </trkpt>
      <trkpt lat="43.18027" lon="6.63245">
        <ele>60.6</ele>
        <time>2013-12-01T13:08:45Z</time>
      </trkpt>
      <trkpt lat="43.18032" lon="6.63239">
        <ele>60.5</ele>
        <time>2013-12-01T13:08:50Z</time>
      </trkpt>
      <trkpt lat="43.18038" lon="6.63232">
        <ele>59.1</ele>
        <time>2013-12-01T13:08:58Z</time>
      </trkpt>
      <trkpt lat="43.18046" lon="6.63227">
        <ele>59.3</ele>
        <time>2013-12-01T13:09:06Z</time>
      </trkpt>
      <trkpt lat="43.18052" lon="6.63219">
        <ele>58.5</ele>
        <time>2013-12-01T13:09:13Z</time>
      </trkpt>
      <trkpt lat="43.18059" lon="6.63213">
        <ele>56.8</ele>
        <time>2013-12-01T13:09:26Z</time>
      </trkpt>
      <trkpt lat="43.18065" lon="6.63204">
        <ele>54.3</ele>
        <time>2013-12-01T13:09:36Z</time>
      </trkpt>
      <trkpt lat="43.18066" lon="6.63203">
        <ele>54</ele>
        <time>2013-12-01T13:09:37Z</time>
      </trkpt>
      <trkpt lat="43.18076" lon="6.63186">
        <ele>51.2</ele>
        <time>2013-12-01T13:09:48Z</time>
      </trkpt>
      <trkpt lat="43.1808" lon="6.63175">
        <ele>50.8</ele>
        <time>2013-12-01T13:09:54Z</time>
      </trkpt>
      <trkpt lat="43.18084" lon="6.63166">
        <ele>50.2</ele>
        <time>2013-12-01T13:09:59Z</time>
      </trkpt>
      <trkpt lat="43.18089" lon="6.63156">
        <ele>48.6</ele>
        <time>2013-12-01T13:10:08Z</time>
      </trkpt>
      <trkpt lat="43.18094" lon="6.63149">
        <ele>48.7</ele>
        <time>2013-12-01T13:10:12Z</time>
      </trkpt>
      <trkpt lat="43.18096" lon="6.63139">
        <ele>48.3</ele>
        <time>2013-12-01T13:10:18Z</time>
      </trkpt>
      <trkpt lat="43.181" lon="6.63129">
        <ele>47.5</ele>
        <time>2013-12-01T13:10:22Z</time>
      </trkpt>
      <trkpt lat="43.18104" lon="6.6312">
        <ele>47.8</ele>
        <time>2013-12-01T13:10:30Z</time>
      </trkpt>
      <trkpt lat="43.18109" lon="6.6311">
        <ele>46.7</ele>
        <time>2013-12-01T13:10:38Z</time>
      </trkpt>
      <trkpt lat="43.18109" lon="6.63108">
        <ele>46.6</ele>
        <time>2013-12-01T13:10:39Z</time>
      </trkpt>
      <trkpt lat="43.18117" lon="6.63089">
        <ele>48</ele>
        <time>2013-12-01T13:10:54Z</time>
      </trkpt>
      <trkpt lat="43.18121" lon="6.63081">
        <ele>47.4</ele>
        <time>2013-12-01T13:10:58Z</time>
      </trkpt>
      <trkpt lat="43.18124" lon="6.63071">
        <ele>47</ele>
        <time>2013-12-01T13:11:03Z</time>
      </trkpt>
      <trkpt lat="43.18128" lon="6.63062">
        <ele>46.6</ele>
        <time>2013-12-01T13:11:10Z</time>
      </trkpt>
      <trkpt lat="43.18131" lon="6.6305">
        <ele>44.7</ele>
        <time>2013-12-01T13:11:20Z</time>
      </trkpt>
      <trkpt lat="43.18134" lon="6.63041">
        <ele>43.1</ele>
        <time>2013-12-01T13:11:24Z</time>
      </trkpt>
      <trkpt lat="43.18138" lon="6.63031">
        <ele>44.2</ele>
        <time>2013-12-01T13:11:31Z</time>
      </trkpt>
      <trkpt lat="43.18142" lon="6.63022">
        <ele>43.7</ele>
        <time>2013-12-01T13:11:36Z</time>
      </trkpt>
      <trkpt lat="43.18148" lon="6.63013">
        <ele>43.4</ele>
        <time>2013-12-01T13:11:43Z</time>
      </trkpt>
      <trkpt lat="43.18148" lon="6.63011">
        <ele>43.7</ele>
        <time>2013-12-01T13:11:44Z</time>
      </trkpt>
      <trkpt lat="43.1816" lon="6.62997">
        <ele>42.4</ele>
        <time>2013-12-01T13:11:58Z</time>
      </trkpt>
      <trkpt lat="43.18167" lon="6.6299">
        <ele>42.3</ele>
        <time>2013-12-01T13:12:06Z</time>
      </trkpt>
      <trkpt lat="43.18175" lon="6.62985">
        <ele>41.9</ele>
        <time>2013-12-01T13:12:10Z</time>
      </trkpt>
      <trkpt lat="43.18181" lon="6.62977">
        <ele>41.1</ele>
        <time>2013-12-01T13:12:18Z</time>
      </trkpt>
      <trkpt lat="43.18188" lon="6.6297">
        <ele>40.6</ele>
        <time>2013-12-01T13:12:27Z</time>
      </trkpt>
      <trkpt lat="43.18196" lon="6.62966">
        <ele>40.1</ele>
        <time>2013-12-01T13:12:34Z</time>
      </trkpt>
      <trkpt lat="43.18204" lon="6.62967">
        <ele>39</ele>
        <time>2013-12-01T13:12:41Z</time>
      </trkpt>
      <trkpt lat="43.18213" lon="6.62969">
        <ele>38.3</ele>
        <time>2013-12-01T13:12:49Z</time>
      </trkpt>
      <trkpt lat="43.18214" lon="6.62969">
        <ele>38.4</ele>
        <time>2013-12-01T13:12:50Z</time>
      </trkpt>
      <trkpt lat="43.18227" lon="6.62955">
        <ele>36.7</ele>
        <time>2013-12-01T13:13:07Z</time>
      </trkpt>
      <trkpt lat="43.18229" lon="6.62943">
        <ele>36.4</ele>
        <time>2013-12-01T13:13:13Z</time>
      </trkpt>
      <trkpt lat="43.18233" lon="6.62934">
        <ele>35.6</ele>
        <time>2013-12-01T13:13:19Z</time>
      </trkpt>
      <trkpt lat="43.1824" lon="6.62929">
        <ele>35.7</ele>
        <time>2013-12-01T13:13:28Z</time>
      </trkpt>
      <trkpt lat="43.18247" lon="6.62934">
        <ele>35.6</ele>
        <time>2013-12-01T13:13:36Z</time>
      </trkpt>
      <trkpt lat="43.18256" lon="6.62938">
        <ele>36.5</ele>
        <time>2013-12-01T13:13:44Z</time>
      </trkpt>
      <trkpt lat="43.18264" lon="6.6294">
        <ele>37.3</ele>
        <time>2013-12-01T13:13:51Z</time>
      </trkpt>
      <trkpt lat="43.18265" lon="6.6294">
        <ele>37.1</ele>
        <time>2013-12-01T13:13:52Z</time>
      </trkpt>
      <trkpt lat="43.18281" lon="6.62933">
        <ele>38.3</ele>
        <time>2013-12-01T13:14:10Z</time>
      </trkpt>
      <trkpt lat="43.18289" lon="6.62933">
        <ele>39.2</ele>
        <time>2013-12-01T13:14:21Z</time>
      </trkpt>
      <trkpt lat="43.18298" lon="6.62935">
        <ele>39.9</ele>
        <time>2013-12-01T13:14:29Z</time>
      </trkpt>
      <trkpt lat="43.18304" lon="6.62941">
        <ele>39.9</ele>
        <time>2013-12-01T13:14:37Z</time>
      </trkpt>
      <trkpt lat="43.18312" lon="6.62943">
        <ele>40.1</ele>
        <time>2013-12-01T13:14:43Z</time>
      </trkpt>
      <trkpt lat="43.1832" lon="6.62946">
        <ele>40.6</ele>
        <time>2013-12-01T13:14:50Z</time>
      </trkpt>
      <trkpt lat="43.18328" lon="6.62945">
        <ele>40.5</ele>
        <time>2013-12-01T13:14:56Z</time>
      </trkpt>
      <trkpt lat="43.18329" lon="6.62945">
        <ele>40.7</ele>
        <time>2013-12-01T13:14:57Z</time>
      </trkpt>
      <trkpt lat="43.18344" lon="6.62954">
        <ele>40.8</ele>
        <time>2013-12-01T13:15:10Z</time>
      </trkpt>
      <trkpt lat="43.18352" lon="6.62953">
        <ele>41.7</ele>
        <time>2013-12-01T13:15:20Z</time>
      </trkpt>
      <trkpt lat="43.1836" lon="6.62954">
        <ele>41.8</ele>
        <time>2013-12-01T13:15:27Z</time>
      </trkpt>
      <trkpt lat="43.18368" lon="6.62954">
        <ele>41.2</ele>
        <time>2013-12-01T13:15:34Z</time>
      </trkpt>
      <trkpt lat="43.18377" lon="6.62952">
        <ele>41.7</ele>
        <time>2013-12-01T13:15:41Z</time>
      </trkpt>
      <trkpt lat="43.18385" lon="6.62948">
        <ele>41.8</ele>
        <time>2013-12-01T13:15:47Z</time>
      </trkpt>
      <trkpt lat="43.18393" lon="6.62945">
        <ele>41.4</ele>
        <time>2013-12-01T13:15:54Z</time>
      </trkpt>
      <trkpt lat="43.18402" lon="6.62945">
        <ele>42.1</ele>
        <time>2013-12-01T13:16:01Z</time>
      </trkpt>
      <trkpt lat="43.18403" lon="6.62944">
        <ele>42.1</ele>
        <time>2013-12-01T13:16:02Z</time>
      </trkpt>
      <trkpt lat="43.18418" lon="6.62949">
        <ele>42.8</ele>
        <time>2013-12-01T13:16:19Z</time>
      </trkpt>
      <trkpt lat="43.18424" lon="6.62954">
        <ele>44.1</ele>
        <time>2013-12-01T13:16:26Z</time>
      </trkpt>
      <trkpt lat="43.18432" lon="6.62956">
        <ele>43.6</ele>
        <time>2013-12-01T13:16:33Z</time>
      </trkpt>
      <trkpt lat="43.18441" lon="6.62954">
        <ele>43.7</ele>
        <time>2013-12-01T13:16:41Z</time>
      </trkpt>
      <trkpt lat="43.18449" lon="6.62958">
        <ele>44.4</ele>
        <time>2013-12-01T13:16:48Z</time>
      </trkpt>
      <trkpt lat="43.18456" lon="6.62955">
        <ele>44.7</ele>
        <time>2013-12-01T13:16:55Z</time>
      </trkpt>
      <trkpt lat="43.18464" lon="6.62949">
        <ele>44.2</ele>
        <time>2013-12-01T13:17:01Z</time>
      </trkpt>
      <trkpt lat="43.18471" lon="6.62944">
        <ele>44.8</ele>
        <time>2013-12-01T13:17:08Z</time>
      </trkpt>
      <trkpt lat="43.18472" lon="6.62943">
        <ele>44.9</ele>
        <time>2013-12-01T13:17:09Z</time>
      </trkpt>
      <trkpt lat="43.18487" lon="6.62941">
        <ele>46.5</ele>
        <time>2013-12-01T13:17:23Z</time>
      </trkpt>
      <trkpt lat="43.18496" lon="6.62941">
        <ele>46.1</ele>
        <time>2013-12-01T13:17:32Z</time>
      </trkpt>
      <trkpt lat="43.18504" lon="6.62937">
        <ele>47</ele>
        <time>2013-12-01T13:17:40Z</time>
      </trkpt>
      <trkpt lat="43.18512" lon="6.62934">
        <ele>47.4</ele>
        <time>2013-12-01T13:17:48Z</time>
      </trkpt>
      <trkpt lat="43.18521" lon="6.62931">
        <ele>46.9</ele>
        <time>2013-12-01T13:17:53Z</time>
      </trkpt>
      <trkpt lat="43.18529" lon="6.62927">
        <ele>47.7</ele>
        <time>2013-12-01T13:18:03Z</time>
      </trkpt>
      <trkpt lat="43.18536" lon="6.62922">
        <ele>47.4</ele>
        <time>2013-12-01T13:18:11Z</time>
      </trkpt>
      <trkpt lat="43.18538" lon="6.62921">
        <ele>47.4</ele>
        <time>2013-12-01T13:18:12Z</time>
      </trkpt>
      <trkpt lat="43.18552" lon="6.62911">
        <ele>48.5</ele>
        <time>2013-12-01T13:18:25Z</time>
      </trkpt>
      <trkpt lat="43.1856" lon="6.62911">
        <ele>49</ele>
        <time>2013-12-01T13:18:34Z</time>
      </trkpt>
      <trkpt lat="43.18568" lon="6.62912">
        <ele>49.3</ele>
        <time>2013-12-01T13:18:42Z</time>
      </trkpt>
      <trkpt lat="43.18577" lon="6.6291">
        <ele>50</ele>
        <time>2013-12-01T13:18:50Z</time>
      </trkpt>
      <trkpt lat="43.18585" lon="6.62908">
        <ele>50.6</ele>
        <time>2013-12-01T13:19:01Z</time>
      </trkpt>
      <trkpt lat="43.18594" lon="6.62909">
        <ele>51.9</ele>
        <time>2013-12-01T13:19:11Z</time>
      </trkpt>
      <trkpt lat="43.18602" lon="6.62906">
        <ele>51.8</ele>
        <time>2013-12-01T13:19:18Z</time>
      </trkpt>
      <trkpt lat="43.18603" lon="6.62905">
        <ele>51.7</ele>
        <time>2013-12-01T13:19:19Z</time>
      </trkpt>
      <trkpt lat="43.18615" lon="6.62893">
        <ele>52.2</ele>
        <time>2013-12-01T13:19:31Z</time>
      </trkpt>
      <trkpt lat="43.18622" lon="6.62886">
        <ele>53.2</ele>
        <time>2013-12-01T13:19:41Z</time>
      </trkpt>
      <trkpt lat="43.18628" lon="6.62879">
        <ele>53.9</ele>
        <time>2013-12-01T13:19:50Z</time>
      </trkpt>
      <trkpt lat="43.18637" lon="6.62877">
        <ele>53.9</ele>
        <time>2013-12-01T13:19:58Z</time>
      </trkpt>
      <trkpt lat="43.18645" lon="6.62875">
        <ele>55.4</ele>
        <time>2013-12-01T13:20:10Z</time>
      </trkpt>
      <trkpt lat="43.18652" lon="6.62879">
        <ele>56.2</ele>
        <time>2013-12-01T13:20:17Z</time>
      </trkpt>
      <trkpt lat="43.1866" lon="6.62873">
        <ele>55.8</ele>
        <time>2013-12-01T13:20:24Z</time>
      </trkpt>
      <trkpt lat="43.18661" lon="6.62872">
        <ele>56.3</ele>
        <time>2013-12-01T13:20:25Z</time>
      </trkpt>
      <trkpt lat="43.18675" lon="6.62864">
        <ele>57.7</ele>
        <time>2013-12-01T13:20:38Z</time>
      </trkpt>
      <trkpt lat="43.18682" lon="6.62857">
        <ele>58</ele>
        <time>2013-12-01T13:20:45Z</time>
      </trkpt>
      <trkpt lat="43.18689" lon="6.62849">
        <ele>58.7</ele>
        <time>2013-12-01T13:20:52Z</time>
      </trkpt>
      <trkpt lat="43.18696" lon="6.62844">
        <ele>58.5</ele>
        <time>2013-12-01T13:20:59Z</time>
      </trkpt>
      <trkpt lat="43.18703" lon="6.62838">
        <ele>59.1</ele>
        <time>2013-12-01T13:21:06Z</time>
      </trkpt>
      <trkpt lat="43.18711" lon="6.62835">
        <ele>59.8</ele>
        <time>2013-12-01T13:21:15Z</time>
      </trkpt>
      <trkpt lat="43.18719" lon="6.62839">
        <ele>60.3</ele>
        <time>2013-12-01T13:21:22Z</time>
      </trkpt>
      <trkpt lat="43.18725" lon="6.62847">
        <ele>61.2</ele>
        <time>2013-12-01T13:21:31Z</time>
      </trkpt>
      <trkpt lat="43.18726" lon="6.62848">
        <ele>61.5</ele>
        <time>2013-12-01T13:21:32Z</time>
      </trkpt>
      <trkpt lat="43.18742" lon="6.62852">
        <ele>63.5</ele>
        <time>2013-12-01T13:21:58Z</time>
      </trkpt>
      <trkpt lat="43.1875" lon="6.62855">
        <ele>64.2</ele>
        <time>2013-12-01T13:22:06Z</time>
      </trkpt>
      <trkpt lat="43.18759" lon="6.62856">
        <ele>64.4</ele>
        <time>2013-12-01T13:22:13Z</time>
      </trkpt>
      <trkpt lat="43.18768" lon="6.62856">
        <ele>66</ele>
        <time>2013-12-01T13:22:22Z</time>
      </trkpt>
      <trkpt lat="43.18776" lon="6.62858">
        <ele>66.4</ele>
        <time>2013-12-01T13:22:32Z</time>
      </trkpt>
      <trkpt lat="43.18777" lon="6.62857">
        <ele>66.3</ele>
        <time>2013-12-01T13:22:33Z</time>
      </trkpt>
      <trkpt lat="43.18792" lon="6.6285">
        <ele>67.4</ele>
        <time>2013-12-01T13:22:52Z</time>
      </trkpt>
      <trkpt lat="43.188" lon="6.62844">
        <ele>68.6</ele>
        <time>2013-12-01T13:23:00Z</time>
      </trkpt>
      <trkpt lat="43.18808" lon="6.62842">
        <ele>69.1</ele>
        <time>2013-12-01T13:23:08Z</time>
      </trkpt>
      <trkpt lat="43.18816" lon="6.62841">
        <ele>70.2</ele>
        <time>2013-12-01T13:23:15Z</time>
      </trkpt>
      <trkpt lat="43.18824" lon="6.62838">
        <ele>69.9</ele>
        <time>2013-12-01T13:23:22Z</time>
      </trkpt>
      <trkpt lat="43.18832" lon="6.62833">
        <ele>70.4</ele>
        <time>2013-12-01T13:23:30Z</time>
      </trkpt>
      <trkpt lat="43.18839" lon="6.62828">
        <ele>70.7</ele>
        <time>2013-12-01T13:23:37Z</time>
      </trkpt>
      <trkpt lat="43.1884" lon="6.62826">
        <ele>70.8</ele>
        <time>2013-12-01T13:23:38Z</time>
      </trkpt>
      <trkpt lat="43.18852" lon="6.62814">
        <ele>71.7</ele>
        <time>2013-12-01T13:23:54Z</time>
      </trkpt>
      <trkpt lat="43.18857" lon="6.62805">
        <ele>71.1</ele>
        <time>2013-12-01T13:23:59Z</time>
      </trkpt>
      <trkpt lat="43.18864" lon="6.62799">
        <ele>72.4</ele>
        <time>2013-12-01T13:24:08Z</time>
      </trkpt>
      <trkpt lat="43.18869" lon="6.6279">
        <ele>72.5</ele>
        <time>2013-12-01T13:24:14Z</time>
      </trkpt>
      <trkpt lat="43.18877" lon="6.62784">
        <ele>72.5</ele>
        <time>2013-12-01T13:24:22Z</time>
      </trkpt>
      <trkpt lat="43.18885" lon="6.62779">
        <ele>73.1</ele>
        <time>2013-12-01T13:24:29Z</time>
      </trkpt>
      <trkpt lat="43.1889" lon="6.6277">
        <ele>73</ele>
        <time>2013-12-01T13:24:36Z</time>
      </trkpt>
      <trkpt lat="43.18897" lon="6.62764">
        <ele>73.9</ele>
        <time>2013-12-01T13:24:43Z</time>
      </trkpt>
      <trkpt lat="43.18899" lon="6.62764">
        <ele>74.2</ele>
        <time>2013-12-01T13:24:44Z</time>
      </trkpt>
      <trkpt lat="43.1891" lon="6.62753">
        <ele>75.2</ele>
        <time>2013-12-01T13:24:57Z</time>
      </trkpt>
      <trkpt lat="43.18915" lon="6.62746">
        <ele>76.1</ele>
        <time>2013-12-01T13:25:04Z</time>
      </trkpt>
      <trkpt lat="43.18921" lon="6.62737">
        <ele>76.5</ele>
        <time>2013-12-01T13:25:11Z</time>
      </trkpt>
      <trkpt lat="43.18927" lon="6.62729">
        <ele>75.8</ele>
        <time>2013-12-01T13:25:20Z</time>
      </trkpt>
      <trkpt lat="43.18933" lon="6.6272">
        <ele>74.8</ele>
        <time>2013-12-01T13:25:27Z</time>
      </trkpt>
      <trkpt lat="43.1894" lon="6.62715">
        <ele>74.6</ele>
        <time>2013-12-01T13:25:35Z</time>
      </trkpt>
      <trkpt lat="43.18948" lon="6.62719">
        <ele>75.2</ele>
        <time>2013-12-01T13:25:46Z</time>
      </trkpt>
      <trkpt lat="43.18949" lon="6.6272">
        <ele>75.8</ele>
        <time>2013-12-01T13:25:47Z</time>
      </trkpt>
      <trkpt lat="43.18963" lon="6.62728">
        <ele>79.4</ele>
        <time>2013-12-01T13:26:05Z</time>
      </trkpt>
      <trkpt lat="43.18971" lon="6.62726">
        <ele>80.3</ele>
        <time>2013-12-01T13:26:15Z</time>
      </trkpt>
      <trkpt lat="43.1898" lon="6.62727">
        <ele>82.3</ele>
        <time>2013-12-01T13:26:25Z</time>
      </trkpt>
      <trkpt lat="43.18987" lon="6.6272">
        <ele>84.8</ele>
        <time>2013-12-01T13:26:41Z</time>
      </trkpt>
      <trkpt lat="43.18985" lon="6.62708">
        <ele>85.8</ele>
        <time>2013-12-01T13:27:01Z</time>
      </trkpt>
      <trkpt lat="43.18985" lon="6.62707">
        <ele>86</ele>
        <time>2013-12-01T13:27:02Z</time>
      </trkpt>
      <trkpt lat="43.18981" lon="6.62686">
        <ele>90.1</ele>
        <time>2013-12-01T13:27:22Z</time>
      </trkpt>
      <trkpt lat="43.18982" lon="6.62674">
        <ele>90.1</ele>
        <time>2013-12-01T13:27:31Z</time>
      </trkpt>
      <trkpt lat="43.18985" lon="6.62663">
        <ele>90.9</ele>
        <time>2013-12-01T13:27:44Z</time>
      </trkpt>
      <trkpt lat="43.1899" lon="6.62653">
        <ele>92.8</ele>
        <time>2013-12-01T13:28:00Z</time>
      </trkpt>
      <trkpt lat="43.18991" lon="6.62641">
        <ele>94.8</ele>
        <time>2013-12-01T13:28:11Z</time>
      </trkpt>
      <trkpt lat="43.18991" lon="6.6264">
        <ele>94.6</ele>
        <time>2013-12-01T13:28:12Z</time>
      </trkpt>
      <trkpt lat="43.18997" lon="6.6262">
        <ele>96.2</ele>
        <time>2013-12-01T13:28:40Z</time>
      </trkpt>
      <trkpt lat="43.19005" lon="6.62624">
        <ele>100.3</ele>
        <time>2013-12-01T13:29:13Z</time>
      </trkpt>
      <trkpt lat="43.19006" lon="6.62624">
        <ele>100.2</ele>
        <time>2013-12-01T13:29:14Z</time>
      </trkpt>
      <trkpt lat="43.19019" lon="6.62635">
        <ele>102.3</ele>
        <time>2013-12-01T13:29:32Z</time>
      </trkpt>
      <trkpt lat="43.19028" lon="6.62634">
        <ele>103.4</ele>
        <time>2013-12-01T13:29:43Z</time>
      </trkpt>
      <trkpt lat="43.19035" lon="6.62635">
        <ele>104.2</ele>
        <time>2013-12-01T13:29:55Z</time>
      </trkpt>
      <trkpt lat="43.19044" lon="6.62634">
        <ele>105.2</ele>
        <time>2013-12-01T13:30:04Z</time>
      </trkpt>
      <trkpt lat="43.19052" lon="6.62634">
        <ele>106.4</ele>
        <time>2013-12-01T13:30:15Z</time>
      </trkpt>
      <trkpt lat="43.19053" lon="6.62634">
        <ele>106.6</ele>
        <time>2013-12-01T13:30:16Z</time>
      </trkpt>
      <trkpt lat="43.19068" lon="6.62626">
        <ele>105.8</ele>
        <time>2013-12-01T13:32:31Z</time>
      </trkpt>
      <trkpt lat="43.19069" lon="6.62626">
        <ele>105.8</ele>
        <time>2013-12-01T13:32:32Z</time>
      </trkpt>
      <trkpt lat="43.19085" lon="6.62621">
        <ele>105.2</ele>
        <time>2013-12-01T13:32:46Z</time>
      </trkpt>
      <trkpt lat="43.19091" lon="6.62613">
        <ele>105.6</ele>
        <time>2013-12-01T13:32:54Z</time>
      </trkpt>
      <trkpt lat="43.19098" lon="6.62606">
        <ele>106</ele>
        <time>2013-12-01T13:33:01Z</time>
      </trkpt>
      <trkpt lat="43.19105" lon="6.62599">
        <ele>106.1</ele>
        <time>2013-12-01T13:33:09Z</time>
      </trkpt>
      <trkpt lat="43.19111" lon="6.62591">
        <ele>106.1</ele>
        <time>2013-12-01T13:33:16Z</time>
      </trkpt>
      <trkpt lat="43.19117" lon="6.62583">
        <ele>107</ele>
        <time>2013-12-01T13:33:25Z</time>
      </trkpt>
      <trkpt lat="43.19123" lon="6.62574">
        <ele>107.2</ele>
        <time>2013-12-01T13:33:32Z</time>
      </trkpt>
      <trkpt lat="43.19124" lon="6.62573">
        <ele>107.2</ele>
        <time>2013-12-01T13:33:33Z</time>
      </trkpt>
      <trkpt lat="43.19134" lon="6.62556">
        <ele>107.5</ele>
        <time>2013-12-01T13:33:51Z</time>
      </trkpt>
      <trkpt lat="43.19139" lon="6.62547">
        <ele>107.6</ele>
        <time>2013-12-01T13:33:59Z</time>
      </trkpt>
      <trkpt lat="43.19146" lon="6.62538">
        <ele>108.2</ele>
        <time>2013-12-01T13:34:06Z</time>
      </trkpt>
      <trkpt lat="43.19152" lon="6.6253">
        <ele>109</ele>
        <time>2013-12-01T13:34:15Z</time>
      </trkpt>
      <trkpt lat="43.19158" lon="6.62523">
        <ele>110.3</ele>
        <time>2013-12-01T13:34:25Z</time>
      </trkpt>
      <trkpt lat="43.19166" lon="6.62519">
        <ele>110.4</ele>
        <time>2013-12-01T13:34:33Z</time>
      </trkpt>
      <trkpt lat="43.19166" lon="6.62518">
        <ele>110.5</ele>
        <time>2013-12-01T13:34:34Z</time>
      </trkpt>
      <trkpt lat="43.19181" lon="6.62511">
        <ele>112.3</ele>
        <time>2013-12-01T13:34:55Z</time>
      </trkpt>
      <trkpt lat="43.1919" lon="6.6251">
        <ele>114.6</ele>
        <time>2013-12-01T13:35:05Z</time>
      </trkpt>
      <trkpt lat="43.19198" lon="6.62506">
        <ele>114.9</ele>
        <time>2013-12-01T13:35:14Z</time>
      </trkpt>
      <trkpt lat="43.19205" lon="6.62501">
        <ele>115.7</ele>
        <time>2013-12-01T13:35:23Z</time>
      </trkpt>
      <trkpt lat="43.19213" lon="6.62497">
        <ele>116.2</ele>
        <time>2013-12-01T13:35:31Z</time>
      </trkpt>
      <trkpt lat="43.19212" lon="6.62485">
        <ele>117.4</ele>
        <time>2013-12-01T13:35:49Z</time>
      </trkpt>
      <trkpt lat="43.19211" lon="6.62485">
        <ele>117.5</ele>
        <time>2013-12-01T13:35:50Z</time>
      </trkpt>
      <trkpt lat="43.19198" lon="6.62471">
        <ele>118.1</ele>
        <time>2013-12-01T13:36:10Z</time>
      </trkpt>
      <trkpt lat="43.19199" lon="6.62459">
        <ele>119</ele>
        <time>2013-12-01T13:36:31Z</time>
      </trkpt>
      <trkpt lat="43.19196" lon="6.62448">
        <ele>119.4</ele>
        <time>2013-12-01T13:36:44Z</time>
      </trkpt>
      <trkpt lat="43.19192" lon="6.62438">
        <ele>120.3</ele>
        <time>2013-12-01T13:36:54Z</time>
      </trkpt>
      <trkpt lat="43.19192" lon="6.62437">
        <ele>120.5</ele>
        <time>2013-12-01T13:36:55Z</time>
      </trkpt>
      <trkpt lat="43.1918" lon="6.62423">
        <ele>124</ele>
        <time>2013-12-01T13:37:17Z</time>
      </trkpt>
      <trkpt lat="43.19174" lon="6.62415">
        <ele>125.4</ele>
        <time>2013-12-01T13:37:31Z</time>
      </trkpt>
      <trkpt lat="43.19166" lon="6.62411">
        <ele>125.8</ele>
        <time>2013-12-01T13:37:39Z</time>
      </trkpt>
      <trkpt lat="43.19158" lon="6.62406">
        <ele>126</ele>
        <time>2013-12-01T13:37:49Z</time>
      </trkpt>
      <trkpt lat="43.1915" lon="6.62402">
        <ele>126.7</ele>
        <time>2013-12-01T13:37:58Z</time>
      </trkpt>
      <trkpt lat="43.19149" lon="6.62401">
        <ele>126.7</ele>
        <time>2013-12-01T13:37:59Z</time>
      </trkpt>
      <trkpt lat="43.19134" lon="6.62405">
        <ele>129.7</ele>
        <time>2013-12-01T13:38:19Z</time>
      </trkpt>
      <trkpt lat="43.19126" lon="6.62409">
        <ele>131.1</ele>
        <time>2013-12-01T13:38:30Z</time>
      </trkpt>
      <trkpt lat="43.19122" lon="6.62421">
        <ele>131.8</ele>
        <time>2013-12-01T13:38:49Z</time>
      </trkpt>
      <trkpt lat="43.19114" lon="6.62424">
        <ele>132.6</ele>
        <time>2013-12-01T13:38:57Z</time>
      </trkpt>
      <trkpt lat="43.19106" lon="6.62427">
        <ele>134.1</ele>
        <time>2013-12-01T13:39:06Z</time>
      </trkpt>
      <trkpt lat="43.19105" lon="6.62427">
        <ele>134</ele>
        <time>2013-12-01T13:39:07Z</time>
      </trkpt>
      <trkpt lat="43.19089" lon="6.6243">
        <ele>136.6</ele>
        <time>2013-12-01T13:39:26Z</time>
      </trkpt>
      <trkpt lat="43.19081" lon="6.62429">
        <ele>137.3</ele>
        <time>2013-12-01T13:39:34Z</time>
      </trkpt>
      <trkpt lat="43.19073" lon="6.62428">
        <ele>138.2</ele>
        <time>2013-12-01T13:39:45Z</time>
      </trkpt>
      <trkpt lat="43.19064" lon="6.62426">
        <ele>140</ele>
        <time>2013-12-01T13:39:58Z</time>
      </trkpt>
      <trkpt lat="43.19056" lon="6.62424">
        <ele>141.5</ele>
        <time>2013-12-01T13:40:10Z</time>
      </trkpt>
      <trkpt lat="43.19055" lon="6.62423">
        <ele>141.6</ele>
        <time>2013-12-01T13:40:11Z</time>
      </trkpt>
      <trkpt lat="43.19039" lon="6.62417">
        <ele>145.2</ele>
        <time>2013-12-01T13:40:39Z</time>
      </trkpt>
      <trkpt lat="43.1903" lon="6.62418">
        <ele>146.1</ele>
        <time>2013-12-01T13:41:26Z</time>
      </trkpt>
      <trkpt lat="43.1903" lon="6.62419">
        <ele>146.2</ele>
        <time>2013-12-01T13:41:27Z</time>
      </trkpt>
      <trkpt lat="43.19015" lon="6.62406">
        <ele>147.9</ele>
        <time>2013-12-01T13:42:08Z</time>
      </trkpt>
      <trkpt lat="43.19009" lon="6.62398">
        <ele>148.6</ele>
        <time>2013-12-01T13:42:21Z</time>
      </trkpt>
      <trkpt lat="43.19001" lon="6.62392">
        <ele>149.4</ele>
        <time>2013-12-01T13:42:30Z</time>
      </trkpt>
      <trkpt lat="43.19001" lon="6.62391">
        <ele>149.5</ele>
        <time>2013-12-01T13:42:31Z</time>
      </trkpt>
      <trkpt lat="43.18986" lon="6.62379">
        <ele>149.9</ele>
        <time>2013-12-01T13:45:26Z</time>
      </trkpt>
      <trkpt lat="43.18985" lon="6.62379">
        <ele>149.6</ele>
        <time>2013-12-01T13:45:27Z</time>
      </trkpt>
      <trkpt lat="43.18975" lon="6.62362">
        <ele>148</ele>
        <time>2013-12-01T13:45:49Z</time>
      </trkpt>
      <trkpt lat="43.18978" lon="6.62351">
        <ele>146.8</ele>
        <time>2013-12-01T13:45:57Z</time>
      </trkpt>
      <trkpt lat="43.18983" lon="6.62343">
        <ele>145.4</ele>
        <time>2013-12-01T13:46:04Z</time>
      </trkpt>
      <trkpt lat="43.18989" lon="6.62336">
        <ele>144.9</ele>
        <time>2013-12-01T13:46:09Z</time>
      </trkpt>
      <trkpt lat="43.18993" lon="6.62325">
        <ele>143.3</ele>
        <time>2013-12-01T13:46:17Z</time>
      </trkpt>
      <trkpt lat="43.18999" lon="6.62316">
        <ele>141.6</ele>
        <time>2013-12-01T13:46:27Z</time>
      </trkpt>
      <trkpt lat="43.19" lon="6.62314">
        <ele>141.1</ele>
        <time>2013-12-01T13:46:28Z</time>
      </trkpt>
      <trkpt lat="43.19011" lon="6.623">
        <ele>139.2</ele>
        <time>2013-12-01T13:46:40Z</time>
      </trkpt>
      <trkpt lat="43.19017" lon="6.62293">
        <ele>137.8</ele>
        <time>2013-12-01T13:46:47Z</time>
      </trkpt>
      <trkpt lat="43.19023" lon="6.62286">
        <ele>137</ele>
        <time>2013-12-01T13:46:55Z</time>
      </trkpt>
      <trkpt lat="43.1903" lon="6.62279">
        <ele>135.8</ele>
        <time>2013-12-01T13:47:01Z</time>
      </trkpt>
      <trkpt lat="43.19037" lon="6.62274">
        <ele>134.9</ele>
        <time>2013-12-01T13:47:09Z</time>
      </trkpt>
      <trkpt lat="43.19044" lon="6.62267">
        <ele>133.5</ele>
        <time>2013-12-01T13:47:15Z</time>
      </trkpt>
      <trkpt lat="43.19049" lon="6.62259">
        <ele>133.6</ele>
        <time>2013-12-01T13:47:22Z</time>
      </trkpt>
      <trkpt lat="43.19053" lon="6.6225">
        <ele>132.9</ele>
        <time>2013-12-01T13:47:30Z</time>
      </trkpt>
      <trkpt lat="43.19055" lon="6.62248">
        <ele>132.9</ele>
        <time>2013-12-01T13:47:31Z</time>
      </trkpt>
      <trkpt lat="43.19056" lon="6.62231">
        <ele>133.6</ele>
        <time>2013-12-01T13:47:41Z</time>
      </trkpt>
      <trkpt lat="43.19056" lon="6.62219">
        <ele>134.4</ele>
        <time>2013-12-01T13:47:47Z</time>
      </trkpt>
      <trkpt lat="43.19055" lon="6.62208">
        <ele>134.5</ele>
        <time>2013-12-01T13:47:54Z</time>
      </trkpt>
      <trkpt lat="43.19056" lon="6.62196">
        <ele>134.7</ele>
        <time>2013-12-01T13:48:01Z</time>
      </trkpt>
      <trkpt lat="43.19059" lon="6.62186">
        <ele>135.4</ele>
        <time>2013-12-01T13:48:10Z</time>
      </trkpt>
      <trkpt lat="43.19064" lon="6.62176">
        <ele>136.3</ele>
        <time>2013-12-01T13:48:19Z</time>
      </trkpt>
      <trkpt lat="43.19068" lon="6.62166">
        <ele>137.9</ele>
        <time>2013-12-01T13:48:30Z</time>
      </trkpt>
      <trkpt lat="43.19073" lon="6.62156">
        <ele>137.4</ele>
        <time>2013-12-01T13:48:40Z</time>
      </trkpt>
      <trkpt lat="43.19074" lon="6.62155">
        <ele>137.4</ele>
        <time>2013-12-01T13:48:41Z</time>
      </trkpt>
      <trkpt lat="43.19085" lon="6.62138">
        <ele>138.4</ele>
        <time>2013-12-01T13:48:58Z</time>
      </trkpt>
      <trkpt lat="43.1909" lon="6.62129">
        <ele>139</ele>
        <time>2013-12-01T13:49:04Z</time>
      </trkpt>
      <trkpt lat="43.19095" lon="6.62121">
        <ele>138.8</ele>
        <time>2013-12-01T13:49:10Z</time>
      </trkpt>
      <trkpt lat="43.19101" lon="6.62111">
        <ele>139.2</ele>
        <time>2013-12-01T13:49:18Z</time>
      </trkpt>
      <trkpt lat="43.19106" lon="6.62102">
        <ele>139.2</ele>
        <time>2013-12-01T13:49:26Z</time>
      </trkpt>
      <trkpt lat="43.19113" lon="6.62095">
        <ele>139.6</ele>
        <time>2013-12-01T13:49:34Z</time>
      </trkpt>
      <trkpt lat="43.19118" lon="6.6209">
        <ele>139.8</ele>
        <time>2013-12-01T13:49:37Z</time>
      </trkpt>
      <trkpt lat="43.19123" lon="6.62081">
        <ele>140</ele>
        <time>2013-12-01T13:49:41Z</time>
      </trkpt>
      <trkpt lat="43.19124" lon="6.62079">
        <ele>140.1</ele>
        <time>2013-12-01T13:49:42Z</time>
      </trkpt>
      <trkpt lat="43.19134" lon="6.62064">
        <ele>141</ele>
        <time>2013-12-01T13:49:59Z</time>
      </trkpt>
      <trkpt lat="43.19138" lon="6.62054">
        <ele>141.4</ele>
        <time>2013-12-01T13:50:05Z</time>
      </trkpt>
      <trkpt lat="43.19143" lon="6.62045">
        <ele>141.1</ele>
        <time>2013-12-01T13:50:12Z</time>
      </trkpt>
      <trkpt lat="43.19149" lon="6.62036">
        <ele>141.5</ele>
        <time>2013-12-01T13:50:20Z</time>
      </trkpt>
      <trkpt lat="43.19154" lon="6.62027">
        <ele>141.4</ele>
        <time>2013-12-01T13:50:29Z</time>
      </trkpt>
      <trkpt lat="43.19158" lon="6.62017">
        <ele>141.9</ele>
        <time>2013-12-01T13:50:36Z</time>
      </trkpt>
      <trkpt lat="43.19162" lon="6.62007">
        <ele>141.8</ele>
        <time>2013-12-01T13:50:44Z</time>
      </trkpt>
      <trkpt lat="43.19162" lon="6.62005">
        <ele>141.6</ele>
        <time>2013-12-01T13:50:45Z</time>
      </trkpt>
      <trkpt lat="43.1916" lon="6.61992">
        <ele>141.1</ele>
        <time>2013-12-01T13:51:46Z</time>
      </trkpt>
      <trkpt lat="43.19161" lon="6.61972">
        <ele>140.5</ele>
        <time>2013-12-01T13:51:57Z</time>
      </trkpt>
      <trkpt lat="43.1916" lon="6.6196">
        <ele>139.9</ele>
        <time>2013-12-01T13:52:03Z</time>
      </trkpt>
      <trkpt lat="43.1916" lon="6.61948">
        <ele>140.4</ele>
        <time>2013-12-01T13:52:11Z</time>
      </trkpt>
      <trkpt lat="43.19162" lon="6.61937">
        <ele>139.9</ele>
        <time>2013-12-01T13:52:16Z</time>
      </trkpt>
      <trkpt lat="43.19163" lon="6.61925">
        <ele>138.9</ele>
        <time>2013-12-01T13:52:24Z</time>
      </trkpt>
      <trkpt lat="43.19162" lon="6.61914">
        <ele>138.8</ele>
        <time>2013-12-01T13:52:32Z</time>
      </trkpt>
      <trkpt lat="43.19156" lon="6.61904">
        <ele>138.9</ele>
        <time>2013-12-01T13:52:59Z</time>
      </trkpt>
      <trkpt lat="43.19156" lon="6.61903">
        <ele>139.1</ele>
        <time>2013-12-01T13:53:00Z</time>
      </trkpt>
      <trkpt lat="43.19148" lon="6.61886">
        <ele>141.3</ele>
        <time>2013-12-01T13:53:14Z</time>
      </trkpt>
      <trkpt lat="43.19145" lon="6.61876">
        <ele>141.5</ele>
        <time>2013-12-01T13:53:20Z</time>
      </trkpt>
      <trkpt lat="43.19142" lon="6.61864">
        <ele>141.4</ele>
        <time>2013-12-01T13:53:28Z</time>
      </trkpt>
      <trkpt lat="43.19141" lon="6.61853">
        <ele>141.4</ele>
        <time>2013-12-01T13:53:34Z</time>
      </trkpt>
      <trkpt lat="43.19139" lon="6.61843">
        <ele>141.1</ele>
        <time>2013-12-01T13:53:39Z</time>
      </trkpt>
      <trkpt lat="43.19138" lon="6.61831">
        <ele>141.1</ele>
        <time>2013-12-01T13:53:45Z</time>
      </trkpt>
      <trkpt lat="43.19137" lon="6.61819">
        <ele>140.7</ele>
        <time>2013-12-01T13:53:52Z</time>
      </trkpt>
      <trkpt lat="43.19139" lon="6.61808">
        <ele>140.9</ele>
        <time>2013-12-01T13:54:00Z</time>
      </trkpt>
      <trkpt lat="43.1914" lon="6.61807">
        <ele>140.7</ele>
        <time>2013-12-01T13:54:01Z</time>
      </trkpt>
      <trkpt lat="43.19144" lon="6.61785">
        <ele>138.6</ele>
        <time>2013-12-01T13:54:14Z</time>
      </trkpt>
      <trkpt lat="43.19144" lon="6.61774">
        <ele>138.2</ele>
        <time>2013-12-01T13:54:19Z</time>
      </trkpt>
      <trkpt lat="43.19143" lon="6.61763">
        <ele>137.3</ele>
        <time>2013-12-01T13:54:27Z</time>
      </trkpt>
      <trkpt lat="43.19144" lon="6.61752">
        <ele>137.1</ele>
        <time>2013-12-01T13:54:34Z</time>
      </trkpt>
      <trkpt lat="43.19143" lon="6.6174">
        <ele>137</ele>
        <time>2013-12-01T13:54:39Z</time>
      </trkpt>
      <trkpt lat="43.19145" lon="6.61728">
        <ele>136</ele>
        <time>2013-12-01T13:54:47Z</time>
      </trkpt>
      <trkpt lat="43.19143" lon="6.61716">
        <ele>135.1</ele>
        <time>2013-12-01T13:54:52Z</time>
      </trkpt>
      <trkpt lat="43.1914" lon="6.61705">
        <ele>135.2</ele>
        <time>2013-12-01T13:54:59Z</time>
      </trkpt>
      <trkpt lat="43.19132" lon="6.61704">
        <ele>136.3</ele>
        <time>2013-12-01T13:55:06Z</time>
      </trkpt>
      <trkpt lat="43.1913" lon="6.61704">
        <ele>136.2</ele>
        <time>2013-12-01T13:55:07Z</time>
      </trkpt>
      <trkpt lat="43.19115" lon="6.61706">
        <ele>136.1</ele>
        <time>2013-12-01T13:55:19Z</time>
      </trkpt>
      <trkpt lat="43.19107" lon="6.61706">
        <ele>136.9</ele>
        <time>2013-12-01T13:55:25Z</time>
      </trkpt>
      <trkpt lat="43.19099" lon="6.61707">
        <ele>137.1</ele>
        <time>2013-12-01T13:55:34Z</time>
      </trkpt>
      <trkpt lat="43.19091" lon="6.61707">
        <ele>138.1</ele>
        <time>2013-12-01T13:55:41Z</time>
      </trkpt>
      <trkpt lat="43.19082" lon="6.61707">
        <ele>138.7</ele>
        <time>2013-12-01T13:55:48Z</time>
      </trkpt>
      <trkpt lat="43.19074" lon="6.61707">
        <ele>139.4</ele>
        <time>2013-12-01T13:55:56Z</time>
      </trkpt>
      <trkpt lat="43.19065" lon="6.61707">
        <ele>139.8</ele>
        <time>2013-12-01T13:56:05Z</time>
      </trkpt>
      <trkpt lat="43.19056" lon="6.61707">
        <ele>140.9</ele>
        <time>2013-12-01T13:56:14Z</time>
      </trkpt>
      <trkpt lat="43.19055" lon="6.61707">
        <ele>140.9</ele>
        <time>2013-12-01T13:56:15Z</time>
      </trkpt>
      <trkpt lat="43.1904" lon="6.61712">
        <ele>142.7</ele>
        <time>2013-12-01T13:56:31Z</time>
      </trkpt>
      <trkpt lat="43.19032" lon="6.61714">
        <ele>143.1</ele>
        <time>2013-12-01T13:56:41Z</time>
      </trkpt>
      <trkpt lat="43.19024" lon="6.61712">
        <ele>144.4</ele>
        <time>2013-12-01T13:56:51Z</time>
      </trkpt>
      <trkpt lat="43.19016" lon="6.61709">
        <ele>145.4</ele>
        <time>2013-12-01T13:57:01Z</time>
      </trkpt>
      <trkpt lat="43.19008" lon="6.61704">
        <ele>146.6</ele>
        <time>2013-12-01T13:57:11Z</time>
      </trkpt>
      <trkpt lat="43.19001" lon="6.61697">
        <ele>147.8</ele>
        <time>2013-12-01T13:57:20Z</time>
      </trkpt>
      <trkpt lat="43.19" lon="6.61696">
        <ele>147.7</ele>
        <time>2013-12-01T13:57:21Z</time>
      </trkpt>
      <trkpt lat="43.18986" lon="6.61685">
        <ele>148.6</ele>
        <time>2013-12-01T13:57:39Z</time>
      </trkpt>
      <trkpt lat="43.18977" lon="6.61681">
        <ele>149.2</ele>
        <time>2013-12-01T13:57:48Z</time>
      </trkpt>
      <trkpt lat="43.18971" lon="6.61674">
        <ele>149.5</ele>
        <time>2013-12-01T13:57:55Z</time>
      </trkpt>
      <trkpt lat="43.18964" lon="6.61667">
        <ele>149.5</ele>
        <time>2013-12-01T13:58:04Z</time>
      </trkpt>
      <trkpt lat="43.18957" lon="6.6166">
        <ele>149.7</ele>
        <time>2013-12-01T13:58:10Z</time>
      </trkpt>
      <trkpt lat="43.1895" lon="6.61653">
        <ele>149.2</ele>
        <time>2013-12-01T13:58:18Z</time>
      </trkpt>
      <trkpt lat="43.18944" lon="6.61645">
        <ele>149.9</ele>
        <time>2013-12-01T13:58:24Z</time>
      </trkpt>
      <trkpt lat="43.18943" lon="6.61644">
        <ele>150</ele>
        <time>2013-12-01T13:58:25Z</time>
      </trkpt>
      <trkpt lat="43.18932" lon="6.61629">
        <ele>150.6</ele>
        <time>2013-12-01T13:58:37Z</time>
      </trkpt>
      <trkpt lat="43.18928" lon="6.61618">
        <ele>150.6</ele>
        <time>2013-12-01T13:58:43Z</time>
      </trkpt>
      <trkpt lat="43.18923" lon="6.61609">
        <ele>150.9</ele>
        <time>2013-12-01T13:58:50Z</time>
      </trkpt>
      <trkpt lat="43.18918" lon="6.616">
        <ele>151.2</ele>
        <time>2013-12-01T13:58:58Z</time>
      </trkpt>
      <trkpt lat="43.18914" lon="6.61589">
        <ele>150.6</ele>
        <time>2013-12-01T13:59:05Z</time>
      </trkpt>
      <trkpt lat="43.18913" lon="6.61578">
        <ele>151.2</ele>
        <time>2013-12-01T13:59:12Z</time>
      </trkpt>
      <trkpt lat="43.18913" lon="6.61566">
        <ele>151.4</ele>
        <time>2013-12-01T13:59:20Z</time>
      </trkpt>
      <trkpt lat="43.18909" lon="6.61556">
        <ele>150.9</ele>
        <time>2013-12-01T13:59:26Z</time>
      </trkpt>
      <trkpt lat="43.18908" lon="6.61554">
        <ele>150.8</ele>
        <time>2013-12-01T13:59:27Z</time>
      </trkpt>
      <trkpt lat="43.18897" lon="6.61539">
        <ele>151.2</ele>
        <time>2013-12-01T13:59:40Z</time>
      </trkpt>
      <trkpt lat="43.18892" lon="6.61529">
        <ele>151.5</ele>
        <time>2013-12-01T13:59:47Z</time>
      </trkpt>
      <trkpt lat="43.18886" lon="6.61521">
        <ele>152.2</ele>
        <time>2013-12-01T13:59:54Z</time>
      </trkpt>
      <trkpt lat="43.18881" lon="6.61513">
        <ele>152.2</ele>
        <time>2013-12-01T14:00:00Z</time>
      </trkpt>
      <trkpt lat="43.18874" lon="6.61504">
        <ele>152.9</ele>
        <time>2013-12-01T14:00:24Z</time>
      </trkpt>
      <trkpt lat="43.18867" lon="6.61499">
        <ele>153.1</ele>
        <time>2013-12-01T14:00:38Z</time>
      </trkpt>
      <trkpt lat="43.18866" lon="6.61499">
        <ele>153</ele>
        <time>2013-12-01T14:00:39Z</time>
      </trkpt>
      <trkpt lat="43.1885" lon="6.61496">
        <ele>153</ele>
        <time>2013-12-01T14:01:12Z</time>
      </trkpt>
      <trkpt lat="43.18842" lon="6.61498">
        <ele>153.9</ele>
        <time>2013-12-01T14:01:23Z</time>
      </trkpt>
      <trkpt lat="43.18834" lon="6.61498">
        <ele>154</ele>
        <time>2013-12-01T14:01:29Z</time>
      </trkpt>
      <trkpt lat="43.18825" lon="6.61498">
        <ele>154.4</ele>
        <time>2013-12-01T14:01:36Z</time>
      </trkpt>
      <trkpt lat="43.18818" lon="6.61499">
        <ele>154.4</ele>
        <time>2013-12-01T14:01:42Z</time>
      </trkpt>
      <trkpt lat="43.18816" lon="6.61499">
        <ele>153.9</ele>
        <time>2013-12-01T14:01:43Z</time>
      </trkpt>
      <trkpt lat="43.18801" lon="6.61504">
        <ele>153.9</ele>
        <time>2013-12-01T14:01:56Z</time>
      </trkpt>
      <trkpt lat="43.18794" lon="6.61505">
        <ele>154</ele>
        <time>2013-12-01T14:02:02Z</time>
      </trkpt>
      <trkpt lat="43.18786" lon="6.61506">
        <ele>153.8</ele>
        <time>2013-12-01T14:02:08Z</time>
      </trkpt>
      <trkpt lat="43.18778" lon="6.61507">
        <ele>154.2</ele>
        <time>2013-12-01T14:02:16Z</time>
      </trkpt>
      <trkpt lat="43.18769" lon="6.61509">
        <ele>154.6</ele>
        <time>2013-12-01T14:02:26Z</time>
      </trkpt>
      <trkpt lat="43.18761" lon="6.61509">
        <ele>155</ele>
        <time>2013-12-01T14:02:37Z</time>
      </trkpt>
      <trkpt lat="43.18753" lon="6.61508">
        <ele>155</ele>
        <time>2013-12-01T14:02:43Z</time>
      </trkpt>
      <trkpt lat="43.18752" lon="6.61508">
        <ele>155.1</ele>
        <time>2013-12-01T14:02:44Z</time>
      </trkpt>
      <trkpt lat="43.18736" lon="6.61508">
        <ele>156.5</ele>
        <time>2013-12-01T14:02:59Z</time>
      </trkpt>
      <trkpt lat="43.18728" lon="6.61509">
        <ele>157.4</ele>
        <time>2013-12-01T14:03:07Z</time>
      </trkpt>
      <trkpt lat="43.1872" lon="6.6151">
        <ele>157.6</ele>
        <time>2013-12-01T14:03:14Z</time>
      </trkpt>
      <trkpt lat="43.18713" lon="6.61516">
        <ele>158.1</ele>
        <time>2013-12-01T14:03:23Z</time>
      </trkpt>
      <trkpt lat="43.18704" lon="6.6152">
        <ele>157.4</ele>
        <time>2013-12-01T14:03:32Z</time>
      </trkpt>
      <trkpt lat="43.18696" lon="6.61525">
        <ele>157.4</ele>
        <time>2013-12-01T14:03:41Z</time>
      </trkpt>
      <trkpt lat="43.18688" lon="6.61526">
        <ele>157.9</ele>
        <time>2013-12-01T14:03:48Z</time>
      </trkpt>
      <trkpt lat="43.18687" lon="6.61527">
        <ele>157.7</ele>
        <time>2013-12-01T14:03:49Z</time>
      </trkpt>
      <trkpt lat="43.18672" lon="6.61531">
        <ele>158</ele>
        <time>2013-12-01T14:04:01Z</time>
      </trkpt>
      <trkpt lat="43.18664" lon="6.61535">
        <ele>157.7</ele>
        <time>2013-12-01T14:04:09Z</time>
      </trkpt>
      <trkpt lat="43.18656" lon="6.61537">
        <ele>157</ele>
        <time>2013-12-01T14:04:18Z</time>
      </trkpt>
      <trkpt lat="43.18648" lon="6.6154">
        <ele>157.1</ele>
        <time>2013-12-01T14:04:24Z</time>
      </trkpt>
      <trkpt lat="43.1864" lon="6.61542">
        <ele>156.3</ele>
        <time>2013-12-01T14:04:33Z</time>
      </trkpt>
      <trkpt lat="43.18633" lon="6.61549">
        <ele>156.4</ele>
        <time>2013-12-01T14:04:41Z</time>
      </trkpt>
      <trkpt lat="43.18625" lon="6.61555">
        <ele>155.9</ele>
        <time>2013-12-01T14:05:04Z</time>
      </trkpt>
      <trkpt lat="43.18625" lon="6.61556">
        <ele>155.9</ele>
        <time>2013-12-01T14:05:05Z</time>
      </trkpt>
      <trkpt lat="43.18609" lon="6.61553">
        <ele>153.7</ele>
        <time>2013-12-01T14:05:20Z</time>
      </trkpt>
      <trkpt lat="43.18603" lon="6.6156">
        <ele>153.2</ele>
        <time>2013-12-01T14:05:25Z</time>
      </trkpt>
      <trkpt lat="43.18595" lon="6.61566">
        <ele>153.7</ele>
        <time>2013-12-01T14:05:38Z</time>
      </trkpt>
      <trkpt lat="43.18589" lon="6.61573">
        <ele>154.3</ele>
        <time>2013-12-01T14:05:46Z</time>
      </trkpt>
      <trkpt lat="43.1859" lon="6.61561">
        <ele>153.7</ele>
        <time>2013-12-01T14:09:23Z</time>
      </trkpt>
      <trkpt lat="43.1859" lon="6.6156">
        <ele>153.6</ele>
        <time>2013-12-01T14:09:24Z</time>
      </trkpt>
      <trkpt lat="43.18577" lon="6.6155">
        <ele>149.3</ele>
        <time>2013-12-01T14:09:45Z</time>
      </trkpt>
      <trkpt lat="43.1857" lon="6.61549">
        <ele>149.2</ele>
        <time>2013-12-01T14:09:50Z</time>
      </trkpt>
      <trkpt lat="43.18562" lon="6.6155">
        <ele>149.3</ele>
        <time>2013-12-01T14:09:57Z</time>
      </trkpt>
      <trkpt lat="43.18554" lon="6.61551">
        <ele>149.3</ele>
        <time>2013-12-01T14:10:02Z</time>
      </trkpt>
      <trkpt lat="43.18546" lon="6.61552">
        <ele>149.1</ele>
        <time>2013-12-01T14:10:09Z</time>
      </trkpt>
      <trkpt lat="43.18538" lon="6.61551">
        <ele>149.1</ele>
        <time>2013-12-01T14:10:14Z</time>
      </trkpt>
      <trkpt lat="43.1853" lon="6.61551">
        <ele>148.8</ele>
        <time>2013-12-01T14:10:19Z</time>
      </trkpt>
      <trkpt lat="43.18522" lon="6.61551">
        <ele>148.6</ele>
        <time>2013-12-01T14:10:25Z</time>
      </trkpt>
      <trkpt lat="43.18521" lon="6.61551">
        <ele>148.8</ele>
        <time>2013-12-01T14:10:26Z</time>
      </trkpt>
      <trkpt lat="43.18505" lon="6.61552">
        <ele>148.8</ele>
        <time>2013-12-01T14:10:38Z</time>
      </trkpt>
      <trkpt lat="43.18497" lon="6.61553">
        <ele>148.2</ele>
        <time>2013-12-01T14:10:46Z</time>
      </trkpt>
      <trkpt lat="43.18489" lon="6.61554">
        <ele>147.7</ele>
        <time>2013-12-01T14:10:52Z</time>
      </trkpt>
      <trkpt lat="43.18481" lon="6.61553">
        <ele>146.9</ele>
        <time>2013-12-01T14:11:00Z</time>
      </trkpt>
      <trkpt lat="43.18473" lon="6.61552">
        <ele>146.9</ele>
        <time>2013-12-01T14:11:04Z</time>
      </trkpt>
      <trkpt lat="43.18466" lon="6.61549">
        <ele>146.4</ele>
        <time>2013-12-01T14:11:08Z</time>
      </trkpt>
      <trkpt lat="43.18458" lon="6.61549">
        <ele>146.4</ele>
        <time>2013-12-01T14:11:16Z</time>
      </trkpt>
      <trkpt lat="43.18449" lon="6.6155">
        <ele>146.3</ele>
        <time>2013-12-01T14:11:21Z</time>
      </trkpt>
      <trkpt lat="43.18441" lon="6.6155">
        <ele>146.3</ele>
        <time>2013-12-01T14:11:27Z</time>
      </trkpt>
      <trkpt lat="43.1844" lon="6.6155">
        <ele>146.3</ele>
        <time>2013-12-01T14:11:28Z</time>
      </trkpt>
      <trkpt lat="43.18424" lon="6.61552">
        <ele>148.4</ele>
        <time>2013-12-01T14:11:40Z</time>
      </trkpt>
      <trkpt lat="43.18416" lon="6.61554">
        <ele>148</ele>
        <time>2013-12-01T14:11:49Z</time>
      </trkpt>
      <trkpt lat="43.18408" lon="6.61553">
        <ele>148.6</ele>
        <time>2013-12-01T14:11:54Z</time>
      </trkpt>
      <trkpt lat="43.184" lon="6.61553">
        <ele>149.6</ele>
        <time>2013-12-01T14:12:04Z</time>
      </trkpt>
      <trkpt lat="43.18392" lon="6.61549">
        <ele>150.7</ele>
        <time>2013-12-01T14:12:14Z</time>
      </trkpt>
      <trkpt lat="43.18384" lon="6.61544">
        <ele>151.7</ele>
        <time>2013-12-01T14:12:22Z</time>
      </trkpt>
      <trkpt lat="43.18376" lon="6.61543">
        <ele>152.3</ele>
        <time>2013-12-01T14:12:27Z</time>
      </trkpt>
      <trkpt lat="43.18368" lon="6.6154">
        <ele>151.2</ele>
        <time>2013-12-01T14:12:31Z</time>
      </trkpt>
      <trkpt lat="43.18366" lon="6.61541">
        <ele>151</ele>
        <time>2013-12-01T14:12:32Z</time>
      </trkpt>
      <trkpt lat="43.18352" lon="6.61541">
        <ele>151.4</ele>
        <time>2013-12-01T14:12:41Z</time>
      </trkpt>
      <trkpt lat="43.18344" lon="6.61539">
        <ele>150.5</ele>
        <time>2013-12-01T14:12:46Z</time>
      </trkpt>
      <trkpt lat="43.18336" lon="6.61538">
        <ele>150.6</ele>
        <time>2013-12-01T14:12:56Z</time>
      </trkpt>
      <trkpt lat="43.18327" lon="6.61535">
        <ele>150.4</ele>
        <time>2013-12-01T14:13:13Z</time>
      </trkpt>
      <trkpt lat="43.1832" lon="6.61528">
        <ele>151.4</ele>
        <time>2013-12-01T14:13:21Z</time>
      </trkpt>
      <trkpt lat="43.18313" lon="6.61524">
        <ele>150.1</ele>
        <time>2013-12-01T14:13:27Z</time>
      </trkpt>
      <trkpt lat="43.18306" lon="6.61519">
        <ele>150.4</ele>
        <time>2013-12-01T14:13:33Z</time>
      </trkpt>
      <trkpt lat="43.18305" lon="6.61518">
        <ele>150.4</ele>
        <time>2013-12-01T14:13:34Z</time>
      </trkpt>
      <trkpt lat="43.18289" lon="6.61511">
        <ele>150.8</ele>
        <time>2013-12-01T14:13:51Z</time>
      </trkpt>
      <trkpt lat="43.18282" lon="6.61507">
        <ele>151.5</ele>
        <time>2013-12-01T14:13:56Z</time>
      </trkpt>
      <trkpt lat="43.18273" lon="6.61504">
        <ele>151.1</ele>
        <time>2013-12-01T14:14:04Z</time>
      </trkpt>
      <trkpt lat="43.18266" lon="6.61498">
        <ele>150.2</ele>
        <time>2013-12-01T14:14:09Z</time>
      </trkpt>
      <trkpt lat="43.18259" lon="6.61493">
        <ele>149.7</ele>
        <time>2013-12-01T14:14:17Z</time>
      </trkpt>
      <trkpt lat="43.18253" lon="6.61487">
        <ele>150.2</ele>
        <time>2013-12-01T14:14:21Z</time>
      </trkpt>
      <trkpt lat="43.18247" lon="6.61481">
        <ele>149.7</ele>
        <time>2013-12-01T14:14:29Z</time>
      </trkpt>
      <trkpt lat="43.1824" lon="6.61475">
        <ele>149</ele>
        <time>2013-12-01T14:14:34Z</time>
      </trkpt>
      <trkpt lat="43.18238" lon="6.61474">
        <ele>149.2</ele>
        <time>2013-12-01T14:14:35Z</time>
      </trkpt>
      <trkpt lat="43.18225" lon="6.6147">
        <ele>147.8</ele>
        <time>2013-12-01T14:14:46Z</time>
      </trkpt>
      <trkpt lat="43.18217" lon="6.61468">
        <ele>147.7</ele>
        <time>2013-12-01T14:14:52Z</time>
      </trkpt>
      <trkpt lat="43.1821" lon="6.61469">
        <ele>147.7</ele>
        <time>2013-12-01T14:14:58Z</time>
      </trkpt>
      <trkpt lat="43.18202" lon="6.61465">
        <ele>147.9</ele>
        <time>2013-12-01T14:15:02Z</time>
      </trkpt>
      <trkpt lat="43.18194" lon="6.61464">
        <ele>147.8</ele>
        <time>2013-12-01T14:15:11Z</time>
      </trkpt>
      <trkpt lat="43.18185" lon="6.61464">
        <ele>148</ele>
        <time>2013-12-01T14:15:17Z</time>
      </trkpt>
      <trkpt lat="43.18178" lon="6.6147">
        <ele>147.6</ele>
        <time>2013-12-01T14:15:24Z</time>
      </trkpt>
      <trkpt lat="43.18171" lon="6.61472">
        <ele>147.7</ele>
        <time>2013-12-01T14:15:29Z</time>
      </trkpt>
      <trkpt lat="43.18163" lon="6.61472">
        <ele>147.1</ele>
        <time>2013-12-01T14:15:34Z</time>
      </trkpt>
      <trkpt lat="43.18156" lon="6.61473">
        <ele>146.7</ele>
        <time>2013-12-01T14:15:39Z</time>
      </trkpt>
      <trkpt lat="43.18153" lon="6.61472">
        <ele>146.8</ele>
        <time>2013-12-01T14:15:40Z</time>
      </trkpt>
      <trkpt lat="43.18139" lon="6.61472">
        <ele>147.6</ele>
        <time>2013-12-01T14:15:55Z</time>
      </trkpt>
      <trkpt lat="43.18131" lon="6.61472">
        <ele>147.2</ele>
        <time>2013-12-01T14:16:02Z</time>
      </trkpt>
      <trkpt lat="43.18124" lon="6.61473">
        <ele>146.4</ele>
        <time>2013-12-01T14:16:08Z</time>
      </trkpt>
      <trkpt lat="43.18116" lon="6.61471">
        <ele>147.1</ele>
        <time>2013-12-01T14:16:17Z</time>
      </trkpt>
      <trkpt lat="43.18107" lon="6.6147">
        <ele>147.1</ele>
        <time>2013-12-01T14:16:24Z</time>
      </trkpt>
      <trkpt lat="43.18098" lon="6.61469">
        <ele>147.7</ele>
        <time>2013-12-01T14:16:32Z</time>
      </trkpt>
      <trkpt lat="43.18089" lon="6.61468">
        <ele>149</ele>
        <time>2013-12-01T14:16:41Z</time>
      </trkpt>
      <trkpt lat="43.18088" lon="6.61468">
        <ele>149</ele>
        <time>2013-12-01T14:16:42Z</time>
      </trkpt>
      <trkpt lat="43.18072" lon="6.61468">
        <ele>149.4</ele>
        <time>2013-12-01T14:16:55Z</time>
      </trkpt>
      <trkpt lat="43.18064" lon="6.6147">
        <ele>149.9</ele>
        <time>2013-12-01T14:17:01Z</time>
      </trkpt>
      <trkpt lat="43.18055" lon="6.6147">
        <ele>151.2</ele>
        <time>2013-12-01T14:17:08Z</time>
      </trkpt>
      <trkpt lat="43.18046" lon="6.61471">
        <ele>152</ele>
        <time>2013-12-01T14:17:18Z</time>
      </trkpt>
      <trkpt lat="43.18038" lon="6.6147">
        <ele>153.4</ele>
        <time>2013-12-01T14:17:28Z</time>
      </trkpt>
      <trkpt lat="43.18029" lon="6.61473">
        <ele>154.1</ele>
        <time>2013-12-01T14:17:37Z</time>
      </trkpt>
      <trkpt lat="43.18021" lon="6.61475">
        <ele>155</ele>
        <time>2013-12-01T14:17:47Z</time>
      </trkpt>
      <trkpt lat="43.18019" lon="6.61474">
        <ele>154.6</ele>
        <time>2013-12-01T14:17:48Z</time>
      </trkpt>
      <trkpt lat="43.18004" lon="6.61473">
        <ele>154.3</ele>
        <time>2013-12-01T14:18:02Z</time>
      </trkpt>
      <trkpt lat="43.17996" lon="6.61472">
        <ele>154.3</ele>
        <time>2013-12-01T14:18:10Z</time>
      </trkpt>
      <trkpt lat="43.17988" lon="6.61469">
        <ele>153.6</ele>
        <time>2013-12-01T14:18:20Z</time>
      </trkpt>
      <trkpt lat="43.1798" lon="6.61464">
        <ele>153.5</ele>
        <time>2013-12-01T14:18:27Z</time>
      </trkpt>
      <trkpt lat="43.17973" lon="6.61459">
        <ele>152.7</ele>
        <time>2013-12-01T14:18:34Z</time>
      </trkpt>
      <trkpt lat="43.17966" lon="6.61451">
        <ele>152.9</ele>
        <time>2013-12-01T14:18:43Z</time>
      </trkpt>
      <trkpt lat="43.17961" lon="6.61442">
        <ele>152.9</ele>
        <time>2013-12-01T14:18:53Z</time>
      </trkpt>
      <trkpt lat="43.17961" lon="6.6144">
        <ele>152.3</ele>
        <time>2013-12-01T14:18:54Z</time>
      </trkpt>
      <trkpt lat="43.17961" lon="6.61429">
        <ele>155.4</ele>
        <time>2013-12-01T14:20:27Z</time>
      </trkpt>
      <trkpt lat="43.17964" lon="6.61442">
        <ele>158.9</ele>
        <time>2013-12-01T14:21:32Z</time>
      </trkpt>
      <trkpt lat="43.1798" lon="6.61438">
        <ele>164</ele>
        <time>2013-12-01T14:22:15Z</time>
      </trkpt>
      <trkpt lat="43.17989" lon="6.61436">
        <ele>165.6</ele>
        <time>2013-12-01T14:22:30Z</time>
      </trkpt>
      <trkpt lat="43.17998" lon="6.61438">
        <ele>165.1</ele>
        <time>2013-12-01T14:22:46Z</time>
      </trkpt>
      <trkpt lat="43.17998" lon="6.61438">
        <ele>165</ele>
        <time>2013-12-01T14:22:47Z</time>
      </trkpt>
      <trkpt lat="43.18007" lon="6.61419">
        <ele>167.1</ele>
        <time>2013-12-01T14:23:12Z</time>
      </trkpt>
      <trkpt lat="43.18006" lon="6.61406">
        <ele>168.8</ele>
        <time>2013-12-01T14:24:01Z</time>
      </trkpt>
      <trkpt lat="43.18006" lon="6.61406">
        <ele>168.7</ele>
        <time>2013-12-01T14:24:02Z</time>
      </trkpt>
      <trkpt lat="43.18002" lon="6.61395">
        <ele>171.3</ele>
        <time>2013-12-01T14:25:05Z</time>
      </trkpt>
      <trkpt lat="43.18004" lon="6.61408">
        <ele>167.9</ele>
        <time>2013-12-01T14:27:57Z</time>
      </trkpt>
      <trkpt lat="43.18009" lon="6.61429">
        <ele>166.4</ele>
        <time>2013-12-01T14:28:22Z</time>
      </trkpt>
      <trkpt lat="43.18014" lon="6.61438">
        <ele>162.7</ele>
        <time>2013-12-01T14:28:36Z</time>
      </trkpt>
      <trkpt lat="43.18018" lon="6.61448">
        <ele>160.7</ele>
        <time>2013-12-01T14:28:45Z</time>
      </trkpt>
      <trkpt lat="43.18023" lon="6.61458">
        <ele>157.8</ele>
        <time>2013-12-01T14:28:54Z</time>
      </trkpt>
      <trkpt lat="43.18026" lon="6.61468">
        <ele>156.2</ele>
        <time>2013-12-01T14:29:02Z</time>
      </trkpt>
      <trkpt lat="43.18027" lon="6.61469">
        <ele>156.2</ele>
        <time>2013-12-01T14:29:03Z</time>
      </trkpt>
      <trkpt lat="43.18043" lon="6.61474">
        <ele>154.3</ele>
        <time>2013-12-01T14:29:36Z</time>
      </trkpt>
      <trkpt lat="43.18051" lon="6.61475">
        <ele>153.1</ele>
        <time>2013-12-01T14:29:42Z</time>
      </trkpt>
      <trkpt lat="43.18059" lon="6.61475">
        <ele>151.5</ele>
        <time>2013-12-01T14:29:47Z</time>
      </trkpt>
      <trkpt lat="43.18067" lon="6.61477">
        <ele>152.4</ele>
        <time>2013-12-01T14:29:52Z</time>
      </trkpt>
      <trkpt lat="43.18075" lon="6.61474">
        <ele>150.5</ele>
        <time>2013-12-01T14:30:01Z</time>
      </trkpt>
      <trkpt lat="43.18084" lon="6.61476">
        <ele>149.5</ele>
        <time>2013-12-01T14:30:07Z</time>
      </trkpt>
      <trkpt lat="43.18085" lon="6.61477">
        <ele>149.2</ele>
        <time>2013-12-01T14:30:08Z</time>
      </trkpt>
      <trkpt lat="43.18099" lon="6.61485">
        <ele>149.4</ele>
        <time>2013-12-01T14:30:16Z</time>
      </trkpt>
      <trkpt lat="43.18107" lon="6.61484">
        <ele>148.7</ele>
        <time>2013-12-01T14:30:23Z</time>
      </trkpt>
      <trkpt lat="43.18116" lon="6.61483">
        <ele>148.7</ele>
        <time>2013-12-01T14:30:30Z</time>
      </trkpt>
      <trkpt lat="43.18123" lon="6.61486">
        <ele>148.5</ele>
        <time>2013-12-01T14:30:38Z</time>
      </trkpt>
      <trkpt lat="43.18132" lon="6.61486">
        <ele>148.9</ele>
        <time>2013-12-01T14:30:44Z</time>
      </trkpt>
      <trkpt lat="43.1814" lon="6.61485">
        <ele>147.4</ele>
        <time>2013-12-01T14:30:52Z</time>
      </trkpt>
      <trkpt lat="43.18148" lon="6.61485">
        <ele>147.9</ele>
        <time>2013-12-01T14:30:58Z</time>
      </trkpt>
      <trkpt lat="43.18156" lon="6.61483">
        <ele>148.7</ele>
        <time>2013-12-01T14:31:05Z</time>
      </trkpt>
      <trkpt lat="43.18165" lon="6.61483">
        <ele>148.6</ele>
        <time>2013-12-01T14:31:12Z</time>
      </trkpt>
      <trkpt lat="43.18166" lon="6.61482">
        <ele>148.5</ele>
        <time>2013-12-01T14:31:13Z</time>
      </trkpt>
      <trkpt lat="43.18182" lon="6.61479">
        <ele>148.4</ele>
        <time>2013-12-01T14:31:26Z</time>
      </trkpt>
      <trkpt lat="43.1819" lon="6.61477">
        <ele>149.6</ele>
        <time>2013-12-01T14:31:33Z</time>
      </trkpt>
      <trkpt lat="43.18198" lon="6.61478">
        <ele>149.8</ele>
        <time>2013-12-01T14:31:42Z</time>
      </trkpt>
      <trkpt lat="43.18206" lon="6.61479">
        <ele>149.1</ele>
        <time>2013-12-01T14:31:46Z</time>
      </trkpt>
      <trkpt lat="43.18214" lon="6.61478">
        <ele>149</ele>
        <time>2013-12-01T14:31:55Z</time>
      </trkpt>
      <trkpt lat="43.18221" lon="6.61482">
        <ele>149.7</ele>
        <time>2013-12-01T14:31:59Z</time>
      </trkpt>
      <trkpt lat="43.1823" lon="6.61485">
        <ele>148.9</ele>
        <time>2013-12-01T14:32:05Z</time>
      </trkpt>
      <trkpt lat="43.18237" lon="6.61491">
        <ele>149</ele>
        <time>2013-12-01T14:32:12Z</time>
      </trkpt>
      <trkpt lat="43.18244" lon="6.61497">
        <ele>150.2</ele>
        <time>2013-12-01T14:32:21Z</time>
      </trkpt>
      <trkpt lat="43.18245" lon="6.61498">
        <ele>150.4</ele>
        <time>2013-12-01T14:32:22Z</time>
      </trkpt>
      <trkpt lat="43.18259" lon="6.61508">
        <ele>151.4</ele>
        <time>2013-12-01T14:32:34Z</time>
      </trkpt>
      <trkpt lat="43.18267" lon="6.61511">
        <ele>152</ele>
        <time>2013-12-01T14:32:42Z</time>
      </trkpt>
      <trkpt lat="43.18274" lon="6.61516">
        <ele>151.2</ele>
        <time>2013-12-01T14:32:47Z</time>
      </trkpt>
      <trkpt lat="43.18281" lon="6.61522">
        <ele>151.5</ele>
        <time>2013-12-01T14:32:53Z</time>
      </trkpt>
      <trkpt lat="43.1829" lon="6.61522">
        <ele>151.6</ele>
        <time>2013-12-01T14:33:00Z</time>
      </trkpt>
      <trkpt lat="43.18297" lon="6.61528">
        <ele>152</ele>
        <time>2013-12-01T14:33:05Z</time>
      </trkpt>
      <trkpt lat="43.18304" lon="6.61531">
        <ele>151</ele>
        <time>2013-12-01T14:33:12Z</time>
      </trkpt>
      <trkpt lat="43.18312" lon="6.61535">
        <ele>150.8</ele>
        <time>2013-12-01T14:33:17Z</time>
      </trkpt>
      <trkpt lat="43.18319" lon="6.6154">
        <ele>150.7</ele>
        <time>2013-12-01T14:33:21Z</time>
      </trkpt>
      <trkpt lat="43.18327" lon="6.61534">
        <ele>151.5</ele>
        <time>2013-12-01T14:33:30Z</time>
      </trkpt>
      <trkpt lat="43.18328" lon="6.61533">
        <ele>151.5</ele>
        <time>2013-12-01T14:33:31Z</time>
      </trkpt>
      <trkpt lat="43.18339" lon="6.61517">
        <ele>152.6</ele>
        <time>2013-12-01T14:33:44Z</time>
      </trkpt>
      <trkpt lat="43.18343" lon="6.61507">
        <ele>153.7</ele>
        <time>2013-12-01T14:33:52Z</time>
      </trkpt>
      <trkpt lat="43.18345" lon="6.61496">
        <ele>154.7</ele>
        <time>2013-12-01T14:33:59Z</time>
      </trkpt>
      <trkpt lat="43.18348" lon="6.61485">
        <ele>153.8</ele>
        <time>2013-12-01T14:34:07Z</time>
      </trkpt>
      <trkpt lat="43.18351" lon="6.61474">
        <ele>153.6</ele>
        <time>2013-12-01T14:34:16Z</time>
      </trkpt>
      <trkpt lat="43.18356" lon="6.61464">
        <ele>153.5</ele>
        <time>2013-12-01T14:34:21Z</time>
      </trkpt>
      <trkpt lat="43.18361" lon="6.61454">
        <ele>152.4</ele>
        <time>2013-12-01T14:34:29Z</time>
      </trkpt>
      <trkpt lat="43.18368" lon="6.61446">
        <ele>152.3</ele>
        <time>2013-12-01T14:34:36Z</time>
      </trkpt>
      <trkpt lat="43.18368" lon="6.61446">
        <ele>152.3</ele>
        <time>2013-12-01T14:34:37Z</time>
      </trkpt>
      <trkpt lat="43.18385" lon="6.61445">
        <ele>153.8</ele>
        <time>2013-12-01T14:35:00Z</time>
      </trkpt>
      <trkpt lat="43.18393" lon="6.61441">
        <ele>154.1</ele>
        <time>2013-12-01T14:35:08Z</time>
      </trkpt>
      <trkpt lat="43.18399" lon="6.61432">
        <ele>153.5</ele>
        <time>2013-12-01T14:35:22Z</time>
      </trkpt>
      <trkpt lat="43.18401" lon="6.6142">
        <ele>152.2</ele>
        <time>2013-12-01T14:35:34Z</time>
      </trkpt>
      <trkpt lat="43.18402" lon="6.61408">
        <ele>150.5</ele>
        <time>2013-12-01T14:35:46Z</time>
      </trkpt>
      <trkpt lat="43.18403" lon="6.61407">
        <ele>150.4</ele>
        <time>2013-12-01T14:35:47Z</time>
      </trkpt>
      <trkpt lat="43.18416" lon="6.61393">
        <ele>147.4</ele>
        <time>2013-12-01T14:36:05Z</time>
      </trkpt>
      <trkpt lat="43.1842" lon="6.61383">
        <ele>145.7</ele>
        <time>2013-12-01T14:36:14Z</time>
      </trkpt>
      <trkpt lat="43.18422" lon="6.61372">
        <ele>144.8</ele>
        <time>2013-12-01T14:36:26Z</time>
      </trkpt>
      <trkpt lat="43.18421" lon="6.6136">
        <ele>144.9</ele>
        <time>2013-12-01T14:36:37Z</time>
      </trkpt>
      <trkpt lat="43.18422" lon="6.61348">
        <ele>144</ele>
        <time>2013-12-01T14:36:51Z</time>
      </trkpt>
      <trkpt lat="43.18422" lon="6.61347">
        <ele>143.9</ele>
        <time>2013-12-01T14:36:52Z</time>
      </trkpt>
      <trkpt lat="43.18433" lon="6.61332">
        <ele>143.2</ele>
        <time>2013-12-01T14:37:05Z</time>
      </trkpt>
      <trkpt lat="43.18437" lon="6.61323">
        <ele>142.8</ele>
        <time>2013-12-01T14:37:13Z</time>
      </trkpt>
      <trkpt lat="43.18443" lon="6.61315">
        <ele>142.4</ele>
        <time>2013-12-01T14:37:21Z</time>
      </trkpt>
      <trkpt lat="43.18447" lon="6.61304">
        <ele>142.1</ele>
        <time>2013-12-01T14:37:26Z</time>
      </trkpt>
      <trkpt lat="43.18451" lon="6.61294">
        <ele>141.3</ele>
        <time>2013-12-01T14:37:33Z</time>
      </trkpt>
      <trkpt lat="43.18453" lon="6.61285">
        <ele>141.5</ele>
        <time>2013-12-01T14:37:38Z</time>
      </trkpt>
      <trkpt lat="43.18454" lon="6.61273">
        <ele>140.6</ele>
        <time>2013-12-01T14:37:45Z</time>
      </trkpt>
      <trkpt lat="43.18456" lon="6.61262">
        <ele>141.2</ele>
        <time>2013-12-01T14:37:52Z</time>
      </trkpt>
      <trkpt lat="43.18457" lon="6.6126">
        <ele>141.1</ele>
        <time>2013-12-01T14:37:53Z</time>
      </trkpt>
      <trkpt lat="43.18457" lon="6.6124">
        <ele>140.4</ele>
        <time>2013-12-01T14:38:06Z</time>
      </trkpt>
      <trkpt lat="43.18457" lon="6.61228">
        <ele>140.9</ele>
        <time>2013-12-01T14:38:14Z</time>
      </trkpt>
      <trkpt lat="43.18456" lon="6.61216">
        <ele>141.7</ele>
        <time>2013-12-01T14:38:24Z</time>
      </trkpt>
      <trkpt lat="43.18457" lon="6.61204">
        <ele>142.7</ele>
        <time>2013-12-01T14:38:31Z</time>
      </trkpt>
      <trkpt lat="43.18458" lon="6.61193">
        <ele>144</ele>
        <time>2013-12-01T14:38:39Z</time>
      </trkpt>
      <trkpt lat="43.18457" lon="6.61182">
        <ele>145.5</ele>
        <time>2013-12-01T14:38:49Z</time>
      </trkpt>
      <trkpt lat="43.18459" lon="6.6117">
        <ele>146.6</ele>
        <time>2013-12-01T14:38:57Z</time>
      </trkpt>
      <trkpt lat="43.18459" lon="6.61169">
        <ele>146.6</ele>
        <time>2013-12-01T14:38:58Z</time>
      </trkpt>
      <trkpt lat="43.18451" lon="6.61149">
        <ele>145.9</ele>
        <time>2013-12-01T14:39:13Z</time>
      </trkpt>
      <trkpt lat="43.1845" lon="6.61138">
        <ele>145.4</ele>
        <time>2013-12-01T14:39:20Z</time>
      </trkpt>
      <trkpt lat="43.18447" lon="6.61127">
        <ele>143.7</ele>
        <time>2013-12-01T14:39:28Z</time>
      </trkpt>
      <trkpt lat="43.18449" lon="6.61116">
        <ele>143.1</ele>
        <time>2013-12-01T14:39:34Z</time>
      </trkpt>
      <trkpt lat="43.18447" lon="6.61104">
        <ele>142</ele>
        <time>2013-12-01T14:39:43Z</time>
      </trkpt>
      <trkpt lat="43.1845" lon="6.61093">
        <ele>141.1</ele>
        <time>2013-12-01T14:39:52Z</time>
      </trkpt>
      <trkpt lat="43.18452" lon="6.61081">
        <ele>140.9</ele>
        <time>2013-12-01T14:39:58Z</time>
      </trkpt>
      <trkpt lat="43.18452" lon="6.61081">
        <ele>140.8</ele>
        <time>2013-12-01T14:39:59Z</time>
      </trkpt>
      <trkpt lat="43.1846" lon="6.61062">
        <ele>139</ele>
        <time>2013-12-01T14:40:15Z</time>
      </trkpt>
      <trkpt lat="43.18464" lon="6.61052">
        <ele>137.9</ele>
        <time>2013-12-01T14:40:24Z</time>
      </trkpt>
      <trkpt lat="43.18466" lon="6.6104">
        <ele>137.1</ele>
        <time>2013-12-01T14:40:32Z</time>
      </trkpt>
      <trkpt lat="43.18465" lon="6.61029">
        <ele>136.2</ele>
        <time>2013-12-01T14:40:39Z</time>
      </trkpt>
      <trkpt lat="43.18465" lon="6.61017">
        <ele>134.7</ele>
        <time>2013-12-01T14:40:47Z</time>
      </trkpt>
      <trkpt lat="43.18466" lon="6.61006">
        <ele>133.7</ele>
        <time>2013-12-01T14:40:57Z</time>
      </trkpt>
      <trkpt lat="43.18467" lon="6.60993">
        <ele>131.9</ele>
        <time>2013-12-01T14:41:07Z</time>
      </trkpt>
      <trkpt lat="43.18467" lon="6.60991">
        <ele>131.7</ele>
        <time>2013-12-01T14:41:08Z</time>
      </trkpt>
      <trkpt lat="43.18467" lon="6.6097">
        <ele>130</ele>
        <time>2013-12-01T14:41:23Z</time>
      </trkpt>
      <trkpt lat="43.18467" lon="6.60959">
        <ele>130</ele>
        <time>2013-12-01T14:41:31Z</time>
      </trkpt>
      <trkpt lat="43.18467" lon="6.60947">
        <ele>130.1</ele>
        <time>2013-12-01T14:41:38Z</time>
      </trkpt>
      <trkpt lat="43.18467" lon="6.60936">
        <ele>130.8</ele>
        <time>2013-12-01T14:41:46Z</time>
      </trkpt>
      <trkpt lat="43.18468" lon="6.60924">
        <ele>131.8</ele>
        <time>2013-12-01T14:41:54Z</time>
      </trkpt>
      <trkpt lat="43.18465" lon="6.60914">
        <ele>132.3</ele>
        <time>2013-12-01T14:42:03Z</time>
      </trkpt>
      <trkpt lat="43.18465" lon="6.60901">
        <ele>132.1</ele>
        <time>2013-12-01T14:42:16Z</time>
      </trkpt>
      <trkpt lat="43.18464" lon="6.60901">
        <ele>132</ele>
        <time>2013-12-01T14:42:17Z</time>
      </trkpt>
      <trkpt lat="43.18457" lon="6.60879">
        <ele>132.7</ele>
        <time>2013-12-01T14:42:46Z</time>
      </trkpt>
      <trkpt lat="43.18458" lon="6.60868">
        <ele>132.7</ele>
        <time>2013-12-01T14:42:55Z</time>
      </trkpt>
      <trkpt lat="43.18458" lon="6.60856">
        <ele>132.8</ele>
        <time>2013-12-01T14:43:08Z</time>
      </trkpt>
      <trkpt lat="43.18458" lon="6.60844">
        <ele>132.8</ele>
        <time>2013-12-01T14:43:26Z</time>
      </trkpt>
      <trkpt lat="43.18458" lon="6.60844">
        <ele>132.7</ele>
        <time>2013-12-01T14:43:27Z</time>
      </trkpt>
      <trkpt lat="43.18465" lon="6.60823">
        <ele>132.9</ele>
        <time>2013-12-01T14:44:02Z</time>
      </trkpt>
      <trkpt lat="43.18471" lon="6.60814">
        <ele>131.7</ele>
        <time>2013-12-01T14:44:14Z</time>
      </trkpt>
      <trkpt lat="43.18475" lon="6.60804">
        <ele>131</ele>
        <time>2013-12-01T14:44:24Z</time>
      </trkpt>
      <trkpt lat="43.18476" lon="6.60792">
        <ele>127.8</ele>
        <time>2013-12-01T14:44:38Z</time>
      </trkpt>
      <trkpt lat="43.18476" lon="6.60792">
        <ele>127.7</ele>
        <time>2013-12-01T14:44:39Z</time>
      </trkpt>
      <trkpt lat="43.18481" lon="6.6077">
        <ele>121.1</ele>
        <time>2013-12-01T14:45:08Z</time>
      </trkpt>
      <trkpt lat="43.18482" lon="6.60758">
        <ele>117.9</ele>
        <time>2013-12-01T14:45:21Z</time>
      </trkpt>
      <trkpt lat="43.18485" lon="6.60747">
        <ele>115.6</ele>
        <time>2013-12-01T14:45:33Z</time>
      </trkpt>
      <trkpt lat="43.18483" lon="6.60735">
        <ele>112.6</ele>
        <time>2013-12-01T14:45:46Z</time>
      </trkpt>
      <trkpt lat="43.18483" lon="6.60734">
        <ele>112.6</ele>
        <time>2013-12-01T14:45:47Z</time>
      </trkpt>
      <trkpt lat="43.18494" lon="6.60716">
        <ele>106</ele>
        <time>2013-12-01T14:46:24Z</time>
      </trkpt>
      <trkpt lat="43.18498" lon="6.60705">
        <ele>104.9</ele>
        <time>2013-12-01T14:46:34Z</time>
      </trkpt>
      <trkpt lat="43.18506" lon="6.607">
        <ele>105.1</ele>
        <time>2013-12-01T14:46:47Z</time>
      </trkpt>
      <trkpt lat="43.18506" lon="6.60699">
        <ele>104.9</ele>
        <time>2013-12-01T14:46:48Z</time>
      </trkpt>
      <trkpt lat="43.18506" lon="6.60677">
        <ele>98.4</ele>
        <time>2013-12-01T14:47:29Z</time>
      </trkpt>
      <trkpt lat="43.18504" lon="6.60666">
        <ele>96.7</ele>
        <time>2013-12-01T14:50:55Z</time>
      </trkpt>
      <trkpt lat="43.18504" lon="6.60665">
        <ele>96.9</ele>
        <time>2013-12-01T14:50:56Z</time>
      </trkpt>
      <trkpt lat="43.18498" lon="6.60655">
        <ele>93.1</ele>
        <time>2013-12-01T14:52:40Z</time>
      </trkpt>
      <trkpt lat="43.18482" lon="6.60654">
        <ele>90.8</ele>
        <time>2013-12-01T14:52:55Z</time>
      </trkpt>
      <trkpt lat="43.18475" lon="6.60657">
        <ele>88.3</ele>
        <time>2013-12-01T14:53:20Z</time>
      </trkpt>
      <trkpt lat="43.18483" lon="6.60654">
        <ele>87.6</ele>
        <time>2013-12-01T14:54:06Z</time>
      </trkpt>
      <trkpt lat="43.18484" lon="6.60654">
        <ele>87.4</ele>
        <time>2013-12-01T14:54:07Z</time>
      </trkpt>
      <trkpt lat="43.18498" lon="6.60643">
        <ele>85.8</ele>
        <time>2013-12-01T14:54:42Z</time>
      </trkpt>
      <trkpt lat="43.18506" lon="6.6064">
        <ele>85.1</ele>
        <time>2013-12-01T14:54:52Z</time>
      </trkpt>
      <trkpt lat="43.18514" lon="6.60638">
        <ele>84.3</ele>
        <time>2013-12-01T14:54:59Z</time>
      </trkpt>
      <trkpt lat="43.18522" lon="6.60638">
        <ele>83.3</ele>
        <time>2013-12-01T14:55:12Z</time>
      </trkpt>
      <trkpt lat="43.18523" lon="6.60638">
        <ele>83.3</ele>
        <time>2013-12-01T14:55:13Z</time>
      </trkpt>
      <trkpt lat="43.18539" lon="6.60639">
        <ele>82.7</ele>
        <time>2013-12-01T14:56:03Z</time>
      </trkpt>
      <trkpt lat="43.18547" lon="6.6064">
        <ele>81.4</ele>
        <time>2013-12-01T14:56:14Z</time>
      </trkpt>
      <trkpt lat="43.18548" lon="6.6064">
        <ele>81.4</ele>
        <time>2013-12-01T14:56:15Z</time>
      </trkpt>
      <trkpt lat="43.18564" lon="6.60645">
        <ele>79.2</ele>
        <time>2013-12-01T14:56:33Z</time>
      </trkpt>
      <trkpt lat="43.18572" lon="6.60648">
        <ele>78.4</ele>
        <time>2013-12-01T14:56:43Z</time>
      </trkpt>
      <trkpt lat="43.1858" lon="6.60643">
        <ele>75.5</ele>
        <time>2013-12-01T14:57:01Z</time>
      </trkpt>
      <trkpt lat="43.18589" lon="6.60645">
        <ele>72.8</ele>
        <time>2013-12-01T14:57:22Z</time>
      </trkpt>
      <trkpt lat="43.18589" lon="6.60644">
        <ele>72.7</ele>
        <time>2013-12-01T14:57:23Z</time>
      </trkpt>
      <trkpt lat="43.18585" lon="6.60623">
        <ele>68.5</ele>
        <time>2013-12-01T14:57:42Z</time>
      </trkpt>
      <trkpt lat="43.18581" lon="6.60613">
        <ele>67.5</ele>
        <time>2013-12-01T14:57:51Z</time>
      </trkpt>
      <trkpt lat="43.18577" lon="6.60603">
        <ele>65.2</ele>
        <time>2013-12-01T14:58:02Z</time>
      </trkpt>
      <trkpt lat="43.18572" lon="6.60593">
        <ele>63.9</ele>
        <time>2013-12-01T14:58:10Z</time>
      </trkpt>
      <trkpt lat="43.18565" lon="6.60585">
        <ele>61.7</ele>
        <time>2013-12-01T14:58:19Z</time>
      </trkpt>
      <trkpt lat="43.18557" lon="6.60581">
        <ele>59.6</ele>
        <time>2013-12-01T14:58:38Z</time>
      </trkpt>
      <trkpt lat="43.18556" lon="6.60581">
        <ele>59.8</ele>
        <time>2013-12-01T14:58:39Z</time>
      </trkpt>
      <trkpt lat="43.18546" lon="6.60564">
        <ele>57.5</ele>
        <time>2013-12-01T14:59:06Z</time>
      </trkpt>
      <trkpt lat="43.18539" lon="6.60559">
        <ele>56.5</ele>
        <time>2013-12-01T14:59:13Z</time>
      </trkpt>
      <trkpt lat="43.18531" lon="6.60553">
        <ele>55.8</ele>
        <time>2013-12-01T14:59:21Z</time>
      </trkpt>
      <trkpt lat="43.18523" lon="6.6055">
        <ele>54.6</ele>
        <time>2013-12-01T14:59:28Z</time>
      </trkpt>
      <trkpt lat="43.18516" lon="6.60546">
        <ele>52.5</ele>
        <time>2013-12-01T14:59:38Z</time>
      </trkpt>
      <trkpt lat="43.18508" lon="6.6054">
        <ele>51.6</ele>
        <time>2013-12-01T14:59:44Z</time>
      </trkpt>
      <trkpt lat="43.18507" lon="6.60538">
        <ele>51.5</ele>
        <time>2013-12-01T14:59:45Z</time>
      </trkpt>
      <trkpt lat="43.18493" lon="6.60529">
        <ele>49</ele>
        <time>2013-12-01T15:00:01Z</time>
      </trkpt>
      <trkpt lat="43.18486" lon="6.60526">
        <ele>47.4</ele>
        <time>2013-12-01T15:00:10Z</time>
      </trkpt>
      <trkpt lat="43.18478" lon="6.60525">
        <ele>46.1</ele>
        <time>2013-12-01T15:00:16Z</time>
      </trkpt>
      <trkpt lat="43.18479" lon="6.60513">
        <ele>42.7</ele>
        <time>2013-12-01T15:00:29Z</time>
      </trkpt>
      <trkpt lat="43.18486" lon="6.60505">
        <ele>40.6</ele>
        <time>2013-12-01T15:00:39Z</time>
      </trkpt>
      <trkpt lat="43.18494" lon="6.60502">
        <ele>39.7</ele>
        <time>2013-12-01T15:00:48Z</time>
      </trkpt>
      <trkpt lat="43.18495" lon="6.60502">
        <ele>39.8</ele>
        <time>2013-12-01T15:00:49Z</time>
      </trkpt>
      <trkpt lat="43.18476" lon="6.6049">
        <ele>37.5</ele>
        <time>2013-12-01T15:01:11Z</time>
      </trkpt>
      <trkpt lat="43.1846" lon="6.60464">
        <ele>36.7</ele>
        <time>2013-12-01T15:01:18Z</time>
      </trkpt>
      <trkpt lat="43.18452" lon="6.6044">
        <ele>36.5</ele>
        <time>2013-12-01T15:01:24Z</time>
      </trkpt>
      <trkpt lat="43.18449" lon="6.60414">
        <ele>35.2</ele>
        <time>2013-12-01T15:01:31Z</time>
      </trkpt>
      <trkpt lat="43.18454" lon="6.60405">
        <ele>33.4</ele>
        <time>2013-12-01T15:01:40Z</time>
      </trkpt>
      <trkpt lat="43.1845" lon="6.60395">
        <ele>32.9</ele>
        <time>2013-12-01T15:01:45Z</time>
      </trkpt>
      <trkpt lat="43.18444" lon="6.60364">
        <ele>32.9</ele>
        <time>2013-12-01T15:01:53Z</time>
      </trkpt>
      <trkpt lat="43.18435" lon="6.60341">
        <ele>32.9</ele>
        <time>2013-12-01T15:01:54Z</time>
      </trkpt>
      <trkpt lat="43.18422" lon="6.60325">
        <ele>32.7</ele>
        <time>2013-12-01T15:02:07Z</time>
      </trkpt>
      <trkpt lat="43.1841" lon="6.60305">
        <ele>33.1</ele>
        <time>2013-12-01T15:02:15Z</time>
      </trkpt>
      <trkpt lat="43.18403" lon="6.60281">
        <ele>32.5</ele>
        <time>2013-12-01T15:02:22Z</time>
      </trkpt>
      <trkpt lat="43.18401" lon="6.6026">
        <ele>31.5</ele>
        <time>2013-12-01T15:02:28Z</time>
      </trkpt>
      <trkpt lat="43.18395" lon="6.60242">
        <ele>31.4</ele>
        <time>2013-12-01T15:02:38Z</time>
      </trkpt>
      <trkpt lat="43.18386" lon="6.60222">
        <ele>30.3</ele>
        <time>2013-12-01T15:02:47Z</time>
      </trkpt>
      <trkpt lat="43.18383" lon="6.6021">
        <ele>25.5</ele>
        <time>2013-12-01T15:03:08Z</time>
      </trkpt>
      <trkpt lat="43.18373" lon="6.60195">
        <ele>25.4</ele>
        <time>2013-12-01T15:03:09Z</time>
      </trkpt>
      <trkpt lat="43.18366" lon="6.60183">
        <ele>22.3</ele>
        <time>2013-12-01T15:03:23Z</time>
      </trkpt>
      <trkpt lat="43.18355" lon="6.6017">
        <ele>20.6</ele>
        <time>2013-12-01T15:03:34Z</time>
      </trkpt>
      <trkpt lat="43.1835" lon="6.60155">
        <ele>20</ele>
        <time>2013-12-01T15:03:40Z</time>
      </trkpt>
      <trkpt lat="43.18349" lon="6.60142">
        <ele>4.3</ele>
        <time>2013-12-01T15:10:04Z</time>
      </trkpt>
      <trkpt lat="43.18352" lon="6.60133">
        <ele>4.4</ele>
        <time>2013-12-01T15:10:18Z</time>
      </trkpt>
      <trkpt lat="43.18355" lon="6.60114">
        <ele>4.5</ele>
        <time>2013-12-01T15:10:26Z</time>
      </trkpt>
      <trkpt lat="43.18358" lon="6.60106">
        <ele>4.5</ele>
        <time>2013-12-01T15:10:27Z</time>
      </trkpt>
      <trkpt lat="43.18361" lon="6.60102">
        <ele>3.2</ele>
        <time>2013-12-01T15:10:41Z</time>
      </trkpt>
      <trkpt lat="43.18363" lon="6.60098">
        <ele>2.2</ele>
        <time>2013-12-01T15:10:49Z</time>
      </trkpt>
      <trkpt lat="43.18366" lon="6.60094">
        <ele>1.6</ele>
        <time>2013-12-01T15:10:55Z</time>
      </trkpt>
      <trkpt lat="43.18367" lon="6.6009">
        <ele>1.4</ele>
        <time>2013-12-01T15:11:04Z</time>
      </trkpt>
      <trkpt lat="43.1837" lon="6.60078">
        <ele>1.3</ele>
        <time>2013-12-01T15:11:16Z</time>
      </trkpt>
      <trkpt lat="43.18373" lon="6.60067">
        <ele>1.2</ele>
        <time>2013-12-01T15:11:26Z</time>
      </trkpt>
      <trkpt lat="43.18366" lon="6.60059">
        <ele>2.3</ele>
        <time>2013-12-01T15:12:01Z</time>
      </trkpt>
      <trkpt lat="43.18366" lon="6.60059">
        <ele>2.2</ele>
        <time>2013-12-01T15:12:02Z</time>
      </trkpt>
      <trkpt lat="43.18374" lon="6.60048">
        <ele>0.8</ele>
        <time>2013-12-01T15:13:12Z</time>
      </trkpt>
      <trkpt lat="43.18375" lon="6.60048">
        <ele>0.6</ele>
        <time>2013-12-01T15:13:13Z</time>
      </trkpt>
      <trkpt lat="43.18382" lon="6.6004">
        <ele>0.8</ele>
        <time>2013-12-01T15:16:56Z</time>
      </trkpt>
      <trkpt lat="43.18394" lon="6.60027">
        <ele>1</ele>
        <time>2013-12-01T15:17:30Z</time>
      </trkpt>
      <trkpt lat="43.18397" lon="6.60015">
        <ele>0.9</ele>
        <time>2013-12-01T15:17:40Z</time>
      </trkpt>
      <trkpt lat="43.18401" lon="6.60004">
        <ele>0.6</ele>
        <time>2013-12-01T15:17:48Z</time>
      </trkpt>
      <trkpt lat="43.18405" lon="6.59995">
        <ele>2.8</ele>
        <time>2013-12-01T15:17:56Z</time>
      </trkpt>
      <trkpt lat="43.18406" lon="6.59993">
        <ele>2.9</ele>
        <time>2013-12-01T15:17:57Z</time>
      </trkpt>
      <trkpt lat="43.1841" lon="6.59973">
        <ele>1.2</ele>
        <time>2013-12-01T15:18:08Z</time>
      </trkpt>
      <trkpt lat="43.18416" lon="6.59966">
        <ele>1.2</ele>
        <time>2013-12-01T15:18:20Z</time>
      </trkpt>
      <trkpt lat="43.18416" lon="6.59954">
        <ele>0.8</ele>
        <time>2013-12-01T15:18:28Z</time>
      </trkpt>
      <trkpt lat="43.18416" lon="6.59943">
        <ele>0.6</ele>
        <time>2013-12-01T15:18:36Z</time>
      </trkpt>
      <trkpt lat="43.18417" lon="6.59931">
        <ele>0.3</ele>
        <time>2013-12-01T15:18:44Z</time>
      </trkpt>
      <trkpt lat="43.18419" lon="6.5992">
        <ele>0.7</ele>
        <time>2013-12-01T15:18:54Z</time>
      </trkpt>
      <trkpt lat="43.18421" lon="6.5991">
        <ele>0.9</ele>
        <time>2013-12-01T15:19:02Z</time>
      </trkpt>
      <trkpt lat="43.18421" lon="6.59908">
        <ele>1.1</ele>
        <time>2013-12-01T15:19:03Z</time>
      </trkpt>
      <trkpt lat="43.18424" lon="6.59886">
        <ele>0.8</ele>
        <time>2013-12-01T15:19:17Z</time>
      </trkpt>
      <trkpt lat="43.18425" lon="6.59875">
        <ele>1.1</ele>
        <time>2013-12-01T15:19:27Z</time>
      </trkpt>
      <trkpt lat="43.18426" lon="6.59864">
        <ele>1.2</ele>
        <time>2013-12-01T15:19:35Z</time>
      </trkpt>
      <trkpt lat="43.18429" lon="6.59852">
        <ele>1.7</ele>
        <time>2013-12-01T15:19:43Z</time>
      </trkpt>
      <trkpt lat="43.18435" lon="6.59845">
        <ele>2.4</ele>
        <time>2013-12-01T15:19:53Z</time>
      </trkpt>
      <trkpt lat="43.18444" lon="6.59845">
        <ele>3.1</ele>
        <time>2013-12-01T15:20:01Z</time>
      </trkpt>
      <trkpt lat="43.18452" lon="6.59847">
        <ele>4.1</ele>
        <time>2013-12-01T15:20:10Z</time>
      </trkpt>
      <trkpt lat="43.18453" lon="6.59847">
        <ele>4.2</ele>
        <time>2013-12-01T15:20:11Z</time>
      </trkpt>
      <trkpt lat="43.18468" lon="6.59854">
        <ele>5</ele>
        <time>2013-12-01T15:20:24Z</time>
      </trkpt>
      <trkpt lat="43.18476" lon="6.59853">
        <ele>5.9</ele>
        <time>2013-12-01T15:20:31Z</time>
      </trkpt>
      <trkpt lat="43.18485" lon="6.59851">
        <ele>6.2</ele>
        <time>2013-12-01T15:20:38Z</time>
      </trkpt>
      <trkpt lat="43.18493" lon="6.59848">
        <ele>6.4</ele>
        <time>2013-12-01T15:20:53Z</time>
      </trkpt>
      <trkpt lat="43.18501" lon="6.5985">
        <ele>6</ele>
        <time>2013-12-01T15:21:04Z</time>
      </trkpt>
      <trkpt lat="43.18508" lon="6.59856">
        <ele>6.3</ele>
        <time>2013-12-01T15:21:13Z</time>
      </trkpt>
      <trkpt lat="43.18509" lon="6.59857">
        <ele>6.3</ele>
        <time>2013-12-01T15:21:14Z</time>
      </trkpt>
      <trkpt lat="43.18522" lon="6.59869">
        <ele>4.3</ele>
        <time>2013-12-01T15:21:31Z</time>
      </trkpt>
      <trkpt lat="43.18529" lon="6.59875">
        <ele>2.8</ele>
        <time>2013-12-01T15:21:40Z</time>
      </trkpt>
      <trkpt lat="43.18534" lon="6.59885">
        <ele>1.7</ele>
        <time>2013-12-01T15:21:49Z</time>
      </trkpt>
      <trkpt lat="43.18538" lon="6.59896">
        <ele>1.8</ele>
        <time>2013-12-01T15:21:58Z</time>
      </trkpt>
      <trkpt lat="43.18545" lon="6.59903">
        <ele>1.7</ele>
        <time>2013-12-01T15:25:24Z</time>
      </trkpt>
      <trkpt lat="43.18545" lon="6.59903">
        <ele>1.8</ele>
        <time>2013-12-01T15:25:25Z</time>
      </trkpt>
      <trkpt lat="43.18542" lon="6.59893">
        <ele>2.1</ele>
        <time>2013-12-01T15:26:52Z</time>
      </trkpt>
      <trkpt lat="43.18542" lon="6.59894">
        <ele>1.9</ele>
        <time>2013-12-01T15:26:53Z</time>
      </trkpt>
    </trkseg>
  </trk>
</gpx>